U27416 / G-UZHI 7700 Squawk Report (26th of February, 2020)

Aircraft A20N Reg No. G-UZHI Age 1 years old
Model A320 Jet engines 2 First flight 04-07-18
Registered 12-07-18 Rollout N/A Delivered 12-07-18
Construction No. 8304 Line No. N/A Series 251N(SL)
ADSHEX 407568 Airline name easyJet Owner N/A
Airfield based Luton~Beds~G First tracked N/A

Flight history for G-UZHI

Route Flight No Date Playback
???? U29604 2020-03-29 13:24:00
???? U29603 2020-03-29 09:23:00
???? N/A 2020-03-28 14:45:00
???? N/A 2020-03-24 22:11:00
Faro (FAO) - Gatwick (LGW) U28916 2020-03-21 01:56:00
Gatwick (LGW) - Faro (FAO) U28915 2020-03-20 13:04:00
La Palma (SPC) - Gatwick (LGW) U28712 2020-03-19 16:54:00
Gatwick (LGW) - Budapest Ferenc Liszt (BUD) U28425 2020-03-19 12:59:00
Budapest Ferenc Liszt (BUD) - Gatwick (LGW) U28428 2020-03-19 07:36:00
Gatwick (LGW) - Budapest Ferenc Liszt (BUD) U28427 2020-03-18 18:37:00
Luqa (MLA) - Gatwick (LGW) U28824 2020-03-18 16:21:00
Gatwick (LGW) - Luqa (MLA) U28823 2020-03-18 11:29:00
Menara (RAK) - Gatwick (LGW) U28896 2020-03-17 23:53:00
???? U28422 2020-03-17 20:41:00
Luqa (MLA) - Gatwick (LGW) U28824 2020-03-17 14:30:00
Gatwick (LGW) - Luqa (MLA) U28823 2020-03-17 11:33:00
Keflavik International Airport (KEF) - Gatwick (LGW) U28508 2020-03-17 07:22:00
Gatwick (LGW) - Keflavik International Airport (KEF) U28507 2020-03-16 19:52:00
Budapest Ferenc Liszt (BUD) - Gatwick (LGW) U28424 2020-03-16 14:43:00
Gatwick (LGW) - Budapest Ferenc Liszt (BUD) U28423 2020-03-16 10:39:00
Time Lat Lon Altitude Heading Speed Vertical Rate
2020-02-26 16:43:55 GMT 51.572292 0.697403 0 53 22 0
2020-02-26 16:40:33 GMT 51.575176 0.703888 300 234 126 -768
2020-02-26 16:40:24 GMT 51.578018 0.710220 425 235 126 -704
2020-02-26 16:40:21 GMT 51.579460 0.713425 450 235 125 -768
2020-02-26 16:40:12 GMT 51.582321 0.719827 525 234 123 -704
2020-02-26 16:40:09 GMT 51.583511 0.722425 575 235 124 -704
2020-02-26 16:40:05 GMT 51.584656 0.724949 600 234 123 -704
2020-02-26 16:40:02 GMT 51.585663 0.727250 650 235 122 -704
2020-02-26 16:39:54 GMT 51.588306 0.733185 750 235 124 -512
2020-02-26 16:39:51 GMT 51.591190 0.739594 800 235 123 -512
2020-02-26 16:39:45 GMT 51.591190 0.739594 800 235 124 -768
2020-02-26 16:39:42 GMT 51.592529 0.742691 850 235 123 -768
2020-02-26 16:39:39 GMT 51.593426 0.744629 1,000 235 124 -768
2020-02-26 16:39:33 GMT 51.596451 0.751343 1,000 235 124 -832
2020-02-26 16:39:30 GMT 51.598114 0.755013 1,075 235 124 -640
2020-02-26 16:39:25 GMT 51.599243 0.757523 1,125 233 125 -640
2020-02-26 16:39:21 GMT 51.599243 0.757523 1,150 234 124 -512
2020-02-26 16:39:15 GMT 51.601574 0.762482 1,175 235 124 -576
2020-02-26 16:39:11 GMT 51.603760 0.767517 1,250 235 122 -768
2020-02-26 16:39:04 GMT 51.605072 0.770379 1,300 235 124 -576
2020-02-26 16:39:01 GMT 51.607086 0.774907 1,400 235 122 -512
2020-02-26 16:38:53 GMT 51.608833 0.778885 1,400 235 122 -512
2020-02-26 16:38:50 GMT 51.609650 0.780772 1,450 235 121 -640
2020-02-26 16:38:47 GMT 51.612000 0.785980 1,525 235 121 -704
2020-02-26 16:38:44 GMT 51.612000 0.785980 1,525 235 122 -640
2020-02-26 16:38:41 GMT 51.613724 0.789871 1,550 235 124 -640
2020-02-26 16:38:34 GMT 51.615025 0.792847 1,600 234 126 -704
2020-02-26 16:38:31 GMT 51.616104 0.795173 1,675 235 129 -1024
2020-02-26 16:38:28 GMT 51.617027 0.797195 1,700 235 129 -960
2020-02-26 16:38:24 GMT 51.618469 0.800476 1,750 234 133 -640
2020-02-26 16:38:21 GMT 51.619820 0.803452 1,850 235 135 -576
2020-02-26 16:38:18 GMT 51.621964 0.808089 1,900 235 137 -768
2020-02-26 16:38:11 GMT 51.623428 0.811429 1,925 235 138 -768
2020-02-26 16:38:08 GMT 51.624573 0.813953 1,975 234 141 -768
2020-02-26 16:38:04 GMT 51.627457 0.820312 2,050 234 143 -832
2020-02-26 16:38:00 GMT 51.627457 0.820312 2,075 235 143 -704
2020-02-26 16:37:57 GMT 51.628418 0.822416 2,100 235 144 -832
2020-02-26 16:37:52 GMT 51.630390 0.826797 2,175 235 145 -960
2020-02-26 16:37:49 GMT 51.632172 0.830804 2,225 234 146 -896
2020-02-26 16:37:45 GMT 51.633133 0.832882 2,275 234 147 -704
2020-02-26 16:37:41 GMT 51.635056 0.837188 2,350 235 150 -640
2020-02-26 16:37:38 GMT 51.636337 0.840009 2,350 235 150 -704
2020-02-26 16:37:33 GMT 51.638069 0.843887 2,500 235 149 -896
2020-02-26 16:37:30 GMT 51.639450 0.847061 2,450 235 149 -1024
2020-02-26 16:37:27 GMT 51.640640 0.849807 2,525 235 149 -832
2020-02-26 16:37:23 GMT 51.642262 0.853424 2,550 235 149 -704
2020-02-26 16:37:20 GMT 51.643707 0.856711 2,625 235 150 -832
2020-02-26 16:37:17 GMT 51.645035 0.859829 2,675 235 151 -896
2020-02-26 16:37:13 GMT 51.646179 0.862353 2,700 235 152 -832
2020-02-26 16:37:10 GMT 51.647690 0.865767 2,775 235 152 -896
2020-02-26 16:37:07 GMT 51.648685 0.868073 2,800 235 152 -896
2020-02-26 16:37:04 GMT 51.649940 0.870819 2,850 235 153 -896
2020-02-26 16:37:01 GMT 51.651672 0.874749 2,900 235 154 -896
2020-02-26 16:36:57 GMT 51.652863 0.877422 2,925 235 154 -896
2020-02-26 16:36:53 GMT 51.654510 0.881059 3,000 235 156 -960
2020-02-26 16:36:49 GMT 51.656433 0.885587 3,075 236 158 -960
2020-02-26 16:36:46 GMT 51.658630 0.890709 3,150 237 160 -896
2020-02-26 16:36:40 GMT 51.661148 0.896796 3,225 237 161 -960
2020-02-26 16:36:37 GMT 51.662476 0.900211 3,300 238 160 -768
2020-02-26 16:36:34 GMT 51.662476 0.900211 3,300 239 162 -768
2020-02-26 16:36:28 GMT 51.666046 0.909805 3,400 241 162 -960
2020-02-26 16:36:25 GMT 51.666046 0.909805 3,425 243 162 -1024
2020-02-26 16:36:21 GMT 51.667145 0.913127 3,475 245 162 -1024
2020-02-26 16:36:18 GMT 51.668152 0.916542 3,525 247 163 -896
2020-02-26 16:36:15 GMT 51.668930 0.919660 3,575 251 165 -512
2020-02-26 16:36:11 GMT 51.670807 0.929384 3,600 259 168 -192
2020-02-26 16:36:07 GMT 51.670807 0.929384 3,600 260 168 -256
2020-02-26 16:36:04 GMT 51.671265 0.933986 3,625 263 169 -384
2020-02-26 16:36:01 GMT 51.671402 0.936966 3,675 268 171 -640
2020-02-26 16:35:58 GMT 51.671494 0.940741 3,725 271 173 -640
2020-02-26 16:35:55 GMT 51.671448 0.944082 3,725 272 174 -768
2020-02-26 16:35:52 GMT 51.671402 0.948029 3,750 272 175 -896
2020-02-26 16:35:49 GMT 51.671261 0.957794 3,850 272 176 -1088
2020-02-26 16:35:45 GMT 51.671261 0.957794 3,900 271 176 -1216
2020-02-26 16:35:42 GMT 51.671265 0.961007 3,950 271 176 -1216
2020-02-26 16:35:39 GMT 51.671219 0.965535 4,200 271 178 -448
2020-02-26 16:35:36 GMT 51.671169 0.970078 4,075 271 176 -1152
2020-02-26 16:35:33 GMT 51.671169 0.973740 4,125 271 177 -832
2020-02-26 16:35:30 GMT 51.671082 0.978674 4,175 271 177 -896
2020-02-26 16:35:27 GMT 51.671082 0.981272 4,225 271 177 -832
2020-02-26 16:35:24 GMT 51.671036 0.986394 4,275 271 177 -704
2020-02-26 16:35:20 GMT 51.670990 0.990477 4,325 271 177 -448
2020-02-26 16:35:17 GMT 51.670944 0.993298 4,300 271 178 -448
2020-02-26 16:35:14 GMT 51.670891 0.997467 4,350 271 181 -576
2020-02-26 16:35:11 GMT 51.670898 1.002874 4,400 271 188 -320
2020-02-26 16:35:08 GMT 51.670853 1.005991 4,400 271 186 -512
2020-02-26 16:35:05 GMT 51.670853 1.011410 4,425 271 188 -320
2020-02-26 16:35:02 GMT 51.670807 1.014973 4,450 272 190 -384
2020-02-26 16:34:58 GMT 51.670761 1.019205 4,475 277 197 -448
2020-02-26 16:34:55 GMT 51.670624 1.025960 4,475 273 194 -512
2020-02-26 16:34:52 GMT 51.670563 1.028900 4,500 275 195 -512
2020-02-26 16:34:49 GMT 51.669956 1.037445 4,550 282 197 -512
2020-02-26 16:34:46 GMT 51.669434 1.041697 4,600 288 198 -640
2020-02-26 16:34:39 GMT 51.668003 1.048203 4,625 300 199 -704
2020-02-26 16:34:36 GMT 51.666962 1.051273 4,700 308 200 -896
2020-02-26 16:34:33 GMT 51.662834 1.059647 4,725 312 200 -896
2020-02-26 16:34:30 GMT 51.662834 1.059647 4,800 316 202 -704
2020-02-26 16:34:24 GMT 51.659344 1.065140 4,800 316 203 -704
2020-02-26 16:34:21 GMT 51.655247 1.071472 4,900 317 207 -512
2020-02-26 16:34:14 GMT 51.650620 1.078516 4,950 317 208 -896
2020-02-26 16:34:11 GMT 51.650620 1.078516 5,000 317 208 -1024
2020-02-26 16:34:08 GMT 51.648376 1.081856 5,075 317 208 -1024
2020-02-26 16:34:03 GMT 51.645081 1.086830 5,125 317 209 -896
2020-02-26 16:34:00 GMT 51.639931 1.094589 5,200 317 211 -832
2020-02-26 16:33:57 GMT 51.639931 1.094589 5,225 317 234 -768
2020-02-26 16:33:54 GMT 51.636021 1.100540 5,325 317 212 -1088
2020-02-26 16:33:51 GMT 51.636021 1.100540 5,350 317 214 -1024
2020-02-26 16:33:48 GMT 51.633499 1.104423 5,350 317 215 -1024
2020-02-26 16:33:42 GMT 51.628059 1.112671 5,475 317 234 -768
2020-02-26 16:33:39 GMT 51.625454 1.116638 5,500 317 224 -768
2020-02-26 16:33:36 GMT 51.621918 1.121902 5,550 317 227 -768
2020-02-26 16:33:32 GMT 51.621918 1.121902 5,575 317 232 -768
2020-02-26 16:33:29 GMT 51.620052 1.124649 5,600 317 234 -768
2020-02-26 16:33:26 GMT 51.618191 1.127472 5,650 317 234 -768
2020-02-26 16:33:23 GMT 51.612076 1.136714 5,700 317 240 -896
2020-02-26 16:33:19 GMT 51.612076 1.136714 5,800 317 244 -1152
2020-02-26 16:33:16 GMT 51.609627 1.140518 5,800 317 245 -1280
2020-02-26 16:33:12 GMT 51.606415 1.145401 5,875 317 246 -1344
2020-02-26 16:33:09 GMT 51.601273 1.153193 5,975 317 258 -1024
2020-02-26 16:33:06 GMT 51.601273 1.153193 6,025 317 254 -1152
2020-02-26 16:33:00 GMT 51.593754 1.164627 6,250 318 261 -896
2020-02-26 16:32:57 GMT 51.590927 1.168782 6,200 319 263 -832
2020-02-26 16:32:54 GMT 51.590927 1.168782 6,250 320 265 -768
2020-02-26 16:32:47 GMT 51.584244 1.177838 6,450 327 272 -640
2020-02-26 16:32:44 GMT 51.580948 1.181550 6,325 330 273 -640
2020-02-26 16:32:41 GMT 51.578156 1.184235 6,450 341 300 -512
2020-02-26 16:32:38 GMT 51.573830 1.187744 6,400 338 281 -704
2020-02-26 16:32:35 GMT 51.571472 1.189344 6,450 339 283 -704
2020-02-26 16:32:32 GMT 51.566895 1.192017 6,550 342 291 -768
2020-02-26 16:32:28 GMT 51.562592 1.194392 6,525 341 299 -448
2020-02-26 16:32:25 GMT 51.558243 1.196767 6,575 342 295 -768
2020-02-26 16:32:22 GMT 51.554974 1.198578 6,600 341 296 -832
2020-02-26 16:32:19 GMT 51.551010 1.200776 6,700 341 300 -512
2020-02-26 16:32:15 GMT 51.545338 1.203918 6,700 341 300 -576
2020-02-26 16:32:12 GMT 51.537609 1.208267 6,725 341 300 -448
2020-02-26 16:32:06 GMT 51.533615 1.210426 6,850 342 301 -512
2020-02-26 16:32:03 GMT 51.528812 1.213074 6,800 341 299 -512
2020-02-26 16:31:57 GMT 51.521164 1.217330 6,850 341 300 -512
2020-02-26 16:31:54 GMT 51.518478 1.218796 6,850 341 300 -512
2020-02-26 16:31:51 GMT 51.514427 1.221085 6,900 342 301 -512
2020-02-26 16:31:48 GMT 51.506279 1.225586 6,925 342 301 -512
2020-02-26 16:31:42 GMT 51.501205 1.228390 6,975 342 301 -384
2020-02-26 16:31:39 GMT 51.496994 1.230691 6,975 342 301 -320
2020-02-26 16:31:33 GMT 51.490593 1.234207 7,000 341 302 -576
2020-02-26 16:31:29 GMT 51.484493 1.237564 7,050 342 302 -704
2020-02-26 16:31:25 GMT 51.479919 1.240119 7,125 341 302 -704
2020-02-26 16:31:22 GMT 51.474792 1.242940 7,125 341 302 -704
2020-02-26 16:31:19 GMT 51.472065 1.244431 7,150 342 303 -768
2020-02-26 16:31:16 GMT 51.466896 1.247253 7,250 342 303 -1024
2020-02-26 16:31:13 GMT 51.464149 1.248779 7,275 342 303 -1024
2020-02-26 16:31:10 GMT 51.458565 1.251831 7,350 342 304 -512
2020-02-26 16:31:07 GMT 51.456116 1.253184 7,375 342 303 -832
2020-02-26 16:31:03 GMT 51.450806 1.256079 7,400 342 303 -832
2020-02-26 16:30:59 GMT 51.445297 1.259155 7,500 342 303 -704
2020-02-26 16:30:56 GMT 51.441238 1.261349 7,500 342 303 -768
2020-02-26 16:30:53 GMT 51.437847 1.263199 7,550 342 302 -768
2020-02-26 16:30:50 GMT 51.431656 1.266556 7,925 342 304 -512
2020-02-26 16:30:47 GMT 51.430252 1.267362 7,650 342 302 -768
2020-02-26 16:30:44 GMT 51.426041 1.269663 7,650 342 302 -768
2020-02-26 16:30:41 GMT 51.421280 1.272261 7,725 342 302 -768
2020-02-26 16:30:38 GMT 51.417366 1.274338 7,775 342 303 -832
2020-02-26 16:30:35 GMT 51.414505 1.275899 7,775 342 303 -832
2020-02-26 16:30:32 GMT 51.409332 1.278720 7,925 342 304 -704
2020-02-26 16:30:28 GMT 51.403473 1.281837 7,900 342 304 -768
2020-02-26 16:30:25 GMT 51.396603 1.285553 7,950 342 304 0
2020-02-26 16:30:22 GMT 51.396603 1.285553 7,950 342 304 -512
2020-02-26 16:30:19 GMT 51.392040 1.287994 8,000 342 303 -320
2020-02-26 16:30:13 GMT 51.377472 1.295867 8,000 342 304 0
2020-02-26 16:30:08 GMT 51.377472 1.295867 8,000 342 305 0
2020-02-26 16:30:05 GMT 51.373856 1.297871 8,000 342 304 -64
2020-02-26 16:30:01 GMT 51.368347 1.300888 8,000 342 305 0
2020-02-26 16:29:57 GMT 51.362961 1.303810 8,000 342 304 0
2020-02-26 16:29:54 GMT 51.355911 1.307670 8,000 342 304 64
2020-02-26 16:29:48 GMT 51.351654 1.309971 8,000 341 305 -64
2020-02-26 16:29:45 GMT 51.347027 1.312485 8,000 341 306 0
2020-02-26 16:29:42 GMT 51.341949 1.315308 8,000 341 306 -128
2020-02-26 16:29:38 GMT 51.332565 1.320586 8,000 341 306 64
2020-02-26 16:29:31 GMT 51.324635 1.325073 8,000 341 306 -64
2020-02-26 16:29:28 GMT 51.324635 1.325073 8,000 341 306 -64
2020-02-26 16:29:25 GMT 51.320023 1.327638 8,000 341 307 0
2020-02-26 16:29:22 GMT 51.312515 1.331944 8,025 341 308 -128
2020-02-26 16:29:16 GMT 51.307083 1.334991 8,000 341 308 0
2020-02-26 16:29:13 GMT 51.303909 1.336769 8,000 341 308 128
2020-02-26 16:29:10 GMT 51.301125 1.338272 8,000 344 309 192
2020-02-26 16:29:07 GMT 51.295818 1.340866 8,000 348 308 0
2020-02-26 16:29:04 GMT 51.292141 1.342087 8,000 356 310 -128
2020-02-26 16:29:01 GMT 51.286041 1.343384 8,000 358 312 -64
2020-02-26 16:28:58 GMT 51.282898 1.343598 8,000 2 314 -128
2020-02-26 16:28:54 GMT 51.271656 1.342316 8,000 7 318 0
2020-02-26 16:28:50 GMT 51.271656 1.342316 8,000 7 317 0
2020-02-26 16:28:45 GMT 51.264267 1.340703 8,000 8 317 -64
2020-02-26 16:28:42 GMT 51.260101 1.339738 8,000 8 317 -128
2020-02-26 16:28:36 GMT 51.251312 1.337662 8,000 8 317 -64
2020-02-26 16:28:33 GMT 51.246101 1.336441 8,000 8 316 -64
2020-02-26 16:28:30 GMT 51.238697 1.334686 8,025 8 317 0
2020-02-26 16:28:24 GMT 51.233734 1.333503 8,025 8 318 -128
2020-02-26 16:28:21 GMT 51.228195 1.332167 8,050 8 318 -320
2020-02-26 16:28:17 GMT 51.223614 1.331100 8,050 8 318 -512
2020-02-26 16:28:12 GMT 51.215607 1.329269 8,125 8 319 -704
2020-02-26 16:28:09 GMT 51.212036 1.328381 8,125 8 320 -704
2020-02-26 16:28:06 GMT 51.206112 1.326981 8,200 8 320 -832
2020-02-26 16:28:03 GMT 51.203922 1.326447 8,200 8 320 -832
2020-02-26 16:28:00 GMT 51.198895 1.325302 8,250 8 321 -640
2020-02-26 16:27:57 GMT 51.194138 1.324149 8,875 8 321 -512
2020-02-26 16:27:54 GMT 51.190376 1.323242 8,325 8 321 -640
2020-02-26 16:27:51 GMT 51.184433 1.321848 8,350 8 320 -512
2020-02-26 16:27:47 GMT 51.172081 1.318893 8,400 8 319 -448
2020-02-26 16:27:43 GMT 51.172081 1.318893 8,425 8 320 -512
2020-02-26 16:27:40 GMT 51.169010 1.318207 8,450 8 320 -448
2020-02-26 16:27:36 GMT 51.164658 1.317172 8,450 8 319 -576
2020-02-26 16:27:33 GMT 51.153900 1.314574 8,525 8 318 -640
2020-02-26 16:27:30 GMT 51.153900 1.314574 8,550 8 319 -640
2020-02-26 16:27:27 GMT 51.150154 1.313705 8,575 8 319 -640
2020-02-26 16:27:22 GMT 51.142914 1.311975 8,600 8 320 -640
2020-02-26 16:27:19 GMT 51.138470 1.310883 8,850 8 320 -704
2020-02-26 16:27:16 GMT 51.134995 1.310045 8,675 8 320 -704
2020-02-26 16:27:13 GMT 51.130463 1.309006 8,725 8 321 -640
2020-02-26 16:27:10 GMT 51.126068 1.307893 8,775 8 320 -640
2020-02-26 16:27:07 GMT 51.119476 1.306334 9,375 8 319 -576
2020-02-26 16:27:02 GMT 51.113754 1.304998 8,825 8 320 -576
2020-02-26 16:26:59 GMT 51.109562 1.304016 8,850 8 320 -576
2020-02-26 16:26:55 GMT 51.102631 1.302325 8,900 8 320 -576
2020-02-26 16:26:51 GMT 51.098053 1.301212 8,975 8 320 -512
2020-02-26 16:26:48 GMT 51.091686 1.299744 8,975 8 320 -576
2020-02-26 16:26:43 GMT 51.086334 1.298465 9,050 8 319 -704
2020-02-26 16:26:39 GMT 51.081165 1.297226 9,050 8 319 -640
2020-02-26 16:26:36 GMT 51.076046 1.296005 9,100 8 319 -704
2020-02-26 16:26:32 GMT 51.069122 1.294308 9,150 8 320 -640
2020-02-26 16:26:29 GMT 51.064407 1.293195 9,175 8 320 -704
2020-02-26 16:26:26 GMT 51.060822 1.292343 9,200 8 321 -640
2020-02-26 16:26:23 GMT 51.056446 1.291351 9,225 8 321 -512
2020-02-26 16:26:20 GMT 51.053188 1.290512 9,275 8 320 -512
2020-02-26 16:26:16 GMT 51.046436 1.288910 9,300 8 320 -512
2020-02-26 16:26:12 GMT 51.037170 1.286662 9,350 8 319 -640
2020-02-26 16:26:09 GMT 51.030376 1.285019 9,375 8 319 -576
2020-02-26 16:26:06 GMT 51.030376 1.285019 9,450 8 319 -704
2020-02-26 16:26:00 GMT 51.023438 1.283322 9,475 8 319 -704
2020-02-26 16:25:57 GMT 51.019775 1.282431 9,500 8 319 -704
2020-02-26 16:25:54 GMT 51.014511 1.281169 9,525 8 319 -704
2020-02-26 16:25:51 GMT 51.005379 1.278915 9,575 8 320 -576
2020-02-26 16:25:45 GMT 50.994205 1.276245 9,650 8 320 -512
2020-02-26 16:25:41 GMT 50.994205 1.276245 9,675 8 321 -448
2020-02-26 16:25:38 GMT 50.987316 1.274567 9,700 8 321 -384
2020-02-26 16:25:35 GMT 50.987316 1.274567 9,750 8 320 -448
2020-02-26 16:25:31 GMT 50.981049 1.273078 9,725 8 320 -448
2020-02-26 16:25:28 GMT 50.975922 1.271816 9,750 8 320 -448
2020-02-26 16:25:25 GMT 50.971909 1.270828 9,775 8 320 -512
2020-02-26 16:25:22 GMT 50.963715 1.268845 9,825 8 320 -512
2020-02-26 16:25:19 GMT 50.958733 1.267700 9,825 8 320 -512
2020-02-26 16:25:13 GMT 50.954086 1.266545 9,900 8 322 -576
2020-02-26 16:25:10 GMT 50.949829 1.265580 9,925 8 322 -640
2020-02-26 16:25:03 GMT 50.935043 1.262092 10,000 8 324 -448
2020-02-26 16:25:00 GMT 50.935043 1.262092 10,025 8 324 -448
2020-02-26 16:24:57 GMT 50.930603 1.261052 10,025 8 324 -448
2020-02-26 16:24:54 GMT 50.927032 1.260236 10,050 8 324 -384
2020-02-26 16:24:51 GMT 50.921909 1.259079 10,075 8 323 -320
2020-02-26 16:24:47 GMT 50.911110 1.256561 10,075 9 324 -512
2020-02-26 16:24:44 GMT 50.911110 1.256561 10,125 9 324 -512
2020-02-26 16:24:40 GMT 50.901581 1.253926 10,150 14 326 -576
2020-02-26 16:24:34 GMT 50.897186 1.252144 10,200 17 328 -576
2020-02-26 16:24:31 GMT 50.892746 1.249769 10,200 21 329 -640
2020-02-26 16:24:28 GMT 50.887802 1.246429 10,275 27 333 -768
2020-02-26 16:24:25 GMT 50.884552 1.243756 10,275 28 333 -768
2020-02-26 16:24:21 GMT 50.878662 1.238022 10,325 34 337 -512
2020-02-26 16:24:18 GMT 50.874660 1.233673 10,500 34 337 -448
2020-02-26 16:24:15 GMT 50.871414 1.230098 10,400 34 337 -448
2020-02-26 16:24:11 GMT 50.864838 1.222839 10,400 34 337 -448
2020-02-26 16:24:07 GMT 50.854797 1.211837 10,575 34 336 -704
2020-02-26 16:24:03 GMT 50.854797 1.211837 10,475 34 336 -576
2020-02-26 16:23:59 GMT 50.850723 1.207383 10,550 34 336 -640
2020-02-26 16:23:56 GMT 50.847519 1.203819 10,525 34 336 -704
2020-02-26 16:23:53 GMT 50.843376 1.199265 10,550 34 336 -832
2020-02-26 16:23:50 GMT 50.838303 1.193695 10,675 34 335 -896
2020-02-26 16:23:46 GMT 50.834930 1.190012 10,675 34 335 -896
2020-02-26 16:23:42 GMT 50.821976 1.175686 10,825 34 335 -896
2020-02-26 16:23:37 GMT 50.821976 1.175686 10,825 34 335 -896
2020-02-26 16:23:33 GMT 50.813416 1.166332 10,925 34 336 -896
2020-02-26 16:23:30 GMT 50.813416 1.166332 10,950 34 336 -960
2020-02-26 16:23:27 GMT 50.808647 1.161041 11,050 34 339 -1088
2020-02-26 16:23:21 GMT 50.802063 1.153861 11,125 34 340 -1024
2020-02-26 16:23:18 GMT 50.797989 1.149368 11,225 34 339 -1088
2020-02-26 16:23:15 GMT 50.794464 1.145547 11,200 34 339 -1088
2020-02-26 16:23:11 GMT 50.790028 1.140671 11,350 34 342 -1024
2020-02-26 16:23:08 GMT 50.784489 1.134567 11,375 34 341 -1024
2020-02-26 16:23:05 GMT 50.782394 1.132278 11,425 34 342 -1024
2020-02-26 16:23:02 GMT 50.775970 1.125282 11,450 34 342 -960
2020-02-26 16:22:59 GMT 50.773407 1.122387 11,700 34 342 -1088
2020-02-26 16:22:55 GMT 50.766769 1.115187 11,650 34 342 -1024
2020-02-26 16:22:52 GMT 50.760326 1.108170 11,625 34 342 -960
2020-02-26 16:22:49 GMT 50.760326 1.108170 11,675 34 342 -960
2020-02-26 16:22:46 GMT 50.755829 1.103235 11,725 34 342 -960
2020-02-26 16:22:43 GMT 50.748642 1.095367 11,775 34 342 -960
2020-02-26 16:22:40 GMT 50.748642 1.095367 12,675 34 342 -896
2020-02-26 16:22:37 GMT 50.745255 1.091729 11,850 34 343 -832
2020-02-26 16:22:34 GMT 50.740173 1.086162 11,900 34 343 -832
2020-02-26 16:22:31 GMT 50.737289 1.083044 11,925 34 344 -896
2020-02-26 16:22:28 GMT 50.732117 1.077423 11,975 34 345 -896
2020-02-26 16:22:25 GMT 50.729370 1.074371 12,200 34 351 -960
2020-02-26 16:22:21 GMT 50.724018 1.068497 12,050 34 346 -960
2020-02-26 16:22:17 GMT 50.713669 1.057286 12,175 34 347 -896
2020-02-26 16:22:11 GMT 50.706978 1.049957 12,300 34 352 -1024
2020-02-26 16:22:08 GMT 50.702976 1.045609 12,325 34 352 -1024
2020-02-26 16:22:05 GMT 50.702976 1.045609 12,350 34 352 -1088
2020-02-26 16:22:01 GMT 50.698105 1.040287 12,425 34 353 -1088
2020-02-26 16:21:58 GMT 50.693569 1.035385 12,450 34 354 -1024
2020-02-26 16:21:54 GMT 50.688217 1.029510 12,500 34 354 -1088
2020-02-26 16:21:51 GMT 50.683887 1.024857 12,650 34 355 -1152
2020-02-26 16:21:47 GMT 50.678009 1.018462 12,925 34 355 -1088
2020-02-26 16:21:43 GMT 50.666386 1.005991 12,750 34 355 -1024
2020-02-26 16:21:37 GMT 50.663727 1.003153 12,825 34 355 -960
2020-02-26 16:21:34 GMT 50.661217 1.000498 12,850 34 355 -960
2020-02-26 16:21:31 GMT 50.657307 0.996267 12,900 34 355 -896
2020-02-26 16:21:28 GMT 50.653210 0.991887 12,975 34 355 -896
2020-02-26 16:21:25 GMT 50.647705 0.986023 13,000 34 356 -896
2020-02-26 16:21:21 GMT 50.639008 0.976699 13,150 36 367 -1856
2020-02-26 16:21:18 GMT 50.639008 0.976699 13,150 34 358 -1024
2020-02-26 16:21:12 GMT 50.632030 0.969098 13,200 34 360 -1344
2020-02-26 16:21:09 GMT 50.627014 0.963617 13,275 36 367 -1856
2020-02-26 16:21:03 GMT 50.615131 0.950466 13,475 35 367 -1664
2020-02-26 16:20:57 GMT 50.611084 0.945836 13,650 40 367 -2112
2020-02-26 16:20:54 GMT 50.603214 0.935916 13,875 53 379 -576
2020-02-26 16:20:48 GMT 50.595764 0.924262 13,950 54 380 -512
2020-02-26 16:20:42 GMT 50.591309 0.915768 13,975 55 380 -448
2020-02-26 16:20:38 GMT 50.588364 0.909341 14,000 57 380 0
2020-02-26 16:20:35 GMT 50.585430 0.902438 14,000 57 382 -64
2020-02-26 16:20:32 GMT 50.581100 0.891844 14,000 57 381 0
2020-02-26 16:20:29 GMT 50.579613 0.888259 14,000 57 381 0
2020-02-26 16:20:26 GMT 50.575882 0.879051 14,000 57 382 0
2020-02-26 16:20:23 GMT 50.573776 0.873919 14,000 57 380 64
2020-02-26 16:20:20 GMT 50.570938 0.866980 14,000 57 381 0
2020-02-26 16:20:17 GMT 50.564247 0.850550 14,000 57 380 0
2020-02-26 16:20:13 GMT 50.558384 0.836074 14,000 57 382 0
2020-02-26 16:20:09 GMT 50.556290 0.830952 14,000 57 382 0
2020-02-26 16:20:05 GMT 50.556290 0.830952 14,000 57 382 -64
2020-02-26 16:20:02 GMT 50.554321 0.826215 14,000 57 381 64
2020-02-26 16:19:59 GMT 50.550522 0.816819 14,000 57 382 0
2020-02-26 16:19:56 GMT 50.548645 0.812193 14,000 57 380 0
2020-02-26 16:19:53 GMT 50.545120 0.803592 14,000 57 380 0
2020-02-26 16:19:50 GMT 50.541485 0.794579 14,000 57 381 64
2020-02-26 16:19:47 GMT 50.539577 0.789976 14,000 57 380 64
2020-02-26 16:19:43 GMT 50.535107 0.778990 14,000 57 381 64
2020-02-26 16:19:40 GMT 50.532303 0.772151 14,000 57 382 64
2020-02-26 16:19:34 GMT 50.526855 0.758852 14,000 57 382 0
2020-02-26 16:19:31 GMT 50.524750 0.753720 14,000 57 382 0
2020-02-26 16:19:28 GMT 50.521408 0.745552 14,000 57 381 0
2020-02-26 16:19:25 GMT 50.518768 0.739127 14,000 57 381 0
2020-02-26 16:19:22 GMT 50.516022 0.732372 14,000 57 382 -64
2020-02-26 16:19:19 GMT 50.513042 0.725172 14,000 57 382 0
2020-02-26 16:19:16 GMT 50.509140 0.715774 14,000 57 382 0
2020-02-26 16:19:13 GMT 50.507126 0.710859 14,000 57 382 0
2020-02-26 16:19:10 GMT 50.504059 0.703414 14,000 57 382 0
2020-02-26 16:19:07 GMT 50.498566 0.690187 14,000 56 381 0
2020-02-26 16:19:01 GMT 50.495537 0.682860 14,000 56 381 0
2020-02-26 16:18:57 GMT 50.488136 0.665044 14,000 57 380 0
2020-02-26 16:18:54 GMT 50.488136 0.665044 14,000 57 380 0
2020-02-26 16:18:48 GMT 50.479153 0.643368 14,000 56 378 64
2020-02-26 16:18:45 GMT 50.479153 0.643368 14,000 56 379 64
2020-02-26 16:18:41 GMT 50.476822 0.637713 14,000 56 379 64
2020-02-26 16:18:38 GMT 50.473331 0.629338 14,000 56 378 64
2020-02-26 16:18:35 GMT 50.469543 0.620222 14,000 56 379 0
2020-02-26 16:18:32 GMT 50.468071 0.616719 14,000 56 379 64
2020-02-26 16:18:29 GMT 50.461601 0.601279 14,000 56 380 0
2020-02-26 16:18:22 GMT 50.458015 0.592742 14,000 56 381 64
2020-02-26 16:18:19 GMT 50.454899 0.585393 14,000 56 382 0
2020-02-26 16:18:16 GMT 50.452290 0.579158 14,000 56 383 -64
2020-02-26 16:18:10 GMT 50.445774 0.563643 14,000 56 383 -128
2020-02-26 16:18:07 GMT 50.438885 0.547164 14,000 56 383 0
2020-02-26 16:18:04 GMT 50.438885 0.547164 14,000 56 383 64
2020-02-26 16:17:57 GMT 50.433670 0.534618 14,000 57 382 0
2020-02-26 16:17:53 GMT 50.429810 0.525175 14,000 57 383 0
2020-02-26 16:17:50 GMT 50.427757 0.520143 14,000 57 382 -64
2020-02-26 16:17:47 GMT 50.423988 0.510790 14,000 58 383 -64
2020-02-26 16:17:44 GMT 50.421520 0.504703 14,000 58 382 -64
2020-02-26 16:17:38 GMT 50.415188 0.488669 14,025 58 382 -64
2020-02-26 16:17:32 GMT 50.409927 0.475233 14,025 58 382 -64
2020-02-26 16:17:29 GMT 50.406967 0.467569 14,000 58 381 -128
2020-02-26 16:17:25 GMT 50.404633 0.461715 14,050 58 381 -128
2020-02-26 16:17:22 GMT 50.400387 0.450736 14,050 58 382 -448
2020-02-26 16:17:16 GMT 50.395126 0.437226 14,125 58 382 -1024
2020-02-26 16:17:13 GMT 50.390030 0.424058 14,175 58 383 -960
2020-02-26 16:17:10 GMT 50.390030 0.424058 14,300 58 382 -1024
2020-02-26 16:17:04 GMT 50.384838 0.410725 14,300 58 380 -768
2020-02-26 16:17:01 GMT 50.381882 0.403025 14,325 58 381 -896
2020-02-26 16:16:58 GMT 50.378971 0.395582 14,375 58 381 -896
2020-02-26 16:16:55 GMT 50.376297 0.388641 14,400 58 380 -896
2020-02-26 16:16:51 GMT 50.369156 0.370283 14,475 58 380 -768
2020-02-26 16:16:48 GMT 50.365936 0.362029 14,500 58 379 -704
2020-02-26 16:16:44 GMT 50.365936 0.362029 14,550 58 378 -768
2020-02-26 16:16:41 GMT 50.363297 0.355104 14,575 58 379 -832
2020-02-26 16:16:37 GMT 50.359608 0.345624 14,625 58 380 -960
2020-02-26 16:16:32 GMT 50.355511 0.335009 14,725 58 381 -960
2020-02-26 16:16:28 GMT 50.349014 0.318387 14,850 58 380 0
2020-02-26 16:16:22 GMT 50.345856 0.310364 14,875 58 384 -1024
2020-02-26 16:16:19 GMT 50.340382 0.296260 15,000 58 384 -1024
2020-02-26 16:16:15 GMT 50.335464 0.283838 15,025 58 385 -1024
2020-02-26 16:16:11 GMT 50.332489 0.276248 15,125 58 386 -1088
2020-02-26 16:16:08 GMT 50.328556 0.266122 15,825 58 386 -1024
2020-02-26 16:16:03 GMT 50.328556 0.266122 15,225 58 386 -1024
2020-02-26 16:16:00 GMT 50.325668 0.258829 15,275 58 386 -1024
2020-02-26 16:15:57 GMT 50.322830 0.251572 15,325 58 386 -1024
2020-02-26 16:15:53 GMT 50.316589 0.235612 15,675 58 386 -1024
2020-02-26 16:15:47 GMT 50.313629 0.228111 15,500 58 386 -1024
2020-02-26 16:15:44 GMT 50.310837 0.220955 15,525 58 386 -1024
2020-02-26 16:15:41 GMT 50.305984 0.208523 15,775 58 386 -960
2020-02-26 16:15:35 GMT 50.299507 0.192038 15,750 58 386 -960
2020-02-26 16:15:32 GMT 50.299507 0.192038 15,750 58 385 -1024
2020-02-26 16:15:28 GMT 50.294769 0.180046 15,825 58 385 -1024
2020-02-26 16:15:25 GMT 50.293362 0.176375 16,700 58 382 -960
2020-02-26 16:15:21 GMT 50.288799 0.164795 15,925 58 384 -1024
2020-02-26 16:15:18 GMT 50.283646 0.151640 16,000 58 384 -1088
2020-02-26 16:15:15 GMT 50.283646 0.151640 16,025 58 384 -1088
2020-02-26 16:15:12 GMT 50.280853 0.144557 16,075 58 384 -1088
2020-02-26 16:15:09 GMT 50.278244 0.137907 16,200 58 384 -896
2020-02-26 16:15:06 GMT 50.275112 0.129980 16,200 58 385 -1024
2020-02-26 16:15:02 GMT 50.268967 0.114391 16,400 58 385 -960
2020-02-26 16:14:56 GMT 50.261581 0.095624 16,375 58 382 -896
2020-02-26 16:14:52 GMT 50.261581 0.095624 16,425 58 382 -960
2020-02-26 16:14:49 GMT 50.259659 0.090786 16,475 58 381 -960
2020-02-26 16:14:46 GMT 50.256821 0.083698 16,525 58 380 -960
2020-02-26 16:14:43 GMT 50.253342 0.074808 16,575 58 380 -1024
2020-02-26 16:14:37 GMT 50.249138 0.064136 16,650 58 381 -1024
2020-02-26 16:14:34 GMT 50.246017 0.056305 16,725 58 382 -64
2020-02-26 16:14:30 GMT 50.241852 0.045752 16,800 58 383 -960
2020-02-26 16:14:27 GMT 50.239452 0.039788 16,850 58 384 -896
2020-02-26 16:14:24 GMT 50.235718 0.030212 16,875 58 384 -896
2020-02-26 16:14:21 GMT 50.234299 0.026671 16,925 58 384 -768
2020-02-26 16:14:18 GMT 50.231075 0.018558 16,950 58 384 -640
2020-02-26 16:14:15 GMT 50.227386 0.009252 16,975 58 383 -448
2020-02-26 16:14:11 GMT 50.223679 -0.000145 17,000 58 383 -64
2020-02-26 16:14:08 GMT 50.218002 -0.014528 17,000 58 383 0
2020-02-26 16:14:04 GMT 50.218002 -0.014528 17,000 58 383 0
2020-02-26 16:14:01 GMT 50.215530 -0.020888 17,000 58 381 0
2020-02-26 16:13:57 GMT 50.211914 -0.030068 17,000 58 381 0
2020-02-26 16:13:54 GMT 50.205471 -0.046618 17,000 58 381 0
2020-02-26 16:13:51 GMT 50.203125 -0.052619 17,000 58 381 0
2020-02-26 16:13:45 GMT 50.200489 -0.059311 17,000 58 382 0
2020-02-26 16:13:42 GMT 50.197449 -0.067147 17,000 58 382 0
2020-02-26 16:13:38 GMT 50.194576 -0.074603 17,000 38 363 0
2020-02-26 16:13:35 GMT 50.191315 -0.082903 17,000 58 382 -64
2020-02-26 16:13:31 GMT 50.184196 -0.101178 17,000 58 382 0
2020-02-26 16:13:28 GMT 50.182388 -0.105816 17,000 58 382 0
2020-02-26 16:13:22 GMT 50.178864 -0.114706 17,000 58 383 0
2020-02-26 16:13:19 GMT 50.175957 -0.122112 17,000 58 382 0
2020-02-26 16:13:16 GMT 50.174004 -0.127085 17,000 58 383 0
2020-02-26 16:13:13 GMT 50.170898 -0.134944 17,000 57 383 0
2020-02-26 16:13:09 GMT 50.167236 -0.144051 17,000 53 382 64
2020-02-26 16:13:06 GMT 50.164215 -0.151568 17,000 57 385 64
2020-02-26 16:13:03 GMT 50.160919 -0.159446 17,000 38 363 0
2020-02-26 16:13:00 GMT 50.157242 -0.168135 17,000 38 363 0
2020-02-26 16:12:57 GMT 50.155197 -0.172456 17,000 46 373 0
2020-02-26 16:12:54 GMT 50.152962 -0.176820 17,000 49 377 0
2020-02-26 16:12:50 GMT 50.143929 -0.192038 17,000 43 368 0
2020-02-26 16:12:47 GMT 50.143929 -0.192038 17,000 39 364 0
2020-02-26 16:12:44 GMT 50.140411 -0.196887 17,000 39 364 0
2020-02-26 16:12:41 GMT 50.135036 -0.203767 17,000 38 363 0
2020-02-26 16:12:38 GMT 50.132446 -0.206933 17,000 38 363 0
2020-02-26 16:12:35 GMT 50.128197 -0.212229 17,000 38 363 0
2020-02-26 16:12:32 GMT 50.124023 -0.217341 17,000 38 363 0
2020-02-26 16:12:28 GMT 50.118210 -0.224425 17,000 38 363 0
2020-02-26 16:12:24 GMT 50.113632 -0.230062 17,000 38 363 0
2020-02-26 16:12:21 GMT 50.109619 -0.235018 17,000 38 363 0
2020-02-26 16:12:17 GMT 50.104454 -0.241328 17,000 38 363 0
2020-02-26 16:12:14 GMT 50.100357 -0.246302 17,000 38 363 0
2020-02-26 16:12:11 GMT 50.096375 -0.251240 17,000 38 363 0
2020-02-26 16:12:08 GMT 50.092392 -0.256083 17,000 38 363 0
2020-02-26 16:12:05 GMT 50.088593 -0.260781 17,000 38 363 0
2020-02-26 16:12:02 GMT 50.084667 -0.265602 17,000 38 363 0
2020-02-26 16:11:59 GMT 50.079346 -0.272128 17,000 38 363 64
2020-02-26 16:11:56 GMT 50.076614 -0.275401 17,000 38 363 0
2020-02-26 16:11:53 GMT 50.072517 -0.280448 17,000 38 363 0
2020-02-26 16:11:50 GMT 50.069000 -0.284705 17,000 38 363 0
2020-02-26 16:11:47 GMT 50.063908 -0.290915 17,000 38 363 0
2020-02-26 16:11:44 GMT 50.060577 -0.295041 17,000 38 361 0
2020-02-26 16:11:41 GMT 50.051971 -0.305593 17,000 38 363 0
2020-02-26 16:11:37 GMT 50.051971 -0.305593 17,000 38 363 0
2020-02-26 16:11:33 GMT 50.042816 -0.316724 17,000 38 363 0
2020-02-26 16:11:30 GMT 50.038879 -0.321567 17,000 38 363 0
2020-02-26 16:11:27 GMT 50.038879 -0.321567 17,000 38 363 0
2020-02-26 16:11:23 GMT 50.033478 -0.328144 17,000 38 362 0
2020-02-26 16:11:19 GMT 50.022846 -0.341022 17,000 38 361 0
2020-02-26 16:11:16 GMT 50.022846 -0.341022 17,000 38 361 0
2020-02-26 16:11:13 GMT 50.018967 -0.345780 17,000 38 360 0
2020-02-26 16:11:10 GMT 50.010818 -0.355682 17,000 38 360 0
2020-02-26 16:11:06 GMT 50.010818 -0.355682 17,000 38 360 64
2020-02-26 16:11:03 GMT 50.007717 -0.359357 17,000 56 394 0
2020-02-26 16:11:00 GMT 50.003311 -0.364717 17,000 37 361 64
2020-02-26 16:10:56 GMT 49.997818 -0.371367 17,000 37 361 64
2020-02-26 16:10:53 GMT 49.993973 -0.375993 17,000 37 361 0
2020-02-26 16:10:50 GMT 49.988983 -0.381992 17,000 37 362 0
2020-02-26 16:10:46 GMT 49.984303 -0.387639 17,000 37 362 0
2020-02-26 16:10:43 GMT 49.979645 -0.393207 17,000 37 363 -64
2020-02-26 16:10:39 GMT 49.974060 -0.399887 17,000 37 363 -64
2020-02-26 16:10:36 GMT 49.969757 -0.405121 17,000 37 364 -64
2020-02-26 16:10:33 GMT 49.967606 -0.407651 17,000 37 364 -64
2020-02-26 16:10:30 GMT 49.964264 -0.411626 17,025 37 364 0
2020-02-26 16:10:26 GMT 49.953735 -0.424275 17,025 37 364 64
2020-02-26 16:10:23 GMT 49.953735 -0.424275 17,000 37 364 64
2020-02-26 16:10:20 GMT 49.948643 -0.430471 17,000 38 365 64
2020-02-26 16:10:16 GMT 49.944580 -0.435333 17,000 57 393 0
2020-02-26 16:10:13 GMT 49.940781 -0.440104 17,000 41 368 64
2020-02-26 16:10:10 GMT 49.936958 -0.445243 17,000 42 372 64
2020-02-26 16:10:07 GMT 49.933640 -0.450078 17,000 57 396 0
2020-02-26 16:10:04 GMT 49.926018 -0.463059 17,000 57 393 0
2020-02-26 16:09:58 GMT 49.921223 -0.473006 17,000 56 391 -64
2020-02-26 16:09:55 GMT 49.919724 -0.476387 17,000 56 392 -64
2020-02-26 16:09:52 GMT 49.917343 -0.482025 17,000 57 393 0
2020-02-26 16:09:49 GMT 49.913776 -0.490673 17,000 57 393 0
2020-02-26 16:09:45 GMT 49.909607 -0.500745 17,000 57 393 0
2020-02-26 16:09:42 GMT 49.906605 -0.507969 17,000 57 393 0
2020-02-26 16:09:39 GMT 49.903858 -0.514576 17,000 57 393 0
2020-02-26 16:09:36 GMT 49.900925 -0.521702 17,000 57 393 0
2020-02-26 16:09:33 GMT 49.897388 -0.530239 17,000 57 393 0
2020-02-26 16:09:30 GMT 49.894455 -0.537365 17,000 57 394 0
2020-02-26 16:09:27 GMT 49.892082 -0.543081 17,000 57 393 0
2020-02-26 16:09:23 GMT 49.887680 -0.553581 17,000 57 393 0
2020-02-26 16:09:17 GMT 49.879093 -0.574258 17,000 57 392 0
2020-02-26 16:09:13 GMT 49.879093 -0.574258 17,000 57 390 64
2020-02-26 16:09:07 GMT 49.872803 -0.589503 17,000 57 390 0
2020-02-26 16:09:04 GMT 49.869411 -0.597567 17,000 57 392 0
2020-02-26 16:09:01 GMT 49.866257 -0.605260 17,000 57 392 0
2020-02-26 16:08:57 GMT 49.862411 -0.614439 17,000 57 396 0
2020-02-26 16:08:54 GMT 49.859573 -0.621306 17,000 57 395 0
2020-02-26 16:08:51 GMT 49.856144 -0.629487 17,000 57 395 -64
2020-02-26 16:08:47 GMT 49.852558 -0.638024 17,000 57 396 -64
2020-02-26 16:08:43 GMT 49.844925 -0.656359 17,000 57 395 0
2020-02-26 16:08:39 GMT 49.844925 -0.656359 17,000 57 395 0
2020-02-26 16:08:36 GMT 49.841946 -0.663485 17,000 57 394 0
2020-02-26 16:08:32 GMT 49.837830 -0.673274 17,000 57 393 64
2020-02-26 16:08:29 GMT 49.834728 -0.680707 17,000 57 394 0
2020-02-26 16:08:26 GMT 49.832542 -0.685903 17,000 57 393 64
2020-02-26 16:08:23 GMT 49.828949 -0.694524 17,000 56 394 0
2020-02-26 16:08:19 GMT 49.825378 -0.702980 17,000 56 394 0
2020-02-26 16:08:16 GMT 49.819244 -0.717653 17,000 57 395 0
2020-02-26 16:08:13 GMT 49.819244 -0.717653 17,000 56 396 0
2020-02-26 16:08:09 GMT 49.812199 -0.734377 17,000 57 394 0
2020-02-26 16:08:06 GMT 49.809311 -0.741280 17,000 57 396 0
2020-02-26 16:08:03 GMT 49.806885 -0.747070 17,000 57 396 0
2020-02-26 16:07:57 GMT 49.803307 -0.755533 17,000 57 396 0
2020-02-26 16:07:53 GMT 49.799377 -0.764923 17,000 57 396 0
2020-02-26 16:07:50 GMT 49.796814 -0.771067 17,000 57 395 0
2020-02-26 16:07:47 GMT 49.793427 -0.779162 17,000 57 395 0
2020-02-26 16:07:44 GMT 49.787476 -0.793401 17,000 57 395 -64
2020-02-26 16:07:37 GMT 49.783905 -0.801930 17,000 57 395 0
2020-02-26 16:07:34 GMT 49.780590 -0.809796 17,000 57 395 -64
2020-02-26 16:07:31 GMT 49.777588 -0.817036 17,000 57 395 -64
2020-02-26 16:07:28 GMT 49.774956 -0.823307 17,000 57 393 0
2020-02-26 16:07:25 GMT 49.768845 -0.837852 17,000 56 394 0
2020-02-26 16:07:22 GMT 49.768845 -0.837852 17,000 56 394 0
2020-02-26 16:07:18 GMT 49.764587 -0.848043 17,000 56 394 0
2020-02-26 16:07:15 GMT 49.761036 -0.856414 17,000 56 393 0
2020-02-26 16:07:11 GMT 49.757080 -0.865841 17,000 57 393 0
2020-02-26 16:07:08 GMT 49.754101 -0.872893 17,000 57 393 64
2020-02-26 16:07:05 GMT 49.751961 -0.878090 17,000 57 393 0
2020-02-26 16:07:01 GMT 49.748375 -0.886552 17,000 57 393 0
2020-02-26 16:06:58 GMT 49.744583 -0.895603 17,000 57 393 0
2020-02-26 16:06:55 GMT 49.741158 -0.903700 17,000 56 393 0
2020-02-26 16:06:51 GMT 49.738037 -0.911142 17,000 56 394 0
2020-02-26 16:06:48 GMT 49.734688 -0.918992 17,000 56 394 0
2020-02-26 16:06:45 GMT 49.731850 -0.925895 17,000 56 394 0
2020-02-26 16:06:42 GMT 49.728195 -0.934488 17,000 56 394 0
2020-02-26 16:06:38 GMT 49.720917 -0.951691 17,000 56 394 0
2020-02-26 16:06:35 GMT 49.720917 -0.951691 17,000 56 394 0
2020-02-26 16:06:30 GMT 49.717575 -0.959714 17,000 56 394 0
2020-02-26 16:06:27 GMT 49.714554 -0.966797 17,000 56 394 0
2020-02-26 16:06:24 GMT 49.708340 -0.981495 17,000 56 394 0
2020-02-26 16:06:18 GMT 49.699539 -1.002358 17,000 56 395 0
2020-02-26 16:06:14 GMT 49.699539 -1.002358 17,000 56 395 0
2020-02-26 16:06:11 GMT 49.697910 -1.006288 17,000 56 396 0
2020-02-26 16:06:08 GMT 49.695145 -1.012766 17,000 56 396 0
2020-02-26 16:06:05 GMT 49.692326 -1.019502 17,000 56 395 0
2020-02-26 16:06:02 GMT 49.689285 -1.026716 17,000 56 395 0
2020-02-26 16:05:59 GMT 49.685810 -1.034868 17,000 56 396 0
2020-02-26 16:05:56 GMT 49.682785 -1.042039 17,000 56 395 0
2020-02-26 16:05:52 GMT 49.678894 -1.051218 17,000 56 396 0
2020-02-26 16:05:48 GMT 49.675240 -1.059810 17,000 56 396 0
2020-02-26 16:05:45 GMT 49.672256 -1.066830 17,000 56 396 0
2020-02-26 16:05:42 GMT 49.669235 -1.073988 17,000 56 395 0
2020-02-26 16:05:39 GMT 49.659786 -1.096183 17,000 56 395 0
2020-02-26 16:05:33 GMT 49.659786 -1.096183 17,000 56 395 0
2020-02-26 16:05:30 GMT 49.656738 -1.103331 17,000 56 395 0
2020-02-26 16:05:27 GMT 49.654617 -1.108431 17,000 56 395 0
2020-02-26 16:05:23 GMT 49.649822 -1.119715 17,000 56 395 0
2020-02-26 16:05:20 GMT 49.647171 -1.125954 17,000 56 395 0
2020-02-26 16:05:13 GMT 49.639118 -1.144879 17,000 56 395 0
2020-02-26 16:05:10 GMT 49.637192 -1.149445 17,000 56 395 0
2020-02-26 16:05:07 GMT 49.634262 -1.156311 17,000 56 395 0
2020-02-26 16:05:04 GMT 49.631111 -1.163734 17,000 56 395 0
2020-02-26 16:05:01 GMT 49.628082 -1.170911 17,000 56 395 0
2020-02-26 16:04:58 GMT 49.625103 -1.177838 17,000 56 395 0
2020-02-26 16:04:54 GMT 49.620914 -1.187711 17,000 56 395 0
2020-02-26 16:04:51 GMT 49.618122 -1.194244 17,000 56 395 0
2020-02-26 16:04:47 GMT 49.614117 -1.203671 17,000 56 395 0
2020-02-26 16:04:44 GMT 49.610870 -1.211315 17,000 56 393 -64
2020-02-26 16:04:41 GMT 49.607880 -1.218295 17,000 56 394 0
2020-02-26 16:04:37 GMT 49.603638 -1.228228 17,000 56 394 0
2020-02-26 16:04:32 GMT 49.598011 -1.241455 17,000 56 393 -64
2020-02-26 16:04:29 GMT 49.596008 -1.246132 17,000 56 393 -64
2020-02-26 16:04:26 GMT 49.593155 -1.252803 17,000 56 393 -64
2020-02-26 16:04:21 GMT 49.587753 -1.265452 17,000 56 393 -64
2020-02-26 16:04:17 GMT 49.584232 -1.273746 17,000 56 392 -64
2020-02-26 16:04:14 GMT 49.581112 -1.280946 17,000 56 392 0
2020-02-26 16:04:11 GMT 49.573196 -1.299495 17,000 56 392 0
2020-02-26 16:04:07 GMT 49.573196 -1.299495 17,000 56 392 0
2020-02-26 16:04:03 GMT 49.569626 -1.307879 17,000 56 392 0
2020-02-26 16:03:59 GMT 49.566422 -1.315324 17,000 56 392 64
2020-02-26 16:03:56 GMT 49.559559 -1.331276 17,000 56 392 0
2020-02-26 16:03:50 GMT 49.556946 -1.337441 17,000 56 392 0
2020-02-26 16:03:47 GMT 49.553925 -1.344452 17,000 56 392 0
2020-02-26 16:03:44 GMT 49.550575 -1.352209 17,000 56 392 0
2020-02-26 16:03:40 GMT 49.546921 -1.360715 17,000 56 392 0
2020-02-26 16:03:37 GMT 49.543964 -1.367575 17,000 56 394 0
2020-02-26 16:03:34 GMT 49.540474 -1.375741 17,000 56 394 0
2020-02-26 16:03:30 GMT 49.537033 -1.383771 17,000 56 394 0
2020-02-26 16:03:26 GMT 49.526688 -1.407840 17,000 56 394 0
2020-02-26 16:03:19 GMT 49.526688 -1.407840 17,000 56 394 0
2020-02-26 16:03:16 GMT 49.522877 -1.416791 17,000 56 394 0
2020-02-26 16:03:13 GMT 49.519852 -1.423843 17,000 56 394 0
2020-02-26 16:03:10 GMT 49.516800 -1.430969 17,000 56 394 0
2020-02-26 16:03:07 GMT 49.514786 -1.435595 17,000 56 394 0
2020-02-26 16:03:04 GMT 49.509842 -1.447152 17,000 56 394 0
2020-02-26 16:02:59 GMT 49.504814 -1.458880 17,000 56 394 0
2020-02-26 16:02:56 GMT 49.503323 -1.462369 17,000 56 394 64
2020-02-26 16:02:53 GMT 49.499695 -1.470758 17,000 56 394 0
2020-02-26 16:02:50 GMT 49.496155 -1.479034 17,000 56 394 0
2020-02-26 16:02:47 GMT 49.494049 -1.483949 17,000 56 394 0
2020-02-26 16:02:44 GMT 49.488098 -1.497682 17,000 56 394 0
2020-02-26 16:02:41 GMT 49.488098 -1.497682 17,000 56 395 0
2020-02-26 16:02:38 GMT 49.485168 -1.504476 17,000 56 395 0
2020-02-26 16:02:35 GMT 49.482002 -1.511808 17,000 56 395 0
2020-02-26 16:02:29 GMT 49.476151 -1.525509 16,750 56 394 1472
2020-02-26 16:02:25 GMT 49.472122 -1.534833 17,000 56 395 -64
2020-02-26 16:02:21 GMT 49.467957 -1.544446 17,000 56 394 -64
2020-02-26 16:02:18 GMT 49.464592 -1.552264 17,000 56 394 -64
2020-02-26 16:02:15 GMT 49.461800 -1.558797 17,000 56 394 -64
2020-02-26 16:02:11 GMT 49.457703 -1.568298 17,000 56 393 0
2020-02-26 16:02:08 GMT 49.451981 -1.581525 17,000 56 393 0
2020-02-26 16:02:01 GMT 49.447632 -1.591572 17,000 56 393 0
2020-02-26 16:01:57 GMT 49.443596 -1.600960 17,000 56 393 0
2020-02-26 16:01:54 GMT 49.440899 -1.607270 17,000 56 393 0
2020-02-26 16:01:50 GMT 49.433716 -1.623880 17,000 56 393 0
2020-02-26 16:01:47 GMT 49.430786 -1.630602 17,000 56 393 0
2020-02-26 16:01:44 GMT 49.430786 -1.630602 17,000 56 392 64
2020-02-26 16:01:41 GMT 49.427116 -1.639059 17,000 56 393 0
2020-02-26 16:01:38 GMT 49.423721 -1.646937 17,000 56 392 0
2020-02-26 16:01:34 GMT 49.421207 -1.652792 17,000 56 393 0
2020-02-26 16:01:30 GMT 49.413620 -1.670274 17,000 56 392 0
2020-02-26 16:01:27 GMT 49.411152 -1.675993 17,000 56 392 0
2020-02-26 16:01:18 GMT 49.404724 -1.690810 17,000 56 392 64
2020-02-26 16:01:15 GMT 49.401077 -1.699219 17,000 56 392 64
2020-02-26 16:01:11 GMT 49.397415 -1.707724 17,000 56 392 64
2020-02-26 16:01:07 GMT 49.393936 -1.715698 17,000 56 392 128
2020-02-26 16:01:04 GMT 49.384323 -1.737953 16,975 56 392 256
2020-02-26 16:00:59 GMT 49.384323 -1.737953 16,975 56 392 384
2020-02-26 16:00:55 GMT 49.378143 -1.752319 16,900 56 392 768
2020-02-26 16:00:52 GMT 49.378143 -1.752319 16,775 56 394 1536
2020-02-26 16:00:48 GMT 49.373863 -1.762221 16,850 56 393 1088
2020-02-26 16:00:45 GMT 49.370819 -1.769362 16,750 56 395 1856
2020-02-26 16:00:42 GMT 49.368942 -1.773799 16,675 56 395 1984
2020-02-26 16:00:39 GMT 49.365692 -1.781264 16,600 56 395 1856
2020-02-26 16:00:36 GMT 49.362076 -1.789715 16,550 56 395 1920
2020-02-26 16:00:33 GMT 49.359787 -1.795067 16,225 56 389 2176
2020-02-26 16:00:29 GMT 49.355759 -1.804364 16,175 56 393 2304
2020-02-26 16:00:26 GMT 49.348801 -1.820632 16,000 56 390 2176
2020-02-26 16:00:18 GMT 49.343884 -1.832042 15,825 56 388 2176
2020-02-26 16:00:14 GMT 49.339325 -1.842675 15,600 56 384 2496
2020-02-26 16:00:10 GMT 49.336121 -1.850140 15,450 56 383 2880
2020-02-26 16:00:06 GMT 49.331818 -1.860140 15,225 56 383 2816
2020-02-26 16:00:03 GMT 49.329823 -1.864785 14,950 56 381 2368
2020-02-26 16:00:00 GMT 49.326286 -1.872880 14,950 56 380 2048
2020-02-26 15:59:57 GMT 49.323818 -1.878445 14,900 56 379 1792
2020-02-26 15:59:53 GMT 49.320141 -1.886902 14,825 56 373 1216
2020-02-26 15:59:49 GMT 49.312134 -1.905072 14,700 55 365 1088
2020-02-26 15:59:45 GMT 49.312134 -1.905072 14,650 55 361 1024
2020-02-26 15:59:42 GMT 49.309711 -1.910537 14,600 55 351 1152
2020-02-26 15:59:39 GMT 49.306870 -1.916903 14,450 53 344 1600
2020-02-26 15:59:36 GMT 49.302795 -1.926058 14,500 54 347 1344
2020-02-26 15:59:32 GMT 49.300774 -1.930413 14,450 53 344 1664
2020-02-26 15:59:27 GMT 49.289658 -1.952045 14,125 50 336 3264
2020-02-26 15:59:22 GMT 49.289658 -1.952045 13,925 49 336 3456
2020-02-26 15:59:17 GMT 49.285179 -1.960120 13,650 49 337 3840
2020-02-26 15:59:13 GMT 49.281693 -1.966412 12,175 49 333 2944
2020-02-26 15:59:07 GMT 49.274612 -1.979274 13,000 49 337 3392
2020-02-26 15:59:02 GMT 49.270523 -1.986624 12,925 49 337 3456
2020-02-26 15:58:59 GMT 49.267445 -1.992212 12,600 49 337 3584
2020-02-26 15:58:56 GMT 49.264389 -1.997681 12,400 49 336 3520
2020-02-26 15:58:53 GMT 49.257156 -2.010643 11,950 49 335 3392
2020-02-26 15:58:49 GMT 49.257156 -2.010643 11,975 49 335 3456
2020-02-26 15:58:46 GMT 49.254314 -2.015630 11,825 49 335 3200
2020-02-26 15:58:42 GMT 49.250404 -2.022641 11,325 49 333 2944
2020-02-26 15:58:39 GMT 49.247223 -2.028245 10,925 48 327 2240
2020-02-26 15:58:36 GMT 49.244122 -2.033627 11,425 48 330 2496
2020-02-26 15:58:33 GMT 49.241180 -2.038809 11,225 48 327 2240
2020-02-26 15:58:29 GMT 49.236969 -2.046133 11,075 48 321 1664
2020-02-26 15:58:26 GMT 49.234177 -2.050852 11,000 48 318 1472
2020-02-26 15:58:21 GMT 49.229225 -2.059286 10,900 47 310 1216
2020-02-26 15:58:16 GMT 49.219757 -2.075078 10,775 47 294 1664
2020-02-26 15:58:12 GMT 49.217880 -2.078177 10,725 47 294 1664
2020-02-26 15:58:05 GMT 49.214607 -2.083499 10,500 46 287 2880
2020-02-26 15:58:02 GMT 49.211533 -2.088559 10,300 46 285 3840
2020-02-26 15:57:58 GMT 49.208042 -2.094124 9,825 44 288 4032
2020-02-26 15:57:53 GMT 49.202877 -2.102219 9,625 44 287 4160
2020-02-26 15:57:50 GMT 49.200409 -2.105906 9,475 44 287 4160
2020-02-26 15:57:46 GMT 49.195908 -2.112685 9,150 44 287 3840
2020-02-26 15:57:42 GMT 49.193344 -2.116488 8,975 43 287 3648
2020-02-26 15:57:39 GMT 49.190540 -2.120650 8,800 43 285 3648
2020-02-26 15:57:35 GMT 49.186302 -2.126722 8,550 42 283 3520
2020-02-26 15:57:32 GMT 49.182953 -2.131489 8,325 43 284 3520
2020-02-26 15:57:28 GMT 49.179611 -2.136207 8,125 42 283 3456
2020-02-26 15:57:22 GMT 49.173889 -2.144376 7,800 44 279 3328
2020-02-26 15:57:18 GMT 49.170197 -2.149779 7,575 44 278 3328
2020-02-26 15:57:15 GMT 49.166889 -2.154766 7,375 45 277 3392
2020-02-26 15:57:08 GMT 49.161209 -2.163955 7,000 49 275 3392
2020-02-26 15:57:02 GMT 49.156082 -2.173321 6,650 54 276 3456
2020-02-26 15:56:57 GMT 49.152180 -2.181653 6,350 57 275 3328
2020-02-26 15:56:52 GMT 49.147060 -2.197482 5,975 77 272 2048
2020-02-26 15:56:47 GMT 49.145664 -2.209914 5,850 92 267 1984
2020-02-26 15:56:41 GMT 49.145664 -2.209914 5,750 90 268 2048
2020-02-26 15:56:37 GMT 49.145645 -2.216280 5,650 98 263 2048
2020-02-26 15:56:32 GMT 49.146965 -2.227117 5,400 110 258 3072
2020-02-26 15:56:25 GMT 49.149719 -2.237197 5,075 130 254 3328
2020-02-26 15:56:21 GMT 49.152554 -2.243524 4,825 132 253 3328
2020-02-26 15:56:16 GMT 49.156540 -2.249732 4,575 143 248 3328
2020-02-26 15:56:11 GMT 49.161259 -2.254799 4,275 155 242 3392
2020-02-26 15:56:07 GMT 49.165958 -2.258269 4,025 162 237 3392
2020-02-26 15:56:02 GMT 49.172058 -2.260930 3,675 170 233 3456
2020-02-26 15:55:56 GMT 49.176994 -2.262027 3,425 177 228 3264
2020-02-26 15:55:51 GMT 49.182999 -2.262172 3,125 188 219 2624
2020-02-26 15:55:46 GMT 49.187653 -2.261160 2,950 196 210 2176
2020-02-26 15:55:41 GMT 49.192383 -2.258817 2,775 209 196 1856
2020-02-26 15:55:31 GMT 49.199898 -2.250896 2,475 233 174 1856
2020-02-26 15:55:24 GMT 49.202969 -2.244030 2,250 258 153 1920
2020-02-26 15:55:21 GMT 49.203758 -2.240922 2,150 258 153 1856
2020-02-26 15:55:10 GMT 49.204971 -2.229591 1,800 263 140 1920
2020-02-26 15:55:01 GMT 49.205715 -2.220901 1,450 263 131 3008
2020-02-26 15:54:51 GMT 49.206528 -2.211844 925 263 132 3264
2020-02-26 15:54:40 GMT 49.207489 -2.201350 375 263 134 1408
2020-02-26 15:54:31 GMT 49.208138 -2.193146 325 263 102 64
2020-02-26 15:54:20 GMT 49.208649 -2.186876 0 264 55
2020-02-26 15:54:11 GMT 49.208874 -2.184307 0 264 2
2020-02-26 15:54:00 GMT 49.208870 -2.184255 0 264 4
2020-02-26 15:53:49 GMT 49.208893 -2.183894 0 340 10
2020-02-26 15:53:39 GMT 49.208321 -2.183731 0 2 15
2020-02-26 15:53:28 GMT 49.207645 -2.184129 0 42 15
2020-02-26 15:53:19 GMT 49.207306 -2.184871 0 81 18
2020-02-26 15:53:09 GMT 49.207169 -2.186406 0 81 27
2020-02-26 15:53:00 GMT 49.207031 -2.188075 0 81 28
2020-02-26 15:52:49 GMT 49.206848 -2.190206 0 81 27
2020-02-26 15:52:39 GMT 49.206757 -2.191843 0 95 23
2020-02-26 15:52:29 GMT 49.207020 -2.193498 0 101 19
2020-02-26 15:52:19 GMT 49.207031 -2.194589 0 78 17
2020-02-26 15:52:09 GMT 49.206905 -2.195663 0 70 13
2020-02-26 15:51:59 GMT 49.206657 -2.196380 0 36 11
2020-02-26 15:51:49 GMT 49.206238 -2.196796 0 56 11
2020-02-26 15:51:38 GMT 49.206078 -2.197609 0 84 12
2020-02-26 15:51:28 GMT 49.206017 -2.198368 0 81 10
2020-02-26 15:51:17 GMT 49.205921 -2.199079 0 36 10
2020-02-26 15:51:07 GMT 49.205482 -2.199271 0 354 11
2020-02-26 15:50:58 GMT 49.205051 -2.199202 0 354 11
2020-02-26 15:50:49 GMT 49.204594 -2.199149 0 340 10
2020-02-26 15:50:38 GMT 49.204273 -2.198729 0 267 14
We lost coverage of the aircraft here for a total of 71 minutes
2020-02-26 14:39:26 GMT 49.204765 -2.195065 0 14 0 0
2020-02-26 14:39:17 GMT 49.204762 -2.195061 0 14 0 0
2020-02-26 14:39:07 GMT 49.204754 -2.195065 0 14 1 0
2020-02-26 14:38:59 GMT 49.204697 -2.195082 0 14 2 0
2020-02-26 14:38:49 GMT 49.204559 -2.195135 0 16 6 0
2020-02-26 14:38:38 GMT 49.204342 -2.195206 0 45 5 0
2020-02-26 14:38:28 GMT 49.204193 -2.195399 0 98 6 0
2020-02-26 14:37:59 GMT 49.204365 -2.197482 0 84 13 0
2020-02-26 14:37:55 GMT 49.204342 -2.197829 0 84 12 0
2020-02-26 14:37:48 GMT 49.204296 -2.198357 0 90 10 0
2020-02-26 14:37:38 GMT 49.204399 -2.199018 0 157 11 0
2020-02-26 14:37:28 GMT 49.204868 -2.199185 0 143 10 0
2020-02-26 14:37:17 GMT 49.205109 -2.199651 0 104 12 0
2020-02-26 14:37:08 GMT 49.205257 -2.200435 0 120 10 0
2020-02-26 14:36:57 GMT 49.205612 -2.200861 0 174 14 0
2020-02-26 14:36:45 GMT 49.206470 -2.201024 0 174 15 0
2020-02-26 14:36:34 GMT 49.207180 -2.201121 0 208 12 0
2020-02-26 14:36:27 GMT 49.207420 -2.200910 0 244 12 0
2020-02-26 14:36:13 GMT 49.207661 -2.199026 0 264 43 0
2020-02-26 14:36:07 GMT 49.207844 -2.196861 0 264 76 0
2020-02-26 14:35:57 GMT 49.208405 -2.190082 275 263 118 -64
2020-02-26 14:35:34 GMT 49.209999 -2.170956 525 263 112 -704
2020-02-26 14:35:26 GMT 49.210510 -2.164518 600 263 111 -640
2020-02-26 14:35:09 GMT 49.211582 -2.151586 775 263 116 -704
2020-02-26 14:35:06 GMT 49.211746 -2.149447 775 263 116 -704
2020-02-26 14:34:54 GMT 49.212650 -2.138937 925 263 116 -704
2020-02-26 14:34:45 GMT 49.213257 -2.131981 1,050 264 118 -768
2020-02-26 14:34:36 GMT 49.213863 -2.124409 1,125 264 116 -384
2020-02-26 14:34:25 GMT 49.214607 -2.115302 1,200 262 114 -704
2020-02-26 14:34:12 GMT 49.215454 -2.105290 1,375 264 117 -960
2020-02-26 14:34:03 GMT 49.216049 -2.097755 3,825 307 304 -1408
2020-02-26 14:33:55 GMT 49.216702 -2.090510 1,575 263 115 -640
2020-02-26 14:33:45 GMT 49.217331 -2.083177 1,675 264 110 -448
2020-02-26 14:33:35 GMT 49.217911 -2.075621 1,775 263 111 -704
2020-02-26 14:33:25 GMT 49.218567 -2.067542 1,925 263 118 -960
2020-02-26 14:33:16 GMT 49.220009 -2.050323 4,025 306 306 -1792
2020-02-26 14:33:06 GMT 49.220009 -2.050323 2,025 263 135 -64
2020-02-26 14:32:55 GMT 49.220856 -2.040006 4,125 306 306 -1600
2020-02-26 14:32:45 GMT 49.222427 -2.019677 4,125 306 306 -1600
2020-02-26 14:32:35 GMT 49.223267 -2.008619 4,150 306 306 -1600
2020-02-26 14:32:25 GMT 49.223267 -2.008619 2,025 264 162 128
2020-02-26 14:32:15 GMT 49.224197 -1.997127 2,025 263 175 -64
2020-02-26 14:32:07 GMT 49.225082 -1.987513 2,075 268 201 -1408
2020-02-26 14:32:04 GMT 49.225433 -1.984018 2,100 264 195 -640
2020-02-26 14:31:54 GMT 49.226074 -1.970004 2,250 277 210 -576
2020-02-26 14:31:45 GMT 49.223923 -1.955496 2,400 297 219 -1024
2020-02-26 14:31:37 GMT 49.220333 -1.945737 2,525 306 227 -1152
2020-02-26 14:31:34 GMT 49.218472 -1.941689 2,600 306 229 -1152
2020-02-26 14:31:24 GMT 49.212093 -1.928317 2,775 307 239 -1024
2020-02-26 14:31:14 GMT 49.205250 -1.914006 2,950 307 252 -1088
2020-02-26 14:31:04 GMT 49.198452 -1.899695 3,125 307 263 -1216
2020-02-26 14:30:54 GMT 49.190964 -1.884085 3,300 307 276 -1024
2020-02-26 14:30:43 GMT 49.182903 -1.867314 3,500 307 293 -1024
2020-02-26 14:30:33 GMT 49.174664 -1.849968 3,675 307 303 -1408
2020-02-26 14:30:23 GMT 49.166016 -1.831900 3,925 307 305 -1664
2020-02-26 14:30:12 GMT 49.157303 -1.813611 4,225 307 307 -1536
2020-02-26 14:30:04 GMT 49.150543 -1.799504 4,450 307 307 -1536
2020-02-26 14:30:01 GMT 49.147991 -1.794169 4,500 307 307 -1600
2020-02-26 14:29:51 GMT 49.139938 -1.777400 4,725 307 306 -1472
2020-02-26 14:29:41 GMT 49.131557 -1.759981 4,950 307 307 -704
2020-02-26 14:29:34 GMT 49.124405 -1.744995 5,000 306 308 -64
2020-02-26 14:29:30 GMT 49.121933 -1.739713 5,000 306 308 0
2020-02-26 14:29:23 GMT 49.115963 -1.727166 5,000 306 308 0
2020-02-26 14:29:09 GMT 49.104904 -1.703656 5,000 306 307 0
2020-02-26 14:29:03 GMT 49.099438 -1.691895 5,000 306 307 64
2020-02-26 14:28:58 GMT 49.095528 -1.683438 5,000 306 306 64
2020-02-26 14:28:53 GMT 49.091103 -1.673825 5,000 306 307 0
2020-02-26 14:28:46 GMT 49.086090 -1.662950 5,000 305 306 -64
2020-02-26 14:28:42 GMT 49.082611 -1.655344 5,000 305 306 64
2020-02-26 14:28:36 GMT 49.077713 -1.644498 4,975 304 305 0
2020-02-26 14:28:26 GMT 49.069923 -1.625760 4,975 301 303 0
2020-02-26 14:28:22 GMT 49.067081 -1.618387 4,975 300 300 -192
2020-02-26 14:28:14 GMT 49.062057 -1.604779 5,000 299 289 -64
2020-02-26 14:28:03 GMT 49.055073 -1.585573 5,000 300 268 0
2020-02-26 14:27:54 GMT 49.049377 -1.570129 5,000 300 255 64
2020-02-26 14:27:46 GMT 49.045063 -1.558396 5,000 300 257 128
2020-02-26 14:27:43 GMT 49.043297 -1.553554 5,000 299 260 0
2020-02-26 14:27:31 GMT 49.036240 -1.534213 5,050 299 273 -448
2020-02-26 14:27:22 GMT 49.030243 -1.517733 5,150 299 286 -960
2020-02-26 14:27:12 GMT 49.021370 -1.493056 5,375 299 306 -1280
2020-02-26 14:27:02 GMT 49.017288 -1.481816 5,500 299 309 -1600
2020-02-26 14:26:57 GMT 49.013081 -1.470289 5,675 299 311 -1792
2020-02-26 14:26:51 GMT 49.009964 -1.461615 5,925 299 313 -2560
2020-02-26 14:26:48 GMT 49.006989 -1.453364 6,025 299 314 -2624
2020-02-26 14:26:41 GMT 49.002731 -1.441744 8,275 299 315 -3072
2020-02-26 14:26:38 GMT 48.999802 -1.433645 6,500 299 316 -2944
2020-02-26 14:26:31 GMT 48.995670 -1.422224 6,800 299 315 -3328
2020-02-26 14:26:27 GMT 48.988411 -1.402202 7,300 299 312 -3584
2020-02-26 14:26:21 GMT 48.988411 -1.402202 7,725 299 310 -3648
2020-02-26 14:26:16 GMT 48.980824 -1.381169 7,950 299 308 -3328
2020-02-26 14:26:10 GMT 48.980824 -1.381169 8,125 299 308 -2944
2020-02-26 14:26:07 GMT 48.977795 -1.372785 8,125 299 308 -2944
2020-02-26 14:25:58 GMT 48.972584 -1.358329 8,600 299 308 -2880
2020-02-26 14:25:55 GMT 48.970963 -1.353924 8,700 299 307 -3072
2020-02-26 14:25:49 GMT 48.966614 -1.341811 9,025 299 302 -3840
2020-02-26 14:25:46 GMT 48.963776 -1.333994 9,350 299 300 -3968
2020-02-26 14:25:40 GMT 48.959965 -1.323563 9,675 300 298 -2816
2020-02-26 14:25:34 GMT 48.956635 -1.314486 9,825 299 299 -2304
2020-02-26 14:25:28 GMT 48.952194 -1.302302 10,125 298 299 -2752
2020-02-26 14:25:25 GMT 48.949772 -1.295375 10,300 295 298 -3008
2020-02-26 14:25:21 GMT 48.947350 -1.287569 10,500 294 298 -2880
2020-02-26 14:25:17 GMT 48.945721 -1.281786 11,000 290 296 -2816
2020-02-26 14:25:14 GMT 48.943718 -1.273836 10,850 289 295 -2944
2020-02-26 14:25:09 GMT 48.941952 -1.265524 11,050 287 294 -2752
2020-02-26 14:25:06 GMT 48.939438 -1.253092 11,225 287 294 -2432
2020-02-26 14:25:03 GMT 48.939438 -1.253092 11,325 287 294 -2368
2020-02-26 14:25:00 GMT 48.938457 -1.247888 11,625 287 293 -2496
2020-02-26 14:24:57 GMT 48.937408 -1.242652 11,625 287 293 -2496
2020-02-26 14:24:53 GMT 48.935806 -1.234342 11,650 287 293 -2048
2020-02-26 14:24:49 GMT 48.934082 -1.225337 11,900 287 294 -1216
2020-02-26 14:24:46 GMT 48.932877 -1.219271 11,900 287 295 -1024
2020-02-26 14:24:42 GMT 48.931618 -1.212688 11,950 287 295 -768
2020-02-26 14:24:36 GMT 48.929443 -1.201806 12,000 288 296 -256
2020-02-26 14:24:32 GMT 48.927063 -1.190749 12,000 290 295 0
2020-02-26 14:24:28 GMT 48.925892 -1.185801 12,000 292 294 0
2020-02-26 14:24:25 GMT 48.922539 -1.172429 12,000 292 294 0
2020-02-26 14:24:21 GMT 48.919792 -1.162527 12,000 293 294 64
2020-02-26 14:24:17 GMT 48.919792 -1.162527 12,000 293 294 64
2020-02-26 14:24:11 GMT 48.917038 -1.152719 12,000 293 295 64
2020-02-26 14:24:08 GMT 48.915462 -1.147132 12,000 293 295 64
2020-02-26 14:24:05 GMT 48.913559 -1.140325 11,975 294 295 64
2020-02-26 14:24:01 GMT 48.911739 -1.133760 11,975 294 295 64
2020-02-26 14:23:58 GMT 48.909924 -1.127327 11,975 294 295 64
2020-02-26 14:23:55 GMT 48.908249 -1.121310 12,000 294 296 0
2020-02-26 14:23:51 GMT 48.906418 -1.114760 12,000 294 297 0
2020-02-26 14:23:48 GMT 48.904541 -1.108070 12,000 294 297 -64
2020-02-26 14:23:44 GMT 48.902660 -1.101452 12,000 294 297 0
2020-02-26 14:23:41 GMT 48.897949 -1.084829 12,000 294 300 128
2020-02-26 14:23:36 GMT 48.897949 -1.084829 11,975 294 302 192
2020-02-26 14:23:30 GMT 48.894699 -1.073191 11,975 294 334 -384
2020-02-26 14:23:27 GMT 48.893509 -1.068984 11,975 294 334 -384
2020-02-26 14:23:24 GMT 48.891766 -1.062855 11,975 294 313 0
2020-02-26 14:23:16 GMT 48.886368 -1.043842 11,975 294 329 -128
2020-02-26 14:23:07 GMT 48.881714 -1.027366 12,000 294 334 -384
2020-02-26 14:22:57 GMT 48.875656 -1.006024 12,125 294 330 -1152
2020-02-26 14:22:54 GMT 48.873890 -0.999684 12,125 294 330 -1152
2020-02-26 14:22:50 GMT 48.871284 -0.990576 12,250 294 328 -1344
2020-02-26 14:22:44 GMT 48.867554 -0.977361 12,400 294 328 -1792
2020-02-26 14:22:40 GMT 48.865448 -0.969966 12,700 294 331 -2368
2020-02-26 14:22:36 GMT 48.862061 -0.958064 12,775 294 332 -2816
2020-02-26 14:22:33 GMT 48.861275 -0.955160 12,775 294 332 -2752
2020-02-26 14:22:28 GMT 48.857693 -0.942584 12,950 294 331 -3328
2020-02-26 14:22:25 GMT 48.855549 -0.935067 13,275 294 329 -5184
2020-02-26 14:22:20 GMT 48.851074 -0.919401 13,875 294 330 -5248
2020-02-26 14:22:17 GMT 48.851074 -0.919401 13,775 294 330 -4992
2020-02-26 14:22:14 GMT 48.849426 -0.913696 14,000 294 330 -5184
2020-02-26 14:22:09 GMT 48.846287 -0.902830 14,500 294 329 -5248
2020-02-26 14:22:06 GMT 48.844608 -0.896904 14,700 294 327 -5248
2020-02-26 14:22:03 GMT 48.839951 -0.880526 15,300 294 328 -4800
2020-02-26 14:21:59 GMT 48.839951 -0.880526 15,300 294 328 -4800
2020-02-26 14:21:56 GMT 48.838348 -0.874822 15,825 343 337 -5248
2020-02-26 14:21:53 GMT 48.836609 -0.868624 15,825 294 328 -5056
2020-02-26 14:21:50 GMT 48.835098 -0.863342 16,025 294 329 -4800
2020-02-26 14:21:46 GMT 48.831116 -0.849398 16,350 294 331 -4544
2020-02-26 14:21:43 GMT 48.830566 -0.847426 16,575 294 333 -3776
2020-02-26 14:21:40 GMT 48.828735 -0.841018 16,825 294 335 -3840
2020-02-26 14:21:37 GMT 48.826317 -0.832503 17,025 294 336 -4096
2020-02-26 14:21:34 GMT 48.823521 -0.822746 17,175 294 338 -3904
2020-02-26 14:21:28 GMT 48.821274 -0.815031 17,575 294 339 -4544
2020-02-26 14:21:25 GMT 48.818848 -0.806580 17,975 294 337 -5760
2020-02-26 14:21:22 GMT 48.817200 -0.800946 18,150 294 337 -5952
2020-02-26 14:21:19 GMT 48.815598 -0.795312 18,375 294 337 -5568
2020-02-26 14:21:16 GMT 48.813354 -0.787494 18,725 294 338 -5120
2020-02-26 14:21:12 GMT 48.810814 -0.778728 19,075 294 338 -5248
2020-02-26 14:21:05 GMT 48.806808 -0.764958 19,625 294 339 -5312
2020-02-26 14:21:02 GMT 48.805206 -0.759324 19,825 294 338 -5760
2020-02-26 14:20:59 GMT 48.803329 -0.752775 20,050 294 338 -5952
2020-02-26 14:20:56 GMT 48.799175 -0.738397 20,650 294 337 -6144
2020-02-26 14:20:53 GMT 48.799175 -0.738397 20,850 294 335 -6080
2020-02-26 14:20:46 GMT 48.794907 -0.723619 21,950 294 338 -5120
2020-02-26 14:20:40 GMT 48.790787 -0.709111 22,075 294 339 -4928
2020-02-26 14:20:37 GMT 48.789909 -0.706161 22,175 294 340 -4864
2020-02-26 14:20:33 GMT 48.787170 -0.696646 22,375 294 340 -4864
2020-02-26 14:20:30 GMT 48.785442 -0.690621 22,650 294 342 -5120
2020-02-26 14:20:27 GMT 48.783298 -0.683176 23,225 294 342 -5568
2020-02-26 14:20:24 GMT 48.781174 -0.675870 24,025 293 340 -5440
2020-02-26 14:20:21 GMT 48.779343 -0.669588 23,750 294 342 -5504
2020-02-26 14:20:18 GMT 48.776829 -0.660842 23,850 294 342 -5440
2020-02-26 14:20:15 GMT 48.775806 -0.657300 24,125 294 342 -5440
2020-02-26 14:20:12 GMT 48.773483 -0.649250 24,775 294 341 -6144
2020-02-26 14:20:08 GMT 48.771423 -0.642278 24,775 294 341 -6208
2020-02-26 14:20:05 GMT 48.769089 -0.634179 28,925 294 339 -6592
2020-02-26 14:20:02 GMT 48.764236 -0.617206 25,775 294 338 -6528
2020-02-26 14:19:58 GMT 48.764236 -0.617206 26,050 294 338 -5568
2020-02-26 14:19:55 GMT 48.763050 -0.612921 26,175 294 339 -5120
2020-02-26 14:19:50 GMT 48.760025 -0.602224 26,550 293 341 -5056
2020-02-26 14:19:47 GMT 48.758057 -0.595374 26,725 294 341 -4928
2020-02-26 14:19:44 GMT 48.756271 -0.588966 26,975 293 341 -5376
2020-02-26 14:19:39 GMT 48.750732 -0.569035 28,375 296 337 -5824
2020-02-26 14:19:35 GMT 48.750732 -0.569035 27,975 294 339 -5696
2020-02-26 14:19:32 GMT 48.748581 -0.561359 28,225 295 338 -5760
2020-02-26 14:19:26 GMT 48.744431 -0.548015 28,975 301 333 -5952
2020-02-26 14:19:23 GMT 48.742428 -0.542450 29,775 305 329 -6848
2020-02-26 14:19:19 GMT 48.740005 -0.536451 29,375 306 327 -7040
2020-02-26 14:19:16 GMT 48.737000 -0.529949 30,050 309 323 -7616
2020-02-26 14:19:13 GMT 48.734665 -0.525161 30,150 310 322 -7552
2020-02-26 14:19:10 GMT 48.731300 -0.518959 30,625 313 319 -7168
2020-02-26 14:19:06 GMT 48.727158 -0.512238 31,075 316 318 -6528
2020-02-26 14:19:03 GMT 48.724972 -0.508913 31,250 317 317 -6272
2020-02-26 14:19:00 GMT 48.719894 -0.501902 31,725 324 323 -3520
2020-02-26 14:18:54 GMT 48.713985 -0.494457 32,100 324 323 -3520
2020-02-26 14:18:50 GMT 48.709656 -0.489614 32,225 326 324 -3200
2020-02-26 14:18:47 GMT 48.705963 -0.485863 32,400 330 329 -3264
2020-02-26 14:18:44 GMT 48.695938 -0.477342 32,825 335 333 -3968
2020-02-26 14:18:40 GMT 48.695938 -0.477342 32,900 337 334 -4416
2020-02-26 14:18:37 GMT 48.690308 -0.473468 35,600 0 363 -2752
2020-02-26 14:18:34 GMT 48.688801 -0.472629 33,525 343 337 -5312
2020-02-26 14:18:31 GMT 48.684311 -0.470229 33,775 347 340 -4608
2020-02-26 14:18:28 GMT 48.676941 -0.466989 33,775 347 340 -4608
2020-02-26 14:18:25 GMT 48.667526 -0.464028 34,200 350 345 -3584
2020-02-26 14:18:22 GMT 48.667526 -0.464028 34,375 352 348 -3200
2020-02-26 14:18:16 GMT 48.659004 -0.462582 34,700 358 357 -3904
2020-02-26 14:18:13 GMT 48.650066 -0.462149 34,900 0 361 -4032
2020-02-26 14:18:10 GMT 48.650066 -0.462149 35,050 0 361 -3904
2020-02-26 14:18:07 GMT 48.644989 -0.462200 35,325 0 363 -2688
2020-02-26 14:18:04 GMT 48.638893 -0.462293 35,475 0 362 -3264
2020-02-26 14:17:59 GMT 48.626511 -0.462365 35,775 0 364 -2304
2020-02-26 14:17:56 GMT 48.626511 -0.462365 36,000 0 366 -1152
2020-02-26 14:17:53 GMT 48.622238 -0.462412 35,875 0 364 -1728
2020-02-26 14:17:49 GMT 48.614960 -0.462482 36,000 0 368 -448
2020-02-26 14:17:46 GMT 48.608368 -0.462482 36,000 0 371 -128
2020-02-26 14:17:42 GMT 48.603283 -0.462510 36,000 0 371 -192
2020-02-26 14:17:39 GMT 48.597931 -0.462482 36,000 0 371 -128
2020-02-26 14:17:36 GMT 48.592155 -0.462510 36,000 0 370 0
2020-02-26 14:17:33 GMT 48.587036 -0.462510 36,000 0 370 -64
2020-02-26 14:17:30 GMT 48.581730 -0.462438 36,000 0 370 -64
2020-02-26 14:17:27 GMT 48.577377 -0.462482 36,000 0 370 0
2020-02-26 14:17:24 GMT 48.573120 -0.462482 36,000 0 370 0
2020-02-26 14:17:21 GMT 48.566620 -0.462412 36,000 0 369 0
2020-02-26 14:17:18 GMT 48.559982 -0.462412 36,000 0 369 0
2020-02-26 14:17:14 GMT 48.555405 -0.462412 36,000 0 369 0
2020-02-26 14:17:11 GMT 48.551052 -0.462365 36,000 0 368 0
2020-02-26 14:17:08 GMT 48.545197 -0.462412 36,000 0 368 0
2020-02-26 14:17:05 GMT 48.539135 -0.462438 36,000 0 368 0
2020-02-26 14:17:02 GMT 48.535595 -0.462438 36,000 0 368 0
2020-02-26 14:16:59 GMT 48.529449 -0.462438 36,000 0 369 64
2020-02-26 14:16:56 GMT 48.524330 -0.462438 36,000 0 369 64
2020-02-26 14:16:53 GMT 48.517639 -0.462482 36,000 0 370 64
2020-02-26 14:16:48 GMT 48.509338 -0.462510 36,000 0 372 0
2020-02-26 14:16:43 GMT 48.498093 -0.462623 36,000 0 375 -64
2020-02-26 14:16:37 GMT 48.486328 -0.462764 36,025 0 380 -64
2020-02-26 14:16:34 GMT 48.486328 -0.462764 36,025 0 378 -192
2020-02-26 14:16:31 GMT 48.481247 -0.462834 36,025 0 379 -128
2020-02-26 14:16:28 GMT 48.477081 -0.462905 36,025 0 379 -128
2020-02-26 14:16:25 GMT 48.469711 -0.462975 36,025 0 380 64
2020-02-26 14:16:22 GMT 48.465397 -0.463016 36,025 0 380 64
2020-02-26 14:16:19 GMT 48.460419 -0.463046 36,025 0 379 64
2020-02-26 14:16:16 GMT 48.453369 -0.463116 36,025 0 379 64
2020-02-26 14:16:12 GMT 48.448032 -0.463160 36,025 0 379 64
2020-02-26 14:16:09 GMT 48.442886 -0.463257 36,025 0 379 64
2020-02-26 14:16:06 GMT 48.436298 -0.463305 36,025 0 379 64
2020-02-26 14:16:03 GMT 48.430901 -0.463377 36,000 0 378 64
2020-02-26 14:15:56 GMT 48.421078 -0.463522 36,000 0 377 64
2020-02-26 14:15:53 GMT 48.414551 -0.463539 36,000 0 378 64
2020-02-26 14:15:50 GMT 48.409836 -0.463609 36,000 0 377 64
2020-02-26 14:15:47 GMT 48.404617 -0.463609 36,000 0 376 64
2020-02-26 14:15:43 GMT 48.397293 -0.463679 35,975 0 376 0
2020-02-26 14:15:40 GMT 48.390076 -0.463739 36,000 0 376 0
2020-02-26 14:15:36 GMT 48.385742 -0.463739 36,000 0 375 0
2020-02-26 14:15:33 GMT 48.379944 -0.463820 35,975 0 375 0
2020-02-26 14:15:29 GMT 48.366119 -0.463891 36,000 0 374 -64
2020-02-26 14:15:25 GMT 48.366119 -0.463891 36,000 0 373 -64
2020-02-26 14:15:22 GMT 48.361675 -0.463883 36,000 0 373 -64
2020-02-26 14:15:17 GMT 48.351200 -0.463956 36,000 0 372 -128
2020-02-26 14:15:13 GMT 48.344639 -0.464028 36,000 0 371 -128
2020-02-26 14:15:08 GMT 48.330765 -0.464100 36,000 0 371 -64
2020-02-26 14:15:05 GMT 48.330765 -0.464100 36,025 0 370 -64
2020-02-26 14:15:01 GMT 48.326157 -0.464100 36,025 0 370 0
2020-02-26 14:14:57 GMT 48.313431 -0.464172 36,025 0 369 0
2020-02-26 14:14:54 GMT 48.313431 -0.464172 36,025 0 368 0
2020-02-26 14:14:51 GMT 48.307297 -0.464172 36,025 0 368 0
2020-02-26 14:14:47 GMT 48.296402 -0.464172 36,025 0 368 0
2020-02-26 14:14:44 GMT 48.291641 -0.464243 36,025 0 368 0
2020-02-26 14:14:41 GMT 48.283676 -0.464243 36,025 0 368 0
2020-02-26 14:14:38 GMT 48.280289 -0.464243 36,025 0 368 0
2020-02-26 14:14:35 GMT 48.280289 -0.464243 36,025 0 367 0
2020-02-26 14:14:32 GMT 48.276115 -0.464245 36,025 0 367 0
2020-02-26 14:14:29 GMT 48.270630 -0.464243 36,025 0 367 0
2020-02-26 14:14:24 GMT 48.262383 -0.464245 36,025 0 366 0
2020-02-26 14:14:21 GMT 48.257401 -0.464243 36,025 0 366 0
2020-02-26 14:14:18 GMT 48.252094 -0.464317 36,025 0 366 0
2020-02-26 14:14:15 GMT 48.246834 -0.464317 36,025 0 366 0
2020-02-26 14:14:12 GMT 48.237057 -0.464389 36,025 0 365 0
2020-02-26 14:14:09 GMT 48.237057 -0.464389 36,025 0 365 0
2020-02-26 14:14:03 GMT 48.222717 -0.464461 36,025 0 365 0
2020-02-26 14:13:57 GMT 48.217133 -0.464534 36,025 0 365 0
2020-02-26 14:13:54 GMT 48.210342 -0.464595 36,025 0 364 64
2020-02-26 14:13:51 GMT 48.206131 -0.464595 36,025 0 363 64
2020-02-26 14:13:48 GMT 48.201675 -0.464606 36,025 0 364 0
2020-02-26 14:13:43 GMT 48.187500 -0.464736 36,025 0 363 64
2020-02-26 14:13:39 GMT 48.179703 -0.464823 36,025 0 363 64
2020-02-26 14:13:36 GMT 48.179703 -0.464823 36,000 0 362 64
2020-02-26 14:13:33 GMT 48.176926 -0.464806 36,000 0 362 64
2020-02-26 14:13:30 GMT 48.171837 -0.464895 36,000 0 362 64
2020-02-26 14:13:27 GMT 48.166157 -0.464967 36,000 0 362 64
2020-02-26 14:13:24 GMT 48.160294 -0.465017 36,000 0 362 64
2020-02-26 14:13:20 GMT 48.154285 -0.465088 36,000 0 362 64
2020-02-26 14:13:17 GMT 48.148682 -0.465134 36,000 0 361 64
2020-02-26 14:13:14 GMT 48.145157 -0.465202 36,000 0 361 64
2020-02-26 14:13:11 GMT 48.139343 -0.465271 35,975 0 360 0
2020-02-26 14:13:07 GMT 48.132591 -0.465370 36,000 0 359 64
2020-02-26 14:13:04 GMT 48.126205 -0.465408 35,975 0 359 0
2020-02-26 14:13:01 GMT 48.122955 -0.465440 35,975 0 359 0
2020-02-26 14:12:58 GMT 48.117920 -0.465408 35,975 0 359 0
2020-02-26 14:12:54 GMT 48.110092 -0.465477 35,975 0 358 0
2020-02-26 14:12:50 GMT 48.103405 -0.465510 35,975 0 358 0
2020-02-26 14:12:47 GMT 48.097733 -0.465546 35,975 0 357 0
2020-02-26 14:12:43 GMT 48.092697 -0.465510 35,975 0 356 64
2020-02-26 14:12:37 GMT 48.083618 -0.465581 35,975 0 356 64
2020-02-26 14:12:34 GMT 48.078220 -0.465581 35,975 0 355 64
2020-02-26 14:12:31 GMT 48.073059 -0.465614 35,975 0 355 64
2020-02-26 14:12:27 GMT 48.067337 -0.465614 35,950 0 354 64
2020-02-26 14:12:24 GMT 48.061695 -0.465581 35,950 0 353 0
2020-02-26 14:12:21 GMT 48.058109 -0.465581 35,950 0 354 0
2020-02-26 14:12:18 GMT 48.051407 -0.465581 35,950 0 353 0
2020-02-26 14:12:14 GMT 48.040237 -0.465546 35,950 0 353 0
2020-02-26 14:12:11 GMT 48.040237 -0.465546 35,975 0 352 0
2020-02-26 14:12:08 GMT 48.034195 -0.465546 35,975 0 352 0
2020-02-26 14:12:05 GMT 48.031128 -0.465546 35,950 0 352 0
2020-02-26 14:12:02 GMT 48.021751 -0.465510 35,950 0 352 0
2020-02-26 14:11:59 GMT 48.015747 -0.465510 35,950 0 351 0
2020-02-26 14:11:56 GMT 48.015747 -0.465510 35,950 0 351 0
2020-02-26 14:11:52 GMT 48.004902 -0.465510 35,950 0 351 0
2020-02-26 14:11:46 GMT 48.000011 -0.465510 35,975 0 351 0
2020-02-26 14:11:43 GMT 47.995171 -0.465510 35,975 0 351 0
2020-02-26 14:11:40 GMT 47.989166 -0.465510 35,975 0 351 -64
2020-02-26 14:11:36 GMT 47.984070 -0.465546 35,975 0 351 -64
2020-02-26 14:11:32 GMT 47.976364 -0.465581 35,975 0 350 -64
2020-02-26 14:11:29 GMT 47.972397 -0.465614 35,975 0 350 -64
2020-02-26 14:11:25 GMT 47.966167 -0.465581 36,000 0 350 -64
2020-02-26 14:11:22 GMT 47.961273 -0.465614 36,000 0 350 -64
2020-02-26 14:11:19 GMT 47.956558 -0.465614 36,000 0 337 0
2020-02-26 14:11:15 GMT 47.950104 -0.465683 36,000 0 350 -64
2020-02-26 14:11:11 GMT 47.943649 -0.465683 36,000 0 349 -64
2020-02-26 14:11:08 GMT 47.935490 -0.465792 36,000 0 349 -64
2020-02-26 14:11:05 GMT 47.933907 -0.465792 36,000 0 349 -64
2020-02-26 14:11:01 GMT 47.921200 -0.465863 36,025 0 348 -64
2020-02-26 14:10:58 GMT 47.921200 -0.465863 36,025 0 348 -64
2020-02-26 14:10:55 GMT 47.917877 -0.465889 36,025 0 348 -64
2020-02-26 14:10:52 GMT 47.911606 -0.465958 36,025 0 348 -64
2020-02-26 14:10:48 GMT 47.907440 -0.466026 36,025 0 347 0
2020-02-26 14:10:45 GMT 47.896362 -0.466095 36,025 0 347 0
2020-02-26 14:10:39 GMT 47.883820 -0.466144 36,000 0 346 64
2020-02-26 14:10:34 GMT 47.883820 -0.466144 36,025 0 347 0
2020-02-26 14:10:31 GMT 47.878979 -0.466144 36,025 0 347 0
2020-02-26 14:10:28 GMT 47.873531 -0.466215 36,025 0 347 0
2020-02-26 14:10:25 GMT 47.864918 -0.466215 36,025 0 347 0
2020-02-26 14:10:19 GMT 47.858353 -0.466285 36,025 0 346 0
2020-02-26 14:10:15 GMT 47.852646 -0.466370 36,025 0 346 0
2020-02-26 14:10:12 GMT 47.846809 -0.466426 36,025 0 346 64
2020-02-26 14:10:09 GMT 47.844360 -0.466438 36,025 0 346 0
2020-02-26 14:10:05 GMT 47.836754 -0.466496 36,025 0 346 64
2020-02-26 14:10:02 GMT 47.831726 -0.466576 36,025 0 346 64
2020-02-26 14:09:59 GMT 47.828384 -0.466576 36,025 0 346 128
2020-02-26 14:09:56 GMT 47.824463 -0.466637 36,025 0 346 128
2020-02-26 14:09:53 GMT 47.814362 -0.466778 36,000 0 346 64
2020-02-26 14:09:47 GMT 47.803894 -0.466850 36,000 0 346 64
2020-02-26 14:09:44 GMT 47.803894 -0.466850 36,000 0 346 64
2020-02-26 14:09:41 GMT 47.799591 -0.466919 36,000 0 346 64
2020-02-26 14:09:38 GMT 47.794647 -0.466919 36,000 0 346 64
2020-02-26 14:09:35 GMT 47.789921 -0.466989 36,000 0 346 64
2020-02-26 14:09:32 GMT 47.784012 -0.467060 36,000 0 346 64
2020-02-26 14:09:29 GMT 47.779953 -0.467125 36,000 0 346 64
2020-02-26 14:09:25 GMT 47.773769 -0.467201 35,975 0 337 0
2020-02-26 14:09:19 GMT 47.763901 -0.467271 35,975 0 345 0
2020-02-26 14:09:14 GMT 47.757294 -0.467331 35,975 0 345 0
2020-02-26 14:09:11 GMT 47.747143 -0.467482 35,975 0 345 0
2020-02-26 14:09:05 GMT 47.742859 -0.467553 35,975 0 344 0
2020-02-26 14:09:02 GMT 47.737518 -0.467606 35,975 0 344 0
2020-02-26 14:08:59 GMT 47.731079 -0.467694 35,975 0 344 0
2020-02-26 14:08:53 GMT 47.723770 -0.467694 35,975 0 343 0
2020-02-26 14:08:50 GMT 47.717579 -0.467764 35,975 0 343 0
2020-02-26 14:08:47 GMT 47.712833 -0.467764 35,975 0 343 0
2020-02-26 14:08:44 GMT 47.709061 -0.467834 35,975 0 342 0
2020-02-26 14:08:41 GMT 47.702545 -0.467834 35,975 0 342 0
2020-02-26 14:08:38 GMT 47.694489 -0.467905 35,975 0 342 -64
2020-02-26 14:08:34 GMT 47.692444 -0.467905 35,975 0 342 -64
2020-02-26 14:08:31 GMT 47.689041 -0.467880 36,000 0 341 0
2020-02-26 14:08:28 GMT 47.683456 -0.467905 35,975 0 341 0
2020-02-26 14:08:24 GMT 47.676987 -0.467905 35,975 0 341 0
2020-02-26 14:08:21 GMT 47.672890 -0.467905 35,975 0 337 0
2020-02-26 14:08:18 GMT 47.666279 -0.467905 35,975 0 341 -64
2020-02-26 14:08:14 GMT 47.659927 -0.467880 35,975 0 341 -64
2020-02-26 14:08:11 GMT 47.656551 -0.467905 35,975 0 341 -64
2020-02-26 14:08:07 GMT 47.651058 -0.467905 36,000 0 341 0
2020-02-26 14:08:03 GMT 47.643723 -0.467880 36,000 0 341 -64
2020-02-26 14:08:00 GMT 47.639008 -0.467949 36,000 0 340 0
2020-02-26 14:07:57 GMT 47.634430 -0.467949 36,000 0 340 -64
2020-02-26 14:07:53 GMT 47.627197 -0.467949 36,000 0 340 0
2020-02-26 14:07:49 GMT 47.620239 -0.468046 36,000 0 340 0
2020-02-26 14:07:42 GMT 47.611038 -0.468086 36,000 0 340 0
2020-02-26 14:07:39 GMT 47.606087 -0.468046 36,000 0 340 0
2020-02-26 14:07:36 GMT 47.602249 -0.468086 36,000 0 340 0
2020-02-26 14:07:31 GMT 47.594101 -0.468086 36,000 0 339 0
2020-02-26 14:07:28 GMT 47.589329 -0.468116 36,000 0 339 0
2020-02-26 14:07:25 GMT 47.585373 -0.468116 36,000 0 339 0
2020-02-26 14:07:22 GMT 47.579597 -0.468116 36,000 0 339 0
2020-02-26 14:07:19 GMT 47.574509 -0.468155 36,000 0 339 0
2020-02-26 14:07:16 GMT 47.571213 -0.468155 36,000 0 339 0
2020-02-26 14:07:12 GMT 47.564941 -0.468155 36,000 0 339 0
2020-02-26 14:07:09 GMT 47.555019 -0.468187 36,000 0 339 0
2020-02-26 14:07:06 GMT 47.549469 -0.468155 36,000 0 339 0
2020-02-26 14:07:03 GMT 47.549469 -0.468155 36,000 0 339 0
2020-02-26 14:07:00 GMT 47.544220 -0.468187 36,000 0 338 0
2020-02-26 14:06:54 GMT 47.535606 -0.468187 36,000 0 338 -64
2020-02-26 14:06:51 GMT 47.526112 -0.468187 36,000 0 338 -64
2020-02-26 14:06:48 GMT 47.526112 -0.468187 36,000 0 338 -64
2020-02-26 14:06:45 GMT 47.521408 -0.468257 36,000 0 338 -64
2020-02-26 14:06:42 GMT 47.516647 -0.468224 36,000 0 338 0
2020-02-26 14:06:39 GMT 47.511337 -0.468224 36,000 0 338 0
2020-02-26 14:06:36 GMT 47.508327 -0.468257 36,000 0 338 0
2020-02-26 14:06:32 GMT 47.500443 -0.468292 36,000 0 337 0
2020-02-26 14:06:29 GMT 47.496368 -0.468292 36,025 0 337 0
2020-02-26 14:06:26 GMT 47.491940 -0.468327 36,000 0 337 0
2020-02-26 14:06:22 GMT 47.485474 -0.468361 36,000 0 337 0
2020-02-26 14:06:19 GMT 47.476856 -0.468398 36,000 0 337 0
2020-02-26 14:06:16 GMT 47.468292 -0.468468 36,000 0 337 0
2020-02-26 14:06:12 GMT 47.468292 -0.468468 36,025 0 337 0
2020-02-26 14:06:08 GMT 47.463963 -0.468539 36,000 0 337 0
2020-02-26 14:06:05 GMT 47.459911 -0.468539 36,025 0 336 0
2020-02-26 14:06:02 GMT 47.453537 -0.468609 36,025 0 336 0
2020-02-26 14:05:57 GMT 47.447159 -0.468680 36,025 0 336 -64
2020-02-26 14:05:53 GMT 47.441570 -0.468750 36,025 0 336 0
2020-02-26 14:05:50 GMT 47.431732 -0.468842 36,025 0 336 0
2020-02-26 14:05:47 GMT 47.431732 -0.468842 36,025 0 336 0
2020-02-26 14:05:44 GMT 47.425964 -0.468910 36,025 0 336 0
2020-02-26 14:05:38 GMT 47.416168 -0.468979 36,025 0 336 0
2020-02-26 14:05:35 GMT 47.409126 -0.469102 36,000 0 325 -64
2020-02-26 14:05:29 GMT 47.404404 -0.469116 36,025 0 336 0
2020-02-26 14:05:26 GMT 47.398499 -0.469185 36,000 0 336 0
2020-02-26 14:05:20 GMT 47.384590 -0.469173 36,025 0 336 0
2020-02-26 14:05:14 GMT 47.380463 -0.469185 36,025 0 336 0
2020-02-26 14:05:11 GMT 47.375561 -0.469243 36,025 0 336 0
2020-02-26 14:05:08 GMT 47.366638 -0.469254 36,025 0 336 0
2020-02-26 14:04:59 GMT 47.356194 -0.469243 36,025 0 336 0
2020-02-26 14:04:55 GMT 47.351440 -0.469254 36,025 0 336 0
2020-02-26 14:04:49 GMT 47.341297 -0.469313 36,025 0 336 0
2020-02-26 14:04:46 GMT 47.336784 -0.469313 36,000 0 327 -64
2020-02-26 14:04:42 GMT 47.328964 -0.469391 36,025 0 336 0
2020-02-26 14:04:39 GMT 47.325794 -0.469384 36,025 0 335 0
2020-02-26 14:04:35 GMT 47.320633 -0.469460 36,025 0 335 0
2020-02-26 14:04:31 GMT 47.312016 -0.469454 36,025 0 335 0
2020-02-26 14:04:28 GMT 47.303558 -0.469528 36,000 0 335 0
2020-02-26 14:04:25 GMT 47.303558 -0.469528 36,025 0 335 0
2020-02-26 14:04:20 GMT 47.295364 -0.469597 36,000 0 335 64
2020-02-26 14:04:17 GMT 47.292046 -0.469595 36,000 0 335 64
2020-02-26 14:04:14 GMT 47.288040 -0.469595 36,000 0 335 64
2020-02-26 14:04:09 GMT 47.279987 -0.469595 36,025 0 335 0
2020-02-26 14:04:06 GMT 47.268398 -0.469666 36,000 0 334 0
2020-02-26 14:03:59 GMT 47.264145 -0.469734 36,000 0 333 0
2020-02-26 14:03:56 GMT 47.258389 -0.469736 36,000 0 327 -64
2020-02-26 14:03:53 GMT 47.254623 -0.469734 36,000 0 333 0
2020-02-26 14:03:49 GMT 47.249126 -0.469736 36,000 0 321 64
2020-02-26 14:03:46 GMT 47.244984 -0.469736 36,000 0 327 -64
2020-02-26 14:03:43 GMT 47.240372 -0.469806 36,000 0 333 0
2020-02-26 14:03:40 GMT 47.234554 -0.469806 36,000 0 333 0
2020-02-26 14:03:37 GMT 47.225803 -0.469806 36,000 0 332 0
2020-02-26 14:03:31 GMT 47.221333 -0.469877 36,000 0 331 0
2020-02-26 14:03:27 GMT 47.213978 -0.469877 36,000 0 331 0
2020-02-26 14:03:23 GMT 47.208344 -0.469877 36,000 0 331 0
2020-02-26 14:03:19 GMT 47.202385 -0.469877 36,000 0 331 0
2020-02-26 14:03:16 GMT 47.198242 -0.469877 36,000 0 331 0
2020-02-26 14:03:13 GMT 47.194336 -0.469872 36,000 0 330 0
2020-02-26 14:03:10 GMT 47.184231 -0.469877 36,000 0 330 0
2020-02-26 14:03:04 GMT 47.179482 -0.469877 36,000 0 329 64
2020-02-26 14:03:01 GMT 47.176132 -0.469877 36,000 0 329 0
2020-02-26 14:02:58 GMT 47.170498 -0.469877 36,000 0 329 64
2020-02-26 14:02:55 GMT 47.165863 -0.469872 36,000 0 329 64
2020-02-26 14:02:52 GMT 47.161839 -0.469877 36,000 0 329 64
2020-02-26 14:02:49 GMT 47.157074 -0.469872 36,000 0 329 0
2020-02-26 14:02:46 GMT 47.146523 -0.469877 36,000 0 328 0
2020-02-26 14:02:42 GMT 47.146523 -0.469877 36,000 0 328 0
2020-02-26 14:02:36 GMT 47.136841 -0.469877 36,000 0 328 0
2020-02-26 14:02:31 GMT 47.129856 -0.469947 36,000 0 328 0
2020-02-26 14:02:28 GMT 47.125343 -0.469947 36,000 0 328 0
2020-02-26 14:02:25 GMT 47.121460 -0.469940 36,000 0 327 -64
2020-02-26 14:02:22 GMT 47.116470 -0.470009 36,000 0 328 0
2020-02-26 14:02:19 GMT 47.111237 -0.470018 36,000 0 328 -64
2020-02-26 14:02:15 GMT 47.105713 -0.470078 36,000 0 327 -64
2020-02-26 14:02:12 GMT 47.101044 -0.470146 36,000 0 327 0
2020-02-26 14:02:09 GMT 47.096054 -0.470215 36,000 0 327 0
2020-02-26 14:02:06 GMT 47.091385 -0.470284 36,000 0 328 64
2020-02-26 14:02:01 GMT 47.085022 -0.470352 36,000 0 328 64
2020-02-26 14:01:58 GMT 47.078064 -0.470490 36,000 0 329 64
2020-02-26 14:01:53 GMT 47.072891 -0.470558 35,975 0 320 0
2020-02-26 14:01:49 GMT 47.064651 -0.470695 36,000 0 330 -64
2020-02-26 14:01:43 GMT 47.057465 -0.470764 36,000 0 331 -64
2020-02-26 14:01:40 GMT 47.052109 -0.470833 36,000 0 330 0
2020-02-26 14:01:37 GMT 47.047394 -0.470901 36,000 0 328 0
2020-02-26 14:01:34 GMT 47.042294 -0.470933 36,000 0 329 0
2020-02-26 14:01:30 GMT 47.037827 -0.470970 36,000 0 328 0
2020-02-26 14:01:27 GMT 47.033028 -0.471004 36,000 0 327 64
2020-02-26 14:01:23 GMT 47.026234 -0.471074 36,000 0 326 0
2020-02-26 14:01:19 GMT 47.020432 -0.471107 36,000 0 326 0
2020-02-26 14:01:16 GMT 47.015762 -0.471107 36,000 0 326 0
2020-02-26 14:01:13 GMT 47.005554 -0.471107 36,000 0 326 0
2020-02-26 14:01:09 GMT 46.999790 -0.471074 36,000 0 324 -64
2020-02-26 14:01:06 GMT 46.999790 -0.471074 36,000 0 325 -64
2020-02-26 14:01:03 GMT 46.996674 -0.471107 36,000 0 324 -64
2020-02-26 14:01:00 GMT 46.992855 -0.471074 36,000 0 324 0
2020-02-26 14:00:57 GMT 46.987381 -0.471039 36,000 0 322 64
2020-02-26 14:00:54 GMT 46.983353 -0.471039 35,975 0 320 0
2020-02-26 14:00:50 GMT 46.971859 -0.471004 36,000 0 321 128
2020-02-26 14:00:47 GMT 46.971859 -0.471004 36,000 0 320 128
2020-02-26 14:00:43 GMT 46.966141 -0.471039 35,975 0 320 128
2020-02-26 14:00:40 GMT 46.961945 -0.471004 35,975 0 320 0
2020-02-26 14:00:37 GMT 46.958221 -0.471004 35,975 0 320 0
2020-02-26 14:00:34 GMT 46.948700 -0.471107 35,975 0 320 0
2020-02-26 14:00:31 GMT 46.948700 -0.471107 35,975 0 320 0
2020-02-26 14:00:28 GMT 46.943527 -0.471107 35,975 0 320 64
2020-02-26 14:00:25 GMT 46.938297 -0.471144 35,975 0 319 0
2020-02-26 14:00:22 GMT 46.935287 -0.471176 35,975 0 319 0
2020-02-26 14:00:19 GMT 46.927822 -0.471285 35,975 0 319 -64
2020-02-26 14:00:13 GMT 46.922150 -0.471313 35,975 0 319 0
2020-02-26 14:00:09 GMT 46.916382 -0.471382 35,975 0 319 0
2020-02-26 14:00:06 GMT 46.911762 -0.471426 35,975 0 319 0
2020-02-26 14:00:02 GMT 46.906357 -0.471451 35,975 0 319 0
2020-02-26 13:59:59 GMT 46.901894 -0.471497 35,975 0 319 0
2020-02-26 13:59:56 GMT 46.897423 -0.471567 35,975 0 319 0
2020-02-26 13:59:51 GMT 46.886250 -0.471708 35,975 0 319 0
2020-02-26 13:59:48 GMT 46.879314 -0.471849 35,975 0 320 0
2020-02-26 13:59:44 GMT 46.879314 -0.471849 35,975 0 320 0
2020-02-26 13:59:41 GMT 46.874634 -0.471863 35,975 0 320 0
2020-02-26 13:59:38 GMT 46.871632 -0.471919 35,975 0 320 0
2020-02-26 13:59:34 GMT 46.859573 -0.472077 35,975 0 320 0
2020-02-26 13:59:31 GMT 46.859573 -0.472077 35,975 0 319 -64
2020-02-26 13:59:28 GMT 46.855850 -0.472137 35,975 0 319 0
2020-02-26 13:59:24 GMT 46.849411 -0.472144 36,000 0 319 -64
2020-02-26 13:59:20 GMT 46.843422 -0.472206 36,000 0 319 -64
2020-02-26 13:59:16 GMT 46.833939 -0.472211 36,000 0 319 -64
2020-02-26 13:59:13 GMT 46.833939 -0.472211 36,000 0 319 0
2020-02-26 13:59:10 GMT 46.822800 -0.472275 36,000 0 319 -64
2020-02-26 13:59:06 GMT 46.822800 -0.472275 36,000 0 319 -64
2020-02-26 13:59:03 GMT 46.819199 -0.472278 36,000 0 319 -64
2020-02-26 13:59:00 GMT 46.814419 -0.472275 36,000 0 319 -64
2020-02-26 13:58:56 GMT 46.808510 -0.472275 36,025 0 319 -64
2020-02-26 13:58:53 GMT 46.800934 -0.472211 36,000 0 319 -64
2020-02-26 13:58:46 GMT 46.793938 -0.472206 36,025 0 320 0
2020-02-26 13:58:43 GMT 46.789188 -0.472206 36,025 0 319 0
2020-02-26 13:58:40 GMT 46.785511 -0.472206 36,025 0 319 0
2020-02-26 13:58:36 GMT 46.779320 -0.472206 36,025 0 320 0
2020-02-26 13:58:32 GMT 46.773193 -0.472211 36,025 0 320 0
2020-02-26 13:58:29 GMT 46.769485 -0.472144 36,025 0 320 -64
2020-02-26 13:58:26 GMT 46.764515 -0.472137 36,025 0 320 -64
2020-02-26 13:58:23 GMT 46.759350 -0.472137 36,025 0 320 0
2020-02-26 13:58:17 GMT 46.751060 -0.472137 36,025 0 321 0
2020-02-26 13:58:14 GMT 46.740726 -0.472206 36,025 0 321 -64
2020-02-26 13:58:10 GMT 46.740726 -0.472206 36,025 0 321 -64
2020-02-26 13:58:05 GMT 46.734238 -0.472211 36,025 0 321 -64
2020-02-26 13:58:02 GMT 46.723709 -0.472278 36,025 0 322 0
2020-02-26 13:57:55 GMT 46.719086 -0.472278 36,025 0 322 0
2020-02-26 13:57:52 GMT 46.714188 -0.472345 36,025 0 322 0
2020-02-26 13:57:49 GMT 46.710281 -0.472343 36,050 0 322 0
2020-02-26 13:57:44 GMT 46.701809 -0.472412 36,025 0 322 0
2020-02-26 13:57:40 GMT 46.694363 -0.472481 36,050 0 322 64
2020-02-26 13:57:36 GMT 46.689514 -0.472479 36,050 0 322 64
2020-02-26 13:57:33 GMT 46.686493 -0.472549 36,025 0 322 64
2020-02-26 13:57:30 GMT 46.681046 -0.472546 36,025 0 322 -64
2020-02-26 13:57:25 GMT 46.674438 -0.472618 36,050 0 321 128
2020-02-26 13:57:22 GMT 46.669689 -0.472618 36,025 0 321 128
2020-02-26 13:57:18 GMT 46.664429 -0.472680 36,025 0 321 128
2020-02-26 13:57:15 GMT 46.659393 -0.472680 36,025 0 321 64
2020-02-26 13:57:12 GMT 46.654312 -0.472747 36,025 0 321 -64
2020-02-26 13:57:09 GMT 46.650330 -0.472747 36,025 0 321 -64
2020-02-26 13:57:05 GMT 46.639481 -0.472814 36,025 0 321 128
2020-02-26 13:57:02 GMT 46.639481 -0.472814 36,025 0 321 64
2020-02-26 13:56:59 GMT 46.635635 -0.472814 36,025 0 321 0
2020-02-26 13:56:56 GMT 46.629684 -0.472881 36,025 0 321 -64
2020-02-26 13:56:53 GMT 46.626297 -0.472881 36,025 0 321 -64
2020-02-26 13:56:49 GMT 46.611465 -0.472948 36,050 0 321 0
2020-02-26 13:56:43 GMT 46.611465 -0.472948 36,025 0 321 64
2020-02-26 13:56:39 GMT 46.605309 -0.473030 36,050 0 321 -64
2020-02-26 13:56:32 GMT 46.594460 -0.473099 36,050 0 321 -64
2020-02-26 13:56:28 GMT 46.589760 -0.473099 36,025 0 321 -64
2020-02-26 13:56:25 GMT 46.584267 -0.473167 36,050 0 321 -64
2020-02-26 13:56:21 GMT 46.577682 -0.473216 36,050 0 321 -64
2020-02-26 13:56:18 GMT 46.575577 -0.473283 36,050 0 320 128
2020-02-26 13:56:14 GMT 46.569534 -0.473283 36,050 0 320 128
2020-02-26 13:56:11 GMT 46.564575 -0.473373 36,050 0 320 128
2020-02-26 13:56:08 GMT 46.559921 -0.473417 36,050 0 320 128
2020-02-26 13:56:01 GMT 46.549538 -0.473511 36,025 0 319 0
2020-02-26 13:55:58 GMT 46.536621 -0.473484 36,050 0 319 64
2020-02-26 13:55:53 GMT 46.532639 -0.473551 36,025 0 319 64
2020-02-26 13:55:47 GMT 46.529709 -0.473551 36,025 0 319 64
2020-02-26 13:55:43 GMT 46.523987 -0.473551 36,025 0 319 0
2020-02-26 13:55:40 GMT 46.518581 -0.473579 36,025 0 318 0
2020-02-26 13:55:37 GMT 46.514832 -0.473551 36,025 0 318 64
2020-02-26 13:55:34 GMT 46.505127 -0.473618 36,025 0 318 64
2020-02-26 13:55:31 GMT 46.505127 -0.473618 36,025 0 318 64
2020-02-26 13:55:27 GMT 46.499634 -0.473648 36,025 0 318 128
2020-02-26 13:55:22 GMT 46.492001 -0.473648 36,000 0 318 64
2020-02-26 13:55:19 GMT 46.487503 -0.473685 36,000 0 318 128
2020-02-26 13:55:16 GMT 46.483978 -0.473752 36,000 0 318 64
2020-02-26 13:55:12 GMT 46.477009 -0.473785 36,000 0 318 64
2020-02-26 13:55:09 GMT 46.468552 -0.473819 36,000 0 318 64
2020-02-26 13:55:03 GMT 46.463928 -0.473854 36,000 0 318 0
2020-02-26 13:55:00 GMT 46.460037 -0.473953 35,975 0 318 64
2020-02-26 13:54:57 GMT 46.449543 -0.473991 35,975 0 318 0
2020-02-26 13:54:54 GMT 46.449543 -0.473991 35,975 0 318 -64
2020-02-26 13:54:50 GMT 46.445526 -0.474020 36,000 0 318 -64
2020-02-26 13:54:46 GMT 46.439117 -0.474060 36,000 0 317 0
2020-02-26 13:54:43 GMT 46.435020 -0.474060 36,000 0 317 0
2020-02-26 13:54:40 GMT 46.430641 -0.474129 36,000 0 317 0
2020-02-26 13:54:37 GMT 46.426826 -0.474129 36,000 0 317 0
2020-02-26 13:54:33 GMT 46.415562 -0.474197 35,975 0 317 0
2020-02-26 13:54:30 GMT 46.415562 -0.474197 35,975 0 317 0
2020-02-26 13:54:27 GMT 46.410721 -0.474197 35,975 0 316 64
2020-02-26 13:54:20 GMT 46.401031 -0.474221 35,975 0 316 64
2020-02-26 13:54:17 GMT 46.397732 -0.474266 35,975 0 316 64
2020-02-26 13:54:14 GMT 46.393570 -0.474288 35,975 0 316 0
2020-02-26 13:54:10 GMT 46.386429 -0.474355 35,975 0 316 0
2020-02-26 13:54:06 GMT 46.375385 -0.474335 35,975 0 316 64
2020-02-26 13:54:02 GMT 46.375385 -0.474335 35,975 0 316 64
2020-02-26 13:53:58 GMT 46.367241 -0.474403 35,975 0 316 0
2020-02-26 13:53:54 GMT 46.362946 -0.474422 35,975 0 316 0
2020-02-26 13:53:50 GMT 46.346191 -0.474489 35,950 0 315 0
2020-02-26 13:53:43 GMT 46.346191 -0.474489 35,975 0 315 128
2020-02-26 13:53:39 GMT 46.341728 -0.474472 35,950 0 315 64
2020-02-26 13:53:32 GMT 46.331635 -0.474556 35,950 0 315 0
2020-02-26 13:53:27 GMT 46.323898 -0.474556 35,950 0 314 64
2020-02-26 13:53:24 GMT 46.318817 -0.474623 35,950 0 315 -64
2020-02-26 13:53:17 GMT 46.309002 -0.474609 35,950 0 315 0
2020-02-26 13:53:13 GMT 46.303711 -0.474690 35,950 0 315 0
2020-02-26 13:53:07 GMT 46.294830 -0.474690 35,950 0 314 64
2020-02-26 13:53:02 GMT 46.288055 -0.474747 35,950 0 314 0
2020-02-26 13:52:59 GMT 46.283203 -0.474757 35,950 0 314 -64
2020-02-26 13:52:56 GMT 46.275833 -0.474824 35,950 0 314 0
2020-02-26 13:52:52 GMT 46.272831 -0.474815 35,950 0 314 -64
2020-02-26 13:52:49 GMT 46.268780 -0.474815 35,950 0 314 64
2020-02-26 13:52:46 GMT 46.265148 -0.474884 35,975 0 313 0
2020-02-26 13:52:43 GMT 46.260178 -0.474891 35,950 0 314 -64
2020-02-26 13:52:39 GMT 46.254227 -0.474891 35,950 0 313 -64
2020-02-26 13:52:36 GMT 46.250813 -0.474884 35,950 0 313 -64
2020-02-26 13:52:33 GMT 46.245319 -0.474884 35,975 0 313 0
2020-02-26 13:52:30 GMT 46.242371 -0.474891 35,950 0 313 0
2020-02-26 13:52:27 GMT 46.226578 -0.474891 35,975 0 313 -64
2020-02-26 13:52:21 GMT 46.226578 -0.474891 35,975 0 313 0
2020-02-26 13:52:16 GMT 46.221222 -0.474891 35,975 0 313 0
2020-02-26 13:52:10 GMT 46.207146 -0.474953 35,975 0 313 0
2020-02-26 13:52:07 GMT 46.207146 -0.474953 35,975 0 313 0
2020-02-26 13:52:01 GMT 46.199184 -0.474953 35,975 0 313 -64
2020-02-26 13:51:58 GMT 46.194763 -0.474958 35,975 0 313 -64
2020-02-26 13:51:55 GMT 46.191330 -0.474958 35,975 0 313 0
2020-02-26 13:51:49 GMT 46.181683 -0.474953 35,975 0 313 0
2020-02-26 13:51:46 GMT 46.170231 -0.474953 35,975 0 314 0
2020-02-26 13:51:41 GMT 46.170231 -0.474953 35,975 0 314 0
2020-02-26 13:51:38 GMT 46.165901 -0.474953 35,975 0 314 -64
2020-02-26 13:51:34 GMT 46.159382 -0.475021 35,975 0 315 0
2020-02-26 13:51:31 GMT 46.155670 -0.475092 36,000 0 315 0
2020-02-26 13:51:28 GMT 46.151276 -0.475159 35,975 1 315 -64
2020-02-26 13:51:25 GMT 46.143127 -0.475360 36,000 1 315 -64
2020-02-26 13:51:21 GMT 46.140976 -0.475427 36,000 1 316 0
2020-02-26 13:51:16 GMT 46.133514 -0.475762 36,000 1 317 -64
2020-02-26 13:51:11 GMT 46.126423 -0.476051 36,000 1 317 0
2020-02-26 13:51:08 GMT 46.121201 -0.476298 36,000 1 317 64
2020-02-26 13:51:05 GMT 46.117485 -0.476463 36,000 1 317 64
2020-02-26 13:50:59 GMT 46.109432 -0.476738 35,975 357 312 64
2020-02-26 13:50:56 GMT 46.103287 -0.476807 35,975 357 312 64
2020-02-26 13:50:51 GMT 46.089787 -0.474747 35,975 351 307 -64
2020-02-26 13:50:45 GMT 46.089787 -0.474747 36,000 340 300 -64
2020-02-26 13:50:40 GMT 46.082573 -0.472069 36,000 342 301 -64
2020-02-26 13:50:36 GMT 46.076008 -0.468842 36,000 340 300 -64
2020-02-26 13:50:29 GMT 46.068787 -0.464976 36,000 340 300 0
2020-02-26 13:50:25 GMT 46.062057 -0.461292 36,000 340 300 0
2020-02-26 13:50:20 GMT 46.056198 -0.458143 36,000 340 300 0
2020-02-26 13:50:17 GMT 46.052032 -0.455866 36,000 340 300 0
2020-02-26 13:50:13 GMT 46.048004 -0.453655 36,000 340 301 0
2020-02-26 13:50:10 GMT 46.043003 -0.450989 36,000 340 301 -64
2020-02-26 13:50:06 GMT 46.038528 -0.448564 36,000 340 301 -64
2020-02-26 13:50:03 GMT 46.034363 -0.446286 36,025 340 301 -64
2020-02-26 13:49:59 GMT 46.028805 -0.443298 36,025 340 301 -64
2020-02-26 13:49:55 GMT 46.024429 -0.440927 36,025 340 301 -64
2020-02-26 13:49:52 GMT 46.020538 -0.438783 36,025 340 301 0
2020-02-26 13:49:49 GMT 46.015961 -0.436305 36,025 340 301 0
2020-02-26 13:49:45 GMT 46.011486 -0.433891 36,025 340 301 0
2020-02-26 13:49:42 GMT 46.006786 -0.431351 36,025 340 301 0
2020-02-26 13:49:38 GMT 46.002136 -0.428802 36,025 340 302 0
2020-02-26 13:49:35 GMT 45.997009 -0.425995 36,025 340 302 64
2020-02-26 13:49:31 GMT 45.993164 -0.423911 36,025 340 302 0
2020-02-26 13:49:28 GMT 45.989365 -0.421835 36,025 340 302 -64
2020-02-26 13:49:24 GMT 45.982624 -0.418167 36,025 340 303 0
2020-02-26 13:49:16 GMT 45.972801 -0.412880 36,025 340 303 0
2020-02-26 13:49:13 GMT 45.967403 -0.409996 36,025 340 303 0
2020-02-26 13:49:09 GMT 45.963409 -0.407834 36,025 340 303 0
2020-02-26 13:49:06 GMT 45.959396 -0.405670 36,025 340 304 64
2020-02-26 13:49:03 GMT 45.955578 -0.403610 36,025 340 304 0
2020-02-26 13:49:00 GMT 45.951759 -0.401550 36,025 340 304 0
2020-02-26 13:48:57 GMT 45.948315 -0.399765 36,025 340 304 0
2020-02-26 13:48:54 GMT 45.943565 -0.397224 36,025 340 305 0
2020-02-26 13:48:51 GMT 45.939697 -0.395106 36,025 340 305 0
2020-02-26 13:48:47 GMT 45.935486 -0.392828 36,025 340 305 0
2020-02-26 13:48:44 GMT 45.930450 -0.390149 36,025 340 305 0
2020-02-26 13:48:41 GMT 45.922394 -0.385861 36,025 340 305 64
2020-02-26 13:48:35 GMT 45.913868 -0.381294 36,025 340 305 0
2020-02-26 13:48:32 GMT 45.913868 -0.381294 36,025 340 306 0
2020-02-26 13:48:29 GMT 45.910629 -0.379564 36,025 340 305 0
2020-02-26 13:48:26 GMT 45.905811 -0.376900 36,025 340 306 64
2020-02-26 13:48:23 GMT 45.901855 -0.374771 36,025 340 306 0
2020-02-26 13:48:18 GMT 45.896896 -0.372061 36,025 339 306 64
2020-02-26 13:48:15 GMT 45.892410 -0.369583 36,025 339 306 0
2020-02-26 13:48:12 GMT 45.888977 -0.367707 36,000 339 305 64
2020-02-26 13:48:08 GMT 45.879559 -0.362480 36,025 339 305 0
2020-02-26 13:48:05 GMT 45.875244 -0.360070 36,025 339 305 0
2020-02-26 13:48:02 GMT 45.870434 -0.357399 36,000 339 306 0
2020-02-26 13:47:59 GMT 45.870434 -0.357399 36,025 339 306 0
2020-02-26 13:47:55 GMT 45.865685 -0.354790 36,000 339 306 0
2020-02-26 13:47:51 GMT 45.856888 -0.349888 36,025 339 306 -64
2020-02-26 13:47:48 GMT 45.856888 -0.349888 36,025 339 306 -64
2020-02-26 13:47:42 GMT 45.849579 -0.345863 36,025 340 307 0
2020-02-26 13:47:39 GMT 45.843201 -0.342430 36,050 340 306 -64
2020-02-26 13:47:33 GMT 45.837021 -0.339102 36,050 340 306 0
2020-02-26 13:47:30 GMT 45.831757 -0.336222 36,025 340 306 0
2020-02-26 13:47:25 GMT 45.826584 -0.333475 36,050 340 306 0
2020-02-26 13:47:22 GMT 45.823181 -0.331650 36,025 340 306 0
2020-02-26 13:47:19 GMT 45.818668 -0.329247 36,025 340 306 64
2020-02-26 13:47:15 GMT 45.813080 -0.326294 36,025 340 306 64
2020-02-26 13:47:12 GMT 45.807861 -0.323494 36,025 340 306 0
2020-02-26 13:47:09 GMT 45.804932 -0.321886 36,025 340 306 64
2020-02-26 13:47:05 GMT 45.799118 -0.318804 36,025 340 306 64
2020-02-26 13:47:00 GMT 45.788456 -0.313110 36,025 340 306 64
2020-02-26 13:46:56 GMT 45.788456 -0.313110 36,025 340 307 -64
2020-02-26 13:46:53 GMT 45.783463 -0.310431 36,025 340 306 0
2020-02-26 13:46:50 GMT 45.776413 -0.306679 36,025 340 307 -64
2020-02-26 13:46:47 GMT 45.776413 -0.306679 36,025 340 307 -64
2020-02-26 13:46:44 GMT 45.767670 -0.302057 36,025 340 306 -64
2020-02-26 13:46:41 GMT 45.767670 -0.302057 36,025 340 306 0
2020-02-26 13:46:38 GMT 45.763550 -0.299846 36,025 340 306 0
2020-02-26 13:46:33 GMT 45.757778 -0.296837 36,025 340 306 0
2020-02-26 13:46:30 GMT 45.748375 -0.291824 36,025 340 306 0
2020-02-26 13:46:27 GMT 45.748375 -0.291824 36,025 340 306 0
2020-02-26 13:46:24 GMT 45.745163 -0.290108 36,025 340 305 64
2020-02-26 13:46:21 GMT 45.741943 -0.288391 36,025 340 305 64
2020-02-26 13:46:18 GMT 45.736549 -0.285576 36,025 340 305 64
2020-02-26 13:46:11 GMT 45.727478 -0.280754 36,025 340 305 64
2020-02-26 13:46:07 GMT 45.723003 -0.278435 36,025 340 305 64
2020-02-26 13:46:03 GMT 45.713516 -0.273452 36,000 340 305 0
2020-02-26 13:46:00 GMT 45.709396 -0.271242 36,000 340 305 128
2020-02-26 13:45:51 GMT 45.701614 -0.267088 36,000 340 306 64
2020-02-26 13:45:47 GMT 45.696167 -0.264208 36,000 340 306 128
2020-02-26 13:45:44 GMT 45.691345 -0.261612 36,000 339 306 64
2020-02-26 13:45:40 GMT 45.686741 -0.259071 36,000 340 306 64
2020-02-26 13:45:37 GMT 45.682270 -0.256599 36,000 340 306 0
2020-02-26 13:45:33 GMT 45.673050 -0.251681 36,000 340 305 0
2020-02-26 13:45:29 GMT 45.673050 -0.251681 36,050 340 305 0
2020-02-26 13:45:26 GMT 45.668907 -0.249458 36,000 340 305 0
2020-02-26 13:45:22 GMT 45.661598 -0.245544 36,000 340 305 -64
2020-02-26 13:45:15 GMT 45.654476 -0.241699 35,975 340 305 -64
2020-02-26 13:45:12 GMT 45.649933 -0.239288 36,000 340 305 0
2020-02-26 13:45:09 GMT 45.645859 -0.237077 36,000 340 304 -64
2020-02-26 13:45:05 GMT 45.641026 -0.234489 36,000 340 304 0
2020-02-26 13:45:01 GMT 45.633820 -0.230646 36,000 340 304 0
2020-02-26 13:44:56 GMT 45.627850 -0.227486 36,000 340 304 64
2020-02-26 13:44:51 GMT 45.622452 -0.224602 36,000 340 304 0
2020-02-26 13:44:48 GMT 45.618576 -0.222473 36,000 340 304 0
2020-02-26 13:44:45 GMT 45.614815 -0.220482 36,000 340 304 0
2020-02-26 13:44:40 GMT 45.608688 -0.217248 36,000 340 304 0
2020-02-26 13:44:35 GMT 45.601501 -0.213409 36,000 340 303 0
2020-02-26 13:44:32 GMT 45.597961 -0.211487 36,000 340 303 0
2020-02-26 13:44:28 GMT 45.592052 -0.208328 36,000 340 303 0
2020-02-26 13:44:25 GMT 45.588181 -0.206262 36,000 340 303 0
2020-02-26 13:44:22 GMT 45.584244 -0.204118 36,000 340 303 -64
2020-02-26 13:44:19 GMT 45.579391 -0.201505 36,000 340 303 0
2020-02-26 13:44:14 GMT 45.573898 -0.198558 36,000 340 303 0
2020-02-26 13:44:10 GMT 45.568634 -0.195811 36,000 340 303 -64
2020-02-26 13:44:07 GMT 45.560760 -0.191591 36,000 340 303 0
2020-02-26 13:44:00 GMT 45.555771 -0.188911 36,000 340 302 0
2020-02-26 13:43:57 GMT 45.547176 -0.184296 36,000 340 303 64
2020-02-26 13:43:54 GMT 45.547176 -0.184296 36,000 340 302 0
2020-02-26 13:43:51 GMT 45.543034 -0.182078 36,000 340 303 0
2020-02-26 13:43:48 GMT 45.539585 -0.180270 36,000 340 303 0
2020-02-26 13:43:43 GMT 45.533443 -0.176920 36,000 340 303 -64
2020-02-26 13:43:40 GMT 45.527985 -0.174016 36,025 340 303 -64
2020-02-26 13:43:36 GMT 45.523621 -0.171695 36,025 340 303 -64
2020-02-26 13:43:32 GMT 45.517914 -0.168653 36,025 340 303 -64
2020-02-26 13:43:29 GMT 45.514755 -0.166953 36,025 340 303 -128
2020-02-26 13:43:26 GMT 45.510632 -0.164795 36,025 340 303 -64
2020-02-26 13:43:23 GMT 45.506607 -0.162637 36,025 340 303 -64
2020-02-26 13:43:20 GMT 45.502808 -0.160610 36,025 340 303 -64
2020-02-26 13:43:16 GMT 45.496765 -0.157471 36,050 340 303 -64
2020-02-26 13:43:12 GMT 45.492966 -0.155443 36,025 340 303 -64
2020-02-26 13:43:09 GMT 45.483902 -0.150604 36,050 340 303 0
2020-02-26 13:43:06 GMT 45.483902 -0.150604 36,050 340 303 0
2020-02-26 13:43:02 GMT 45.477253 -0.147110 36,050 340 303 0
2020-02-26 13:42:58 GMT 45.474506 -0.145636 36,050 340 303 0
2020-02-26 13:42:55 GMT 45.470455 -0.143492 36,050 340 303 0
2020-02-26 13:42:51 GMT 45.465336 -0.140813 36,050 340 303 0
2020-02-26 13:42:48 GMT 45.461334 -0.138702 36,050 340 303 0
2020-02-26 13:42:45 GMT 45.457191 -0.136458 36,050 340 303 0
2020-02-26 13:42:40 GMT 45.450115 -0.132707 36,050 340 303 0
2020-02-26 13:42:36 GMT 45.444481 -0.129692 36,050 340 303 0
2020-02-26 13:42:30 GMT 45.433136 -0.123662 36,050 340 303 64
2020-02-26 13:42:24 GMT 45.428925 -0.121373 36,025 340 303 0
2020-02-26 13:42:19 GMT 45.423065 -0.118304 36,025 340 303 64
2020-02-26 13:42:15 GMT 45.417339 -0.115222 36,050 340 303 64
2020-02-26 13:42:11 GMT 45.411800 -0.112275 36,025 340 303 64
2020-02-26 13:42:05 GMT 45.404114 -0.108228 36,025 340 303 64
2020-02-26 13:42:01 GMT 45.396149 -0.103978 36,025 340 303 64
2020-02-26 13:41:55 GMT 45.391159 -0.101297 36,025 340 303 64
2020-02-26 13:41:49 GMT 45.378098 -0.094322 36,000 340 303 64
2020-02-26 13:41:45 GMT 45.378098 -0.094322 36,000 340 303 64
2020-02-26 13:41:38 GMT 45.369205 -0.089565 36,000 340 303 0
2020-02-26 13:41:34 GMT 45.364288 -0.086975 36,000 340 303 64
2020-02-26 13:41:30 GMT 45.357468 -0.083378 36,000 340 303 64
2020-02-26 13:41:24 GMT 45.350784 -0.079782 36,000 340 303 64
2020-02-26 13:41:18 GMT 45.337734 -0.072885 36,000 340 303 0
2020-02-26 13:41:15 GMT 45.337734 -0.072885 36,000 340 303 0
2020-02-26 13:41:08 GMT 45.329773 -0.068730 35,975 340 303 0
2020-02-26 13:41:04 GMT 45.324608 -0.065985 36,000 340 303 0
2020-02-26 13:41:01 GMT 45.320698 -0.063908 36,000 340 302 0
2020-02-26 13:40:57 GMT 45.315578 -0.061162 36,000 340 302 0
2020-02-26 13:40:53 GMT 45.310318 -0.058415 35,975 340 302 0
2020-02-26 13:40:48 GMT 45.303452 -0.054801 35,975 340 301 0
2020-02-26 13:40:45 GMT 45.299889 -0.052855 35,975 340 301 64
2020-02-26 13:40:42 GMT 45.296444 -0.051113 35,975 340 301 64
2020-02-26 13:40:38 GMT 45.290359 -0.047869 35,975 340 302 0
2020-02-26 13:40:35 GMT 45.286388 -0.045754 35,975 340 302 0
2020-02-26 13:40:32 GMT 45.283035 -0.044011 35,975 340 302 0
2020-02-26 13:40:29 GMT 45.278732 -0.041787 35,975 340 302 64
2020-02-26 13:40:26 GMT 45.274704 -0.039658 35,975 340 302 64
2020-02-26 13:40:23 GMT 45.270004 -0.037179 35,975 340 302 64
2020-02-26 13:40:19 GMT 45.264881 -0.034567 35,975 340 302 0
2020-02-26 13:40:12 GMT 45.255432 -0.029609 35,975 340 302 -64
2020-02-26 13:40:08 GMT 45.244820 -0.024049 35,975 340 302 -64
2020-02-26 13:40:03 GMT 45.244820 -0.024049 35,975 340 302 -64
2020-02-26 13:39:58 GMT 45.238533 -0.020767 36,000 340 302 0
2020-02-26 13:39:55 GMT 45.234650 -0.018768 36,000 340 302 -64
2020-02-26 13:39:51 GMT 45.227921 -0.015207 36,000 340 302 -64
2020-02-26 13:39:47 GMT 45.223450 -0.012862 36,000 340 302 0
2020-02-26 13:39:43 GMT 45.217896 -0.010005 36,000 340 302 -64
2020-02-26 13:39:39 GMT 45.213181 -0.007520 36,000 340 302 0
2020-02-26 13:39:35 GMT 45.207855 -0.004756 36,000 340 301 0
2020-02-26 13:39:32 GMT 45.204391 -0.002943 36,000 340 301 -64
2020-02-26 13:39:27 GMT 45.196079 0.001407 36,000 340 301 0
2020-02-26 13:39:23 GMT 45.192078 0.003531 36,000 340 302 0
2020-02-26 13:39:17 GMT 45.183838 0.007913 36,000 340 302 0
2020-02-26 13:39:13 GMT 45.172150 0.014068 36,000 340 302 -64
2020-02-26 13:39:08 GMT 45.172150 0.014068 36,000 340 300 0
2020-02-26 13:39:04 GMT 45.167076 0.016747 36,000 340 300 0
2020-02-26 13:38:57 GMT 45.157745 0.021646 36,000 340 301 0
2020-02-26 13:38:54 GMT 45.153809 0.023738 36,000 340 301 0
2020-02-26 13:38:51 GMT 45.150085 0.025657 36,000 340 301 0
2020-02-26 13:38:48 GMT 45.146896 0.027335 36,025 340 302 0
2020-02-26 13:38:45 GMT 45.142273 0.029755 36,000 340 302 0
2020-02-26 13:38:38 GMT 45.132980 0.034659 36,000 340 303 0
2020-02-26 13:38:35 GMT 45.128948 0.036710 36,000 340 304 64
2020-02-26 13:38:31 GMT 45.124924 0.038845 36,000 340 305 64
2020-02-26 13:38:28 GMT 45.113480 0.044665 36,000 341 306 64
2020-02-26 13:38:23 GMT 45.113480 0.044665 36,000 341 307 64
2020-02-26 13:38:20 GMT 45.109772 0.046626 36,000 341 307 64
2020-02-26 13:38:17 GMT 45.105534 0.048769 36,000 341 308 0
2020-02-26 13:38:14 GMT 45.101486 0.050812 36,000 341 309 0
2020-02-26 13:38:11 GMT 45.097961 0.052643 36,000 340 309 0
2020-02-26 13:38:07 GMT 45.091919 0.055716 36,000 341 310 0
2020-02-26 13:38:04 GMT 45.087753 0.057874 36,000 340 310 0
2020-02-26 13:38:01 GMT 45.077911 0.062975 36,000 340 310 0
2020-02-26 13:37:57 GMT 45.077911 0.062975 36,000 340 310 0
2020-02-26 13:37:54 GMT 45.074249 0.064872 36,000 340 311 0
2020-02-26 13:37:51 GMT 45.070358 0.066899 36,000 340 311 0
2020-02-26 13:37:46 GMT 45.063904 0.070234 36,000 340 311 0
2020-02-26 13:37:43 GMT 45.060192 0.072215 36,000 340 310 0
2020-02-26 13:37:40 GMT 45.055584 0.074560 36,000 340 310 0
2020-02-26 13:37:37 GMT 45.050537 0.077231 36,000 340 310 0
2020-02-26 13:37:33 GMT 45.046600 0.079316 36,000 340 310 0
2020-02-26 13:37:30 GMT 45.042549 0.081393 36,000 340 309 0
2020-02-26 13:37:26 GMT 45.035522 0.085144 36,000 340 308 -64
2020-02-26 13:37:23 GMT 45.032684 0.086583 36,000 340 308 -64
2020-02-26 13:37:19 GMT 45.028351 0.088895 36,000 340 307 0
2020-02-26 13:37:16 GMT 45.023045 0.091709 36,000 340 307 0
2020-02-26 13:37:12 GMT 45.017258 0.094822 36,000 340 304 0
2020-02-26 13:37:04 GMT 45.008057 0.099727 36,000 340 302 64
2020-02-26 13:37:00 GMT 45.002197 0.102801 36,000 340 300 -64
2020-02-26 13:36:56 GMT 44.996475 0.105874 36,000 340 303 64
2020-02-26 13:36:52 GMT 44.991119 0.108686 36,000 340 299 -64
2020-02-26 13:36:49 GMT 44.983242 0.112811 36,000 340 299 0
2020-02-26 13:36:45 GMT 44.983242 0.112811 36,000 340 299 -64
2020-02-26 13:36:41 GMT 44.977615 0.115814 36,000 340 299 -64
2020-02-26 13:36:34 GMT 44.967728 0.121046 36,025 340 300 -64
2020-02-26 13:36:29 GMT 44.962006 0.124054 36,025 340 300 0
2020-02-26 13:36:26 GMT 44.958057 0.126142 36,025 340 300 0
2020-02-26 13:36:23 GMT 44.954006 0.128285 36,000 340 300 0
2020-02-26 13:36:20 GMT 44.950562 0.130070 36,025 340 300 -64
2020-02-26 13:36:16 GMT 44.944702 0.133144 36,025 340 301 -64
2020-02-26 13:36:12 GMT 44.939808 0.135654 36,025 340 303 64
2020-02-26 13:36:08 GMT 44.935181 0.138048 36,025 340 301 0
2020-02-26 13:36:03 GMT 44.926586 0.142487 36,025 340 301 0
2020-02-26 13:35:59 GMT 44.923748 0.144028 36,025 340 301 64
2020-02-26 13:35:55 GMT 44.917145 0.147400 36,000 340 301 64
2020-02-26 13:35:51 GMT 44.912155 0.150016 36,000 340 302 64
2020-02-26 13:35:46 GMT 44.905266 0.153541 36,000 340 302 64
2020-02-26 13:35:40 GMT 44.897598 0.157536 36,000 340 302 64
2020-02-26 13:35:37 GMT 44.894512 0.159168 36,000 340 303 64
2020-02-26 13:35:34 GMT 44.884644 0.164259 36,000 340 303 0
2020-02-26 13:35:31 GMT 44.884644 0.164259 35,975 340 304 0
2020-02-26 13:35:25 GMT 44.878235 0.167607 36,000 340 304 0
2020-02-26 13:35:19 GMT 44.870087 0.171858 35,975 340 305 -64
2020-02-26 13:35:15 GMT 44.865967 0.173950 35,975 340 305 64
2020-02-26 13:35:09 GMT 44.856247 0.178997 35,975 340 304 0
2020-02-26 13:35:04 GMT 44.850708 0.181877 35,975 340 305 0
2020-02-26 13:34:58 GMT 44.842667 0.186048 35,975 340 305 0
2020-02-26 13:34:54 GMT 44.838181 0.188337 35,975 340 305 -64
2020-02-26 13:34:49 GMT 44.830765 0.192195 36,000 340 305 0
2020-02-26 13:34:44 GMT 44.824078 0.195677 36,000 340 305 0
2020-02-26 13:34:38 GMT 44.814743 0.200500 35,975 340 305 0
2020-02-26 13:34:33 GMT 44.810349 0.202789 35,975 340 305 -64
2020-02-26 13:34:29 GMT 44.804352 0.205863 36,000 340 306 0
2020-02-26 13:34:26 GMT 44.800919 0.207629 35,975 340 306 0
2020-02-26 13:34:23 GMT 44.796799 0.209787 36,000 340 306 0
2020-02-26 13:34:17 GMT 44.787506 0.214560 36,000 340 306 0
2020-02-26 13:34:12 GMT 44.777340 0.219794 36,000 340 306 0
2020-02-26 13:34:06 GMT 44.774094 0.221492 35,975 340 306 64
2020-02-26 13:34:02 GMT 44.769100 0.224081 36,000 340 306 0
2020-02-26 13:33:59 GMT 44.763428 0.226985 35,975 340 307 64
2020-02-26 13:33:56 GMT 44.760208 0.228703 35,975 340 307 64
2020-02-26 13:33:52 GMT 44.755463 0.231171 35,975 340 306 0
2020-02-26 13:33:47 GMT 44.748478 0.234799 35,975 340 307 0
2020-02-26 13:33:44 GMT 44.740814 0.238756 35,975 340 307 0
2020-02-26 13:33:41 GMT 44.740814 0.238756 35,975 340 307 0
2020-02-26 13:33:37 GMT 44.733955 0.242302 35,975 340 308 64
2020-02-26 13:33:31 GMT 44.727436 0.245719 35,975 340 308 0
2020-02-26 13:33:28 GMT 44.723465 0.247716 35,975 340 308 0
2020-02-26 13:33:25 GMT 44.718731 0.250207 35,975 340 308 0
2020-02-26 13:33:19 GMT 44.710373 0.254517 35,975 340 308 0
2020-02-26 13:33:14 GMT 44.705017 0.257263 35,975 340 309 -64
2020-02-26 13:33:08 GMT 44.696045 0.261906 36,000 340 308 -64
2020-02-26 13:33:05 GMT 44.686798 0.266615 36,000 340 308 0
2020-02-26 13:32:58 GMT 44.683456 0.268380 36,000 340 308 0
2020-02-26 13:32:54 GMT 44.677551 0.271388 36,000 340 309 0
2020-02-26 13:32:48 GMT 44.668945 0.275770 36,000 340 309 0
2020-02-26 13:32:43 GMT 44.663521 0.278544 36,000 340 309 0
2020-02-26 13:32:40 GMT 44.658260 0.281223 36,000 340 309 0
2020-02-26 13:32:32 GMT 44.648758 0.286037 36,000 340 310 0
2020-02-26 13:32:28 GMT 44.642029 0.289437 36,000 340 310 0
2020-02-26 13:32:21 GMT 44.631409 0.294931 36,000 340 311 0
2020-02-26 13:32:18 GMT 44.628654 0.296363 36,000 340 311 0
2020-02-26 13:32:12 GMT 44.614288 0.303824 36,000 340 311 0
2020-02-26 13:32:07 GMT 44.614288 0.303824 36,000 340 311 0
2020-02-26 13:32:02 GMT 44.606049 0.308075 36,000 340 311 0
2020-02-26 13:31:58 GMT 44.600784 0.310822 36,000 340 311 0
2020-02-26 13:31:52 GMT 44.594009 0.314353 36,000 340 311 0
2020-02-26 13:31:48 GMT 44.587967 0.317492 36,000 340 311 0
2020-02-26 13:31:43 GMT 44.580276 0.321481 36,000 340 311 0
2020-02-26 13:31:36 GMT 44.572998 0.325274 36,000 340 310 0
2020-02-26 13:31:32 GMT 44.566956 0.328413 36,000 340 309 0
2020-02-26 13:31:27 GMT 44.560036 0.332001 36,000 340 309 0
2020-02-26 13:31:21 GMT 44.552448 0.335954 36,000 340 308 0
2020-02-26 13:31:16 GMT 44.546219 0.339137 36,000 340 307 0
2020-02-26 13:31:12 GMT 44.539738 0.342452 36,000 340 307 0
2020-02-26 13:31:05 GMT 44.531799 0.346527 36,000 341 307 0
2020-02-26 13:31:01 GMT 44.525665 0.349666 36,000 341 307 0
2020-02-26 13:30:55 GMT 44.517857 0.353572 36,000 341 307 0
2020-02-26 13:30:50 GMT 44.511749 0.356663 36,000 341 308 0
2020-02-26 13:30:45 GMT 44.505150 0.360003 36,000 340 310 0
2020-02-26 13:30:41 GMT 44.497971 0.363595 36,000 341 309 0
2020-02-26 13:30:35 GMT 44.491104 0.367061 36,000 340 309 0
2020-02-26 13:30:30 GMT 44.483826 0.370723 36,000 340 311 0
2020-02-26 13:30:25 GMT 44.477032 0.374272 36,000 340 312 -64
2020-02-26 13:30:19 GMT 44.469585 0.378090 36,000 340 312 0
2020-02-26 13:30:14 GMT 44.462929 0.381574 36,000 340 312 192
2020-02-26 13:30:09 GMT 44.454685 0.385861 35,975 340 313 320
2020-02-26 13:30:04 GMT 44.441650 0.392627 35,950 340 314 448
2020-02-26 13:29:58 GMT 44.434753 0.396162 35,950 340 327 128
2020-02-26 13:29:53 GMT 44.434753 0.396162 35,950 340 314 192
2020-02-26 13:29:48 GMT 44.428013 0.399527 35,950 340 314 -64
2020-02-26 13:29:43 GMT 44.421169 0.403011 35,950 340 315 0
2020-02-26 13:29:39 GMT 44.415024 0.406159 35,950 340 315 0
2020-02-26 13:29:33 GMT 44.406464 0.410483 35,950 341 316 0
2020-02-26 13:29:27 GMT 44.399151 0.414198 35,950 341 316 0
2020-02-26 13:29:24 GMT 44.395111 0.416303 35,950 341 316 64
2020-02-26 13:29:21 GMT 44.385277 0.421232 35,950 341 316 0
2020-02-26 13:29:18 GMT 44.385277 0.421232 35,950 341 316 -64
2020-02-26 13:29:12 GMT 44.378769 0.424543 35,950 341 316 -64
2020-02-26 13:29:09 GMT 44.373688 0.427159 35,950 340 317 0
2020-02-26 13:29:06 GMT 44.370335 0.428869 35,950 340 317 64
2020-02-26 13:29:02 GMT 44.363800 0.432194 35,950 340 317 -64
2020-02-26 13:28:57 GMT 44.355560 0.436380 35,950 340 317 -64
2020-02-26 13:28:51 GMT 44.349747 0.439322 35,975 340 317 0
2020-02-26 13:28:46 GMT 44.340958 0.443835 35,975 340 318 -128
2020-02-26 13:28:41 GMT 44.335327 0.446688 35,975 340 318 -64
2020-02-26 13:28:38 GMT 44.331650 0.448564 35,975 340 318 0
2020-02-26 13:28:35 GMT 44.326668 0.451109 35,975 340 318 -64
2020-02-26 13:28:32 GMT 44.317749 0.455671 35,975 340 318 -128
2020-02-26 13:28:28 GMT 44.317749 0.455671 35,975 340 318 -128
2020-02-26 13:28:23 GMT 44.308868 0.460183 36,000 340 319 0
2020-02-26 13:28:20 GMT 44.305984 0.461622 36,000 340 319 -128
2020-02-26 13:28:15 GMT 44.298969 0.465177 36,000 340 320 -64
2020-02-26 13:28:12 GMT 44.294781 0.467321 36,000 340 320 0
2020-02-26 13:28:08 GMT 44.283932 0.472814 36,000 341 322 -128
2020-02-26 13:28:04 GMT 44.278107 0.475747 36,000 341 322 -128
2020-02-26 13:28:00 GMT 44.278107 0.475747 36,025 341 322 -128
2020-02-26 13:27:57 GMT 44.274353 0.477709 36,025 341 322 -128
2020-02-26 13:27:52 GMT 44.266151 0.481858 36,050 340 323 -192
2020-02-26 13:27:48 GMT 44.260380 0.484738 36,050 341 324 -64
2020-02-26 13:27:44 GMT 44.254604 0.487686 36,050 341 324 0
2020-02-26 13:27:40 GMT 44.250595 0.489742 36,050 341 324 0
2020-02-26 13:27:36 GMT 44.245056 0.492488 36,050 340 325 64
2020-02-26 13:27:28 GMT 44.232925 0.498701 36,050 340 326 0
2020-02-26 13:27:17 GMT 44.217224 0.506644 36,050 341 327 0
2020-02-26 13:27:11 GMT 44.202209 0.514265 36,050 340 329 64
2020-02-26 13:27:07 GMT 44.202209 0.514265 36,050 340 328 0
2020-02-26 13:27:04 GMT 44.199581 0.515621 36,050 340 329 0
2020-02-26 13:27:00 GMT 44.188732 0.521131 36,050 340 329 64
2020-02-26 13:26:57 GMT 44.181931 0.524597 36,050 340 329 0
2020-02-26 13:26:49 GMT 44.178307 0.526494 36,050 340 329 0
2020-02-26 13:26:45 GMT 44.170944 0.530218 36,050 340 329 0
2020-02-26 13:26:40 GMT 44.163269 0.534079 36,050 340 329 0
2020-02-26 13:26:36 GMT 44.149815 0.540880 36,050 340 329 0
2020-02-26 13:26:30 GMT 44.149815 0.540880 36,050 340 329 64
2020-02-26 13:26:25 GMT 44.143982 0.543823 36,050 341 329 64
2020-02-26 13:26:16 GMT 44.118301 0.556771 36,025 340 329 0
2020-02-26 13:26:08 GMT 44.118301 0.556771 36,025 340 329 0
2020-02-26 13:26:03 GMT 44.111801 0.560047 36,025 340 329 64
2020-02-26 13:25:57 GMT 44.101364 0.565349 36,025 340 329 64
2020-02-26 13:25:52 GMT 44.096191 0.567968 36,025 341 328 64
2020-02-26 13:25:48 GMT 44.089783 0.571161 36,025 341 328 64
2020-02-26 13:25:44 GMT 44.084690 0.573709 36,000 341 328 0
2020-02-26 13:25:39 GMT 44.077332 0.577421 36,000 341 328 0
2020-02-26 13:25:35 GMT 44.070786 0.580742 36,000 341 328 0
2020-02-26 13:25:31 GMT 44.064789 0.583744 36,000 341 328 0
2020-02-26 13:25:23 GMT 44.054569 0.588946 36,000 341 327 0
2020-02-26 13:25:13 GMT 44.030136 0.601246 36,000 340 328 0
2020-02-26 13:25:07 GMT 44.023659 0.604575 36,000 340 328 0
2020-02-26 13:25:01 GMT 44.023659 0.604575 36,000 340 328 0
2020-02-26 13:24:57 GMT 44.017456 0.607697 36,000 340 328 0
2020-02-26 13:24:53 GMT 44.011555 0.610722 36,000 340 328 0
2020-02-26 13:24:50 GMT 44.007385 0.612871 36,000 340 328 64
2020-02-26 13:24:47 GMT 43.996445 0.618428 35,975 340 327 128
2020-02-26 13:24:42 GMT 43.996445 0.618428 35,975 340 327 128
2020-02-26 13:24:39 GMT 43.992188 0.620600 35,975 340 327 128
2020-02-26 13:24:30 GMT 43.978546 0.627562 35,950 340 328 128
2020-02-26 13:24:27 GMT 43.974174 0.629752 35,950 340 328 0
2020-02-26 13:24:19 GMT 43.963795 0.634984 35,950 340 328 0
2020-02-26 13:24:16 GMT 43.959595 0.637143 35,950 340 328 0
2020-02-26 13:24:12 GMT 43.953972 0.640019 35,950 341 327 0
2020-02-26 13:24:09 GMT 43.949596 0.642242 35,950 341 327 0
2020-02-26 13:24:05 GMT 43.944008 0.644989 35,950 341 327 0
2020-02-26 13:24:02 GMT 43.939682 0.647171 35,950 341 328 0
2020-02-26 13:23:58 GMT 43.933823 0.650110 35,950 341 328 0
2020-02-26 13:23:51 GMT 43.922085 0.656041 35,950 341 328 0
2020-02-26 13:23:48 GMT 43.919941 0.657087 35,950 341 328 0
2020-02-26 13:23:45 GMT 43.914001 0.660010 35,950 341 328 0
2020-02-26 13:23:41 GMT 43.909515 0.662253 35,950 341 328 0
2020-02-26 13:23:38 GMT 43.904953 0.664542 35,950 341 328 0
2020-02-26 13:23:33 GMT 43.898117 0.667930 35,950 341 329 0
2020-02-26 13:23:28 GMT 43.891571 0.671188 35,950 341 329 0
2020-02-26 13:23:23 GMT 43.883724 0.675071 35,950 341 329 -64
2020-02-26 13:23:19 GMT 43.876694 0.678537 35,950 341 329 -64
2020-02-26 13:23:12 GMT 43.868637 0.682558 35,950 341 330 0
2020-02-26 13:23:08 GMT 43.861938 0.685926 35,950 341 330 0
2020-02-26 13:23:02 GMT 43.847809 0.693033 35,950 341 330 0
2020-02-26 13:22:58 GMT 43.847809 0.693033 35,975 341 330 0
2020-02-26 13:22:51 GMT 43.838425 0.697696 35,975 341 331 0
2020-02-26 13:22:48 GMT 43.832794 0.700506 35,975 341 332 0
2020-02-26 13:22:41 GMT 43.823273 0.705297 35,975 341 332 0
2020-02-26 13:22:38 GMT 43.818550 0.707637 35,975 341 333 0
2020-02-26 13:22:34 GMT 43.812698 0.710534 35,975 341 333 0
2020-02-26 13:22:30 GMT 43.806820 0.713457 35,975 341 334 0
2020-02-26 13:22:27 GMT 43.803818 0.714942 35,975 341 334 0
2020-02-26 13:22:23 GMT 43.796066 0.718820 35,975 341 334 0
2020-02-26 13:22:20 GMT 43.792328 0.720690 35,975 341 334 0
2020-02-26 13:22:17 GMT 43.788712 0.722479 35,975 341 337 -64
2020-02-26 13:22:13 GMT 43.782257 0.725736 35,975 341 335 -64
2020-02-26 13:22:09 GMT 43.777210 0.728237 35,975 341 335 -64
2020-02-26 13:22:06 GMT 43.772137 0.730787 35,975 341 337 -64
2020-02-26 13:22:00 GMT 43.763340 0.735168 36,000 341 337 -64
2020-02-26 13:21:57 GMT 43.759003 0.737298 36,000 341 337 -64
2020-02-26 13:21:47 GMT 43.744114 0.744716 36,000 341 338 0
2020-02-26 13:21:43 GMT 43.737038 0.748247 36,000 341 339 0
2020-02-26 13:21:37 GMT 43.729614 0.751989 36,000 341 339 0
2020-02-26 13:21:31 GMT 43.721924 0.755757 36,000 341 340 -64
2020-02-26 13:21:27 GMT 43.714787 0.759299 36,000 341 340 -128
2020-02-26 13:21:21 GMT 43.706406 0.763486 36,025 341 340 -256
2020-02-26 13:21:17 GMT 43.699612 0.766820 36,050 341 341 -192
2020-02-26 13:21:12 GMT 43.691742 0.770678 36,050 341 341 -64
2020-02-26 13:21:07 GMT 43.676426 0.778264 36,050 341 341 0
2020-02-26 13:21:02 GMT 43.676426 0.778264 36,050 341 342 0
2020-02-26 13:20:56 GMT 43.668980 0.781926 36,050 341 343 0
2020-02-26 13:20:53 GMT 43.664566 0.784117 36,050 341 343 0
2020-02-26 13:20:49 GMT 43.657700 0.787503 36,050 341 344 0
2020-02-26 13:20:46 GMT 43.653946 0.789355 36,050 341 344 0
2020-02-26 13:20:43 GMT 43.648865 0.791846 36,050 341 344 0
2020-02-26 13:20:35 GMT 43.638382 0.797020 36,050 341 345 0
2020-02-26 13:20:31 GMT 43.630341 0.800956 36,050 341 345 0
2020-02-26 13:20:28 GMT 43.626896 0.802721 36,050 341 346 0
2020-02-26 13:20:24 GMT 43.621449 0.805337 36,050 341 346 0
2020-02-26 13:20:15 GMT 43.608124 0.811902 36,050 341 346 64
2020-02-26 13:20:12 GMT 43.600967 0.815473 36,050 341 347 64
2020-02-26 13:20:05 GMT 43.592308 0.819659 36,050 341 347 64
2020-02-26 13:19:57 GMT 43.580246 0.825508 36,050 341 348 64
2020-02-26 13:19:54 GMT 43.575455 0.827833 36,025 341 349 64
2020-02-26 13:19:50 GMT 43.568752 0.831037 36,025 341 350 0
2020-02-26 13:19:44 GMT 43.560978 0.834830 36,025 341 349 0
2020-02-26 13:19:41 GMT 43.554276 0.838165 36,025 341 349 0
2020-02-26 13:19:37 GMT 43.549026 0.840773 36,025 340 350 0
2020-02-26 13:19:30 GMT 43.538406 0.846011 36,025 341 349 0
2020-02-26 13:19:26 GMT 43.533604 0.848432 36,025 340 350 0
2020-02-26 13:19:23 GMT 43.528198 0.851121 36,025 340 350 0
2020-02-26 13:19:20 GMT 43.522945 0.853729 36,025 340 350 0
2020-02-26 13:19:17 GMT 43.517532 0.856486 36,025 340 350 0
2020-02-26 13:19:13 GMT 43.513538 0.858568 36,025 340 350 0
2020-02-26 13:19:09 GMT 43.502426 0.864343 36,025 339 349 0
2020-02-26 13:19:02 GMT 43.497116 0.867153 36,025 339 349 64
2020-02-26 13:18:59 GMT 43.490341 0.870730 36,025 340 349 128
2020-02-26 13:18:55 GMT 43.484215 0.873871 36,000 342 349 64
2020-02-26 13:18:46 GMT 43.471619 0.878651 36,000 353 354 64
2020-02-26 13:18:42 GMT 43.458378 0.881130 36,000 358 358 0
2020-02-26 13:18:38 GMT 43.452091 0.881522 36,000 0 359 0
2020-02-26 13:18:34 GMT 43.452091 0.881522 36,000 359 359 64
2020-02-26 13:18:31 GMT 43.447220 0.881717 36,000 0 359 0
2020-02-26 13:18:28 GMT 43.441803 0.881849 36,000 0 359 0
2020-02-26 13:18:24 GMT 43.435520 0.881980 36,000 0 359 0
2020-02-26 13:18:21 GMT 43.431427 0.882036 36,000 0 359 0
2020-02-26 13:18:18 GMT 43.424149 0.882164 36,000 0 359 0
2020-02-26 13:18:15 GMT 43.412201 0.882419 36,000 0 359 0
2020-02-26 13:18:11 GMT 43.412201 0.882419 36,000 0 359 0
2020-02-26 13:18:06 GMT 43.405167 0.882503 36,000 0 358 0
2020-02-26 13:18:03 GMT 43.401676 0.882568 36,000 0 358 0
2020-02-26 13:17:58 GMT 43.390503 0.882803 36,000 0 358 0
2020-02-26 13:17:53 GMT 43.384552 0.882930 36,000 0 358 0
2020-02-26 13:17:50 GMT 43.378864 0.883092 36,000 0 357 0
2020-02-26 13:17:47 GMT 43.373795 0.883186 36,000 0 357 0
2020-02-26 13:17:43 GMT 43.368111 0.883288 36,000 0 357 64
2020-02-26 13:17:40 GMT 43.357403 0.883549 36,000 359 357 64
2020-02-26 13:17:37 GMT 43.357403 0.883549 36,050 359 357 64
2020-02-26 13:17:33 GMT 43.351444 0.883745 35,975 359 357 64
2020-02-26 13:17:29 GMT 43.345020 0.883876 35,975 359 357 128
2020-02-26 13:17:26 GMT 43.340149 0.884016 35,975 359 357 128
2020-02-26 13:17:23 GMT 43.334641 0.884138 35,975 359 357 128
2020-02-26 13:17:19 GMT 43.328541 0.884334 35,975 359 357 64
2020-02-26 13:17:13 GMT 43.318039 0.884591 35,950 0 357 64
2020-02-26 13:17:09 GMT 43.312775 0.884719 35,950 0 358 64
2020-02-26 13:17:06 GMT 43.305920 0.884857 35,950 0 358 0
2020-02-26 13:17:02 GMT 43.300938 0.884923 35,950 0 358 0
2020-02-26 13:16:57 GMT 43.292084 0.885102 35,950 0 358 0
2020-02-26 13:16:53 GMT 43.284668 0.885230 35,950 0 358 0
2020-02-26 13:16:47 GMT 43.275333 0.885380 35,950 0 358 0
2020-02-26 13:16:43 GMT 43.267639 0.885549 35,950 0 358 0
2020-02-26 13:16:40 GMT 43.260361 0.885677 35,950 0 358 0
2020-02-26 13:16:35 GMT 43.255554 0.885741 35,950 0 358 0
2020-02-26 13:16:32 GMT 43.251251 0.885805 35,950 0 358 0
2020-02-26 13:16:29 GMT 43.245213 0.885969 35,950 0 358 -64
2020-02-26 13:16:25 GMT 43.236511 0.886124 35,950 0 358 0
2020-02-26 13:16:22 GMT 43.234135 0.886165 35,950 0 358 0
2020-02-26 13:16:17 GMT 43.217010 0.886443 35,950 0 358 0
2020-02-26 13:16:12 GMT 43.217010 0.886443 35,950 0 358 0
2020-02-26 13:16:09 GMT 43.211975 0.886492 35,950 0 358 0
2020-02-26 13:16:06 GMT 43.207901 0.886571 35,950 0 358 0
2020-02-26 13:16:02 GMT 43.200897 0.886623 35,975 0 358 -64
2020-02-26 13:15:59 GMT 43.194672 0.886763 35,975 0 358 -64
2020-02-26 13:15:54 GMT 43.185486 0.886884 35,975 0 358 -64
2020-02-26 13:15:51 GMT 43.181019 0.886950 35,975 0 358 -64
2020-02-26 13:15:48 GMT 43.178364 0.887015 35,975 0 358 -64
2020-02-26 13:15:45 GMT 43.173157 0.887146 35,975 0 358 -64
2020-02-26 13:15:41 GMT 43.165794 0.887277 35,975 0 358 -64
2020-02-26 13:15:38 GMT 43.160934 0.887338 35,975 0 358 -64
2020-02-26 13:15:35 GMT 43.155880 0.887473 35,975 0 358 0
2020-02-26 13:15:32 GMT 43.149410 0.887604 35,975 0 358 0
2020-02-26 13:15:28 GMT 43.139236 0.887785 35,975 0 358 0
2020-02-26 13:15:25 GMT 43.133423 0.887912 35,975 0 359 0
2020-02-26 13:15:18 GMT 43.128799 0.887976 35,975 0 359 0
2020-02-26 13:15:14 GMT 43.122299 0.888104 35,975 0 359 0
2020-02-26 13:15:11 GMT 43.116165 0.888232 35,975 0 359 0
2020-02-26 13:15:08 GMT 43.111862 0.888360 36,000 0 359 0
2020-02-26 13:15:03 GMT 43.104218 0.888487 36,000 0 360 0
2020-02-26 13:14:59 GMT 43.094337 0.888715 36,000 0 360 0
2020-02-26 13:14:54 GMT 43.089249 0.888807 36,000 0 360 0
2020-02-26 13:14:51 GMT 43.078766 0.888998 36,000 0 361 0
2020-02-26 13:14:45 GMT 43.072830 0.889108 36,000 0 361 0
2020-02-26 13:14:41 GMT 43.065987 0.889304 36,000 0 362 0
2020-02-26 13:14:37 GMT 43.060089 0.889382 36,000 0 362 0
2020-02-26 13:14:33 GMT 43.053040 0.889573 36,000 0 362 0
2020-02-26 13:14:30 GMT 43.048370 0.889637 36,000 0 362 0
2020-02-26 13:14:26 GMT 43.042511 0.889765 36,000 0 363 0
2020-02-26 13:14:19 GMT 43.029678 0.890089 36,000 0 363 0
2020-02-26 13:14:16 GMT 43.025711 0.890148 36,000 0 363 0
2020-02-26 13:14:13 GMT 43.020859 0.890276 36,000 0 363 0
2020-02-26 13:14:10 GMT 43.007519 0.890547 36,000 0 364 64
2020-02-26 13:14:04 GMT 43.004379 0.890595 36,000 0 364 0
2020-02-26 13:14:00 GMT 42.997417 0.890743 36,000 0 365 0
2020-02-26 13:13:56 GMT 42.991505 0.890874 36,000 0 365 0
2020-02-26 13:13:53 GMT 42.986206 0.890978 36,000 0 366 0
2020-02-26 13:13:50 GMT 42.978928 0.891106 36,000 0 366 0
2020-02-26 13:13:43 GMT 42.969452 0.891234 36,000 0 368 0
2020-02-26 13:13:39 GMT 42.961945 0.891362 36,000 0 369 0
2020-02-26 13:13:35 GMT 42.956078 0.891462 36,000 0 369 -64
2020-02-26 13:13:29 GMT 42.945053 0.891681 36,025 0 371 0
2020-02-26 13:13:25 GMT 42.938370 0.891745 36,025 0 371 0
2020-02-26 13:13:20 GMT 42.928802 0.891937 36,000 0 371 0
2020-02-26 13:13:17 GMT 42.924500 0.892000 36,025 0 371 0
2020-02-26 13:13:14 GMT 42.920242 0.892064 36,000 0 372 0
2020-02-26 13:13:07 GMT 42.906830 0.892256 36,000 0 372 0
2020-02-26 13:13:03 GMT 42.901424 0.892312 36,000 0 372 -64
2020-02-26 13:12:59 GMT 42.891788 0.892443 36,025 0 374 -192
2020-02-26 13:12:56 GMT 42.888672 0.892508 36,025 0 374 -192
2020-02-26 13:12:53 GMT 42.884201 0.892574 36,025 0 374 -256
2020-02-26 13:12:49 GMT 42.876053 0.892705 36,050 0 375 -192
2020-02-26 13:12:43 GMT 42.865627 0.892901 36,050 0 376 0
2020-02-26 13:12:36 GMT 42.853664 0.893097 36,050 0 376 64
2020-02-26 13:12:32 GMT 42.846539 0.893228 36,050 0 376 64
2020-02-26 13:12:26 GMT 42.837616 0.893406 36,050 0 376 64
2020-02-26 13:12:22 GMT 42.829178 0.893620 36,025 0 377 128
2020-02-26 13:12:18 GMT 42.821308 0.893816 36,025 0 377 128
2020-02-26 13:12:15 GMT 42.815826 0.893917 36,050 359 378 0
2020-02-26 13:12:11 GMT 42.810562 0.894044 36,025 359 378 64
2020-02-26 13:12:06 GMT 42.801384 0.894236 36,050 0 378 0
2020-02-26 13:12:03 GMT 42.797565 0.894300 36,025 0 378 0
2020-02-26 13:12:00 GMT 42.792309 0.894428 36,050 0 378 0
2020-02-26 13:11:57 GMT 42.785648 0.894619 36,050 0 378 -64
2020-02-26 13:11:54 GMT 42.778931 0.894762 36,050 0 378 -64
2020-02-26 13:11:48 GMT 42.762680 0.895074 36,075 0 378 -64
2020-02-26 13:11:44 GMT 42.762680 0.895074 36,050 0 378 0
2020-02-26 13:11:40 GMT 42.756138 0.895194 36,050 0 378 0
2020-02-26 13:11:35 GMT 42.748169 0.895386 36,050 0 377 0
2020-02-26 13:11:30 GMT 42.739563 0.895513 36,050 0 377 0
2020-02-26 13:11:27 GMT 42.732697 0.895635 36,050 0 376 64
2020-02-26 13:11:19 GMT 42.718010 0.895897 36,025 0 375 64
2020-02-26 13:11:14 GMT 42.711212 0.896024 36,025 0 375 64
2020-02-26 13:11:08 GMT 42.701485 0.896216 36,025 0 375 0
2020-02-26 13:11:04 GMT 42.694473 0.896322 36,025 0 375 64
2020-02-26 13:10:58 GMT 42.683655 0.896535 36,025 0 375 64
2020-02-26 13:10:53 GMT 42.674622 0.896727 36,025 0 375 64
2020-02-26 13:10:49 GMT 42.668472 0.896821 36,000 0 374 64
2020-02-26 13:10:46 GMT 42.661682 0.896919 36,000 0 374 64
2020-02-26 13:10:43 GMT 42.657257 0.897009 36,000 0 374 64
2020-02-26 13:10:37 GMT 42.647484 0.897238 36,000 0 373 64
2020-02-26 13:10:33 GMT 42.639771 0.897383 36,000 0 374 64
2020-02-26 13:10:30 GMT 42.635891 0.897430 36,000 0 374 64
2020-02-26 13:10:26 GMT 42.626816 0.897633 36,000 0 373 0
2020-02-26 13:10:23 GMT 42.621643 0.897758 36,000 0 373 64
2020-02-26 13:10:20 GMT 42.618210 0.897820 36,000 0 373 64
2020-02-26 13:10:16 GMT 42.610977 0.897945 36,000 9 367 -64
2020-02-26 13:10:12 GMT 42.604328 0.898068 36,000 0 372 0
2020-02-26 13:10:04 GMT 42.588593 0.898382 36,000 0 372 -64
2020-02-26 13:10:00 GMT 42.581985 0.898452 36,000 0 370 -64
2020-02-26 13:09:57 GMT 42.575043 0.898632 36,000 0 370 -64
2020-02-26 13:09:53 GMT 42.571609 0.898694 36,000 0 370 -64
2020-02-26 13:09:49 GMT 42.563316 0.898835 36,000 0 369 0
2020-02-26 13:09:44 GMT 42.548080 0.899131 36,000 0 368 0
2020-02-26 13:09:40 GMT 42.548080 0.899131 36,000 0 368 0
2020-02-26 13:09:33 GMT 42.535492 0.899318 36,000 0 367 0
2020-02-26 13:09:30 GMT 42.530228 0.899381 36,000 0 366 0
2020-02-26 13:09:27 GMT 42.519463 0.899538 36,000 0 366 64
2020-02-26 13:09:22 GMT 42.519463 0.899538 36,000 0 366 64
2020-02-26 13:09:19 GMT 42.499237 0.899818 36,000 0 367 0
2020-02-26 13:09:11 GMT 42.499237 0.899818 36,000 0 367 64
2020-02-26 13:09:08 GMT 42.494232 0.899857 36,000 0 367 64
2020-02-26 13:09:02 GMT 42.478966 0.900049 36,000 0 368 0
2020-02-26 13:08:59 GMT 42.478966 0.900049 36,000 0 368 0
2020-02-26 13:08:53 GMT 42.468723 0.900240 36,000 0 368 0
2020-02-26 13:08:50 GMT 42.457687 0.900368 36,000 0 368 -64
2020-02-26 13:08:41 GMT 42.446732 0.900567 36,000 0 366 -64
2020-02-26 13:08:37 GMT 42.441536 0.900623 36,000 0 364 -64
2020-02-26 13:08:32 GMT 42.433620 0.900815 36,025 0 364 -64
2020-02-26 13:08:29 GMT 42.428513 0.900879 36,000 0 362 -64
2020-02-26 13:08:26 GMT 42.424301 0.901004 36,025 359 361 0
2020-02-26 13:08:21 GMT 42.415466 0.901253 36,000 359 358 64
2020-02-26 13:08:18 GMT 42.410252 0.901390 36,000 359 357 64
2020-02-26 13:08:11 GMT 42.397659 0.901753 36,000 9 361 0
2020-02-26 13:08:07 GMT 42.392578 0.901940 36,000 359 352 128
2020-02-26 13:08:03 GMT 42.386276 0.902156 36,000 359 352 128
2020-02-26 13:08:00 GMT 42.380676 0.902377 36,000 0 352 128
2020-02-26 13:07:56 GMT 42.373894 0.902540 35,975 9 367 0
2020-02-26 13:07:49 GMT 42.362907 0.902029 35,975 4 358 64
2020-02-26 13:07:46 GMT 42.357559 0.901503 35,975 6 361 64
2020-02-26 13:07:42 GMT 42.350292 0.900432 36,000 8 366 -64
2020-02-26 13:07:39 GMT 42.346478 0.899729 36,000 8 366 -128
2020-02-26 13:07:32 GMT 42.327576 0.895577 36,025 9 373 -64
2020-02-26 13:07:25 GMT 42.322037 0.894325 36,000 9 373 0
2020-02-26 13:07:20 GMT 42.313202 0.892265 36,025 9 373 -64
2020-02-26 13:07:15 GMT 42.303276 0.889956 36,000 9 374 -64
2020-02-26 13:07:11 GMT 42.298416 0.888831 36,000 9 374 0
2020-02-26 13:07:07 GMT 42.292336 0.887401 36,000 9 374 0
2020-02-26 13:07:04 GMT 42.286285 0.886085 36,025 9 374 0
2020-02-26 13:07:01 GMT 42.281158 0.884899 36,000 9 374 -64
2020-02-26 13:06:54 GMT 42.269211 0.882277 36,000 9 373 64
2020-02-26 13:06:50 GMT 42.263443 0.880966 36,000 9 372 -64
2020-02-26 13:06:44 GMT 42.252411 0.878532 36,000 9 370 0
2020-02-26 13:06:39 GMT 42.243118 0.876472 36,000 9 368 0
2020-02-26 13:06:33 GMT 42.233688 0.874412 36,000 9 367 -64
2020-02-26 13:06:28 GMT 42.225311 0.872602 36,000 9 365 0
2020-02-26 13:06:24 GMT 42.217438 0.870916 36,000 9 364 -64
2020-02-26 13:06:18 GMT 42.208466 0.868981 36,000 9 363 -64
2020-02-26 13:06:13 GMT 42.201370 0.867483 36,000 9 358 0
2020-02-26 13:06:08 GMT 42.192062 0.865429 36,000 9 359 0
2020-02-26 13:06:03 GMT 42.184433 0.863800 36,000 9 357 0
2020-02-26 13:06:00 GMT 42.173996 0.861428 36,000 9 356 64
2020-02-26 13:05:52 GMT 42.167496 0.859992 36,000 9 356 64
2020-02-26 13:05:49 GMT 42.161572 0.858594 36,000 9 356 64
2020-02-26 13:05:46 GMT 42.157425 0.857683 36,000 9 357 64
2020-02-26 13:05:42 GMT 42.151142 0.856295 36,000 9 358 64
2020-02-26 13:05:39 GMT 42.144562 0.854749 36,000 9 359 64
2020-02-26 13:05:36 GMT 42.141266 0.854000 36,000 9 360 0
2020-02-26 13:05:32 GMT 42.133312 0.852143 36,000 9 362 -64
2020-02-26 13:05:27 GMT 42.125290 0.850317 36,025 9 365 -64
2020-02-26 13:05:21 GMT 42.116638 0.848382 36,025 9 364 0
2020-02-26 13:05:16 GMT 42.107849 0.846394 36,050 9 370 -192
2020-02-26 13:05:11 GMT 42.099098 0.844414 36,075 9 370 -128
2020-02-26 13:05:07 GMT 42.090160 0.842434 36,100 9 371 -64
2020-02-26 13:05:00 GMT 42.080849 0.840326 36,050 9 371 0
2020-02-26 13:04:56 GMT 42.073399 0.838666 36,075 9 371 -64
2020-02-26 13:04:52 GMT 42.066559 0.837083 36,075 9 371 -64
2020-02-26 13:04:49 GMT 42.061661 0.836022 36,050 9 371 0
2020-02-26 13:04:46 GMT 42.056396 0.834836 36,050 9 371 0
2020-02-26 13:04:40 GMT 42.046165 0.832534 36,050 9 372 64
2020-02-26 13:04:35 GMT 42.038673 0.830873 36,050 9 372 64
2020-02-26 13:04:32 GMT 42.032181 0.829405 36,025 9 373 64
2020-02-26 13:04:29 GMT 42.020515 0.826721 36,025 9 373 128
2020-02-26 13:04:26 GMT 42.020515 0.826721 36,025 9 373 64
2020-02-26 13:04:22 GMT 42.014648 0.825410 36,025 9 374 64
2020-02-26 13:04:19 GMT 42.011345 0.824677 36,025 9 373 64
2020-02-26 13:04:15 GMT 42.004364 0.823080 36,025 9 373 0
2020-02-26 13:04:09 GMT 41.993469 0.820589 36,025 9 374 64
2020-02-26 13:04:04 GMT 41.985901 0.818856 36,025 9 374 64
2020-02-26 13:03:57 GMT 41.972763 0.815985 36,025 9 374 64
2020-02-26 13:03:54 GMT 41.968323 0.814986 36,025 9 374 64
2020-02-26 13:03:47 GMT 41.955624 0.812158 36,025 9 373 0
2020-02-26 13:03:44 GMT 41.951527 0.811264 36,025 9 374 0
2020-02-26 13:03:38 GMT 41.940960 0.808900 36,000 9 373 0
2020-02-26 13:03:35 GMT 41.934402 0.807495 36,000 9 372 0
2020-02-26 13:03:30 GMT 41.927505 0.805962 36,000 9 371 -64
2020-02-26 13:03:26 GMT 41.920757 0.804493 36,000 9 371 0
2020-02-26 13:03:23 GMT 41.915909 0.803438 36,000 9 371 -64
2020-02-26 13:03:20 GMT 41.911148 0.802376 36,000 9 370 -64
2020-02-26 13:03:17 GMT 41.898876 0.799702 36,000 9 370 -64
2020-02-26 13:03:13 GMT 41.898876 0.799702 36,000 9 370 -64
2020-02-26 13:03:10 GMT 41.893707 0.798569 36,000 9 369 0
2020-02-26 13:03:06 GMT 41.887379 0.797148 36,000 9 369 0
2020-02-26 13:03:03 GMT 41.881256 0.795822 36,000 9 368 64
2020-02-26 13:02:59 GMT 41.874298 0.794337 36,000 9 366 64
2020-02-26 13:02:56 GMT 41.869923 0.793379 35,975 9 366 64
2020-02-26 13:02:53 GMT 41.864056 0.792038 36,000 9 366 0
2020-02-26 13:02:49 GMT 41.858459 0.790828 36,000 9 365 64
2020-02-26 13:02:46 GMT 41.851639 0.789330 36,000 9 365 64
2020-02-26 13:02:43 GMT 41.847473 0.788456 36,000 9 364 64
2020-02-26 13:02:39 GMT 41.842361 0.787311 36,000 9 364 0
2020-02-26 13:02:35 GMT 41.834911 0.785650 36,000 9 363 -64
2020-02-26 13:02:30 GMT 41.825928 0.783606 36,000 9 363 -64
2020-02-26 13:02:23 GMT 41.812592 0.780654 36,000 9 364 64
2020-02-26 13:02:19 GMT 41.807495 0.779454 36,000 9 364 0
2020-02-26 13:02:15 GMT 41.801022 0.777985 36,000 9 365 0
2020-02-26 13:02:12 GMT 41.796696 0.777027 36,000 9 366 64
2020-02-26 13:02:09 GMT 41.791527 0.775814 36,000 9 367 0
2020-02-26 13:02:05 GMT 41.783936 0.774099 35,975 9 368 64
2020-02-26 13:02:02 GMT 41.774769 0.772045 36,000 9 370 0
2020-02-26 13:01:53 GMT 41.764526 0.769730 36,000 9 373 -64
2020-02-26 13:01:48 GMT 41.756798 0.768021 36,000 9 374 -64
2020-02-26 13:01:42 GMT 41.743813 0.765083 36,000 9 375 -128
2020-02-26 13:01:34 GMT 41.731888 0.762489 36,000 9 373 -64
2020-02-26 13:01:21 GMT 41.709595 0.757620 36,000 9 370 -64
2020-02-26 13:01:14 GMT 41.696777 0.754811 36,000 9 368 0
2020-02-26 13:01:09 GMT 41.688354 0.753000 36,000 9 367 0
2020-02-26 13:01:01 GMT 41.674213 0.749945 36,025 9 364 0
2020-02-26 13:00:52 GMT 41.654388 0.745635 36,000 9 362 0
2020-02-26 13:00:48 GMT 41.654388 0.745635 36,000 9 362 0
2020-02-26 13:00:40 GMT 41.641159 0.742763 36,000 9 360 64
2020-02-26 13:00:32 GMT 41.628922 0.740044 35,975 9 359 256
2020-02-26 13:00:27 GMT 41.620541 0.738192 35,950 9 359 192
2020-02-26 13:00:23 GMT 41.612411 0.736396 35,950 9 360 0
2020-02-26 13:00:18 GMT 41.606003 0.734960 35,950 9 360 64
2020-02-26 13:00:12 GMT 41.595108 0.732588 35,950 9 362 0
2020-02-26 13:00:08 GMT 41.589722 0.731421 35,950 9 363 0
2020-02-26 13:00:01 GMT 41.578270 0.728866 35,950 9 365 0
2020-02-26 12:59:58 GMT 41.572266 0.727589 35,950 9 365 0
2020-02-26 12:59:51 GMT 41.560722 0.725034 35,950 9 367 -128
2020-02-26 12:59:47 GMT 41.553268 0.723412 35,950 9 368 -64
2020-02-26 12:59:42 GMT 41.544662 0.721540 35,975 9 370 -64
2020-02-26 12:59:36 GMT 41.536057 0.719604 35,975 9 371 -64
2020-02-26 12:59:31 GMT 41.526833 0.717561 35,975 9 372 0
2020-02-26 12:59:26 GMT 41.519302 0.715922 36,000 9 373 0
2020-02-26 12:59:21 GMT 41.508911 0.713612 35,975 9 374 0
2020-02-26 12:59:15 GMT 41.500717 0.711802 35,975 9 374 -64
2020-02-26 12:59:11 GMT 41.491917 0.709832 36,000 9 375 0
2020-02-26 12:59:08 GMT 41.487030 0.708805 36,000 9 376 -64
2020-02-26 12:59:01 GMT 41.474274 0.705935 36,000 9 377 0
2020-02-26 12:58:55 GMT 41.465378 0.703999 36,025 9 378 -64
2020-02-26 12:58:50 GMT 41.457188 0.702167 36,025 9 378 -64
2020-02-26 12:58:45 GMT 41.447552 0.700059 36,000 9 378 -64
2020-02-26 12:58:40 GMT 41.439194 0.698194 36,000 9 377 -64
2020-02-26 12:58:37 GMT 41.433975 0.697070 36,025 9 377 -64
2020-02-26 12:58:34 GMT 41.428886 0.695971 36,000 9 377 -64
2020-02-26 12:58:30 GMT 41.421810 0.694438 36,000 9 376 0
2020-02-26 12:58:26 GMT 41.415207 0.693013 36,000 9 375 0
2020-02-26 12:58:23 GMT 41.410904 0.692076 36,000 9 375 0
2020-02-26 12:58:20 GMT 41.403934 0.690542 36,000 9 374 0
2020-02-26 12:58:16 GMT 41.396988 0.689080 36,000 9 374 0
2020-02-26 12:58:13 GMT 41.393738 0.688331 36,000 9 374 0
2020-02-26 12:58:10 GMT 41.386047 0.686707 36,000 9 373 0
2020-02-26 12:58:03 GMT 41.368877 0.682963 36,000 9 374 0
2020-02-26 12:57:59 GMT 41.361099 0.681274 36,000 9 374 0
2020-02-26 12:57:54 GMT 41.361099 0.681274 36,000 9 374 0
2020-02-26 12:57:49 GMT 41.351654 0.679217 36,000 9 377 0
2020-02-26 12:57:45 GMT 41.344624 0.677657 36,000 9 374 0
2020-02-26 12:57:41 GMT 41.339081 0.676453 36,000 9 374 0
2020-02-26 12:57:38 GMT 41.333733 0.675285 36,000 9 376 64
2020-02-26 12:57:34 GMT 41.326889 0.673787 36,000 9 374 0
2020-02-26 12:57:31 GMT 41.321770 0.672663 36,000 9 374 0
2020-02-26 12:57:28 GMT 41.317112 0.671664 36,000 9 378 0
2020-02-26 12:57:25 GMT 41.310081 0.670104 36,000 9 377 0
2020-02-26 12:57:19 GMT 41.299236 0.667732 36,000 9 381 -128
2020-02-26 12:57:16 GMT 41.281998 0.663879 36,000 9 381 -64
2020-02-26 12:57:08 GMT 41.281998 0.663879 36,050 9 385 -128
2020-02-26 12:57:05 GMT 41.276596 0.662659 36,025 9 384 -256
2020-02-26 12:57:00 GMT 41.267021 0.660615 36,050 9 385 0
2020-02-26 12:56:55 GMT 41.258698 0.658752 36,050 9 386 0
2020-02-26 12:56:48 GMT 41.246120 0.655996 36,050 9 386 0
2020-02-26 12:56:43 GMT 41.238647 0.654358 36,050 9 386 0
2020-02-26 12:56:37 GMT 41.227825 0.652001 36,050 9 386 0
2020-02-26 12:56:34 GMT 41.221123 0.650503 36,050 9 386 0
2020-02-26 12:56:28 GMT 41.208710 0.647766 36,050 9 385 0
2020-02-26 12:56:24 GMT 41.203526 0.646633 36,050 9 385 64
2020-02-26 12:56:17 GMT 41.184998 0.642578 36,050 9 385 64
2020-02-26 12:56:13 GMT 41.184998 0.642578 36,050 9 385 64
2020-02-26 12:56:07 GMT 41.174385 0.640266 36,025 9 384 64
2020-02-26 12:56:03 GMT 41.167648 0.638794 36,025 9 384 64
2020-02-26 12:55:57 GMT 41.156181 0.636271 36,025 9 383 0
2020-02-26 12:55:53 GMT 41.149853 0.634897 36,025 9 383 0
2020-02-26 12:55:47 GMT 41.138580 0.632446 36,025 9 383 0
2020-02-26 12:55:42 GMT 41.131371 0.630840 36,025 9 382 0
2020-02-26 12:55:32 GMT 41.105255 0.625222 36,000 9 379 0
2020-02-26 12:55:26 GMT 41.102737 0.624634 36,000 9 379 0
2020-02-26 12:55:21 GMT 41.093719 0.622742 36,000 9 379 0
2020-02-26 12:55:16 GMT 41.078476 0.619446 36,000 9 377 0
2020-02-26 12:55:13 GMT 41.078476 0.619446 36,000 9 377 0
2020-02-26 12:55:02 GMT 41.052368 0.613799 36,000 9 375 0
2020-02-26 12:54:56 GMT 41.049809 0.613237 36,000 9 375 0
2020-02-26 12:54:52 GMT 41.043045 0.611755 36,000 9 374 0
2020-02-26 12:54:49 GMT 41.039848 0.611052 36,000 9 374 0
2020-02-26 12:54:45 GMT 41.032242 0.609375 36,000 9 374 0
2020-02-26 12:54:41 GMT 41.025322 0.607869 36,000 9 374 0
2020-02-26 12:54:35 GMT 41.009075 0.604310 36,000 9 374 0
2020-02-26 12:54:32 GMT 41.009075 0.604310 36,000 9 374 0
2020-02-26 12:54:25 GMT 40.997543 0.601868 36,000 9 373 0
2020-02-26 12:54:21 GMT 40.991409 0.600525 36,000 9 373 0
2020-02-26 12:54:14 GMT 40.979565 0.598006 36,000 9 374 0
2020-02-26 12:54:10 GMT 40.972717 0.596508 36,000 9 374 0
2020-02-26 12:54:03 GMT 40.958908 0.593689 36,000 8 375 64
2020-02-26 12:53:54 GMT 40.944534 0.590698 36,000 9 376 64
2020-02-26 12:53:50 GMT 40.938675 0.589355 36,000 11 378 0
2020-02-26 12:53:46 GMT 40.931442 0.587463 36,000 13 381 0
2020-02-26 12:53:42 GMT 40.923931 0.585084 36,000 14 383 64
2020-02-26 12:53:39 GMT 40.920162 0.583711 36,000 16 387 0
2020-02-26 12:53:36 GMT 40.913273 0.581089 36,000 16 388 0
2020-02-26 12:53:33 GMT 40.902565 0.576907 36,000 16 389 0
2020-02-26 12:53:29 GMT 40.902565 0.576907 36,000 16 389 0
2020-02-26 12:53:25 GMT 40.896000 0.574410 36,000 16 392 0
2020-02-26 12:53:21 GMT 40.887405 0.571045 36,000 16 393 0
2020-02-26 12:53:14 GMT 40.873947 0.565857 36,000 16 394 -64
2020-02-26 12:53:07 GMT 40.862732 0.561523 36,000 16 378 -64
2020-02-26 12:53:01 GMT 40.851013 0.557007 36,000 16 393 0
2020-02-26 12:52:58 GMT 40.848404 0.555969 36,000 16 377 0
2020-02-26 12:52:51 GMT 40.835724 0.551086 36,000 16 389 0
2020-02-26 12:52:48 GMT 40.831238 0.549316 36,000 16 388 0
2020-02-26 12:52:41 GMT 40.818584 0.544447 36,000 16 386 0
2020-02-26 12:52:38 GMT 40.812881 0.542236 36,000 16 384 0
2020-02-26 12:52:31 GMT 40.800568 0.537537 36,000 16 383 0
2020-02-26 12:52:26 GMT 40.793289 0.534729 36,000 16 382 0
2020-02-26 12:52:21 GMT 40.783855 0.531152 36,000 16 379 -64
2020-02-26 12:52:17 GMT 40.777477 0.528655 36,025 16 380 -64
2020-02-26 12:52:12 GMT 40.768867 0.525409 36,025 16 378 0
2020-02-26 12:52:09 GMT 40.763901 0.523499 36,025 16 371 0
2020-02-26 12:52:06 GMT 40.759651 0.521851 36,025 16 377 0
2020-02-26 12:52:01 GMT 40.750618 0.518417 36,025 16 375 -64
2020-02-26 12:51:58 GMT 40.745544 0.516418 36,000 16 375 0
2020-02-26 12:51:51 GMT 40.733871 0.511963 36,025 16 373 -64
2020-02-26 12:51:47 GMT 40.727345 0.509491 36,000 16 372 -64
2020-02-26 12:51:44 GMT 40.722363 0.507618 36,025 16 372 0
2020-02-26 12:51:41 GMT 40.713181 0.504089 36,000 16 371 0
2020-02-26 12:51:38 GMT 40.707184 0.501813 36,000 16 370 0
2020-02-26 12:51:30 GMT 40.699997 0.499084 36,000 16 369 64
2020-02-26 12:51:27 GMT 40.688187 0.494568 36,000 16 368 0
2020-02-26 12:51:20 GMT 40.683212 0.492699 36,000 16 368 64
2020-02-26 12:51:16 GMT 40.677063 0.490356 36,000 16 368 64
2020-02-26 12:51:13 GMT 40.671898 0.488392 36,000 16 367 0
2020-02-26 12:51:10 GMT 40.666946 0.486511 35,975 16 366 128
2020-02-26 12:51:06 GMT 40.660538 0.484070 35,975 16 366 192
2020-02-26 12:51:03 GMT 40.656143 0.482422 35,975 16 366 64
2020-02-26 12:51:00 GMT 40.650284 0.480164 35,975 16 366 128
2020-02-26 12:50:56 GMT 40.644012 0.477780 35,975 16 366 256
2020-02-26 12:50:53 GMT 40.639126 0.475908 35,950 16 366 256
2020-02-26 12:50:50 GMT 40.632469 0.473411 35,950 16 366 192
2020-02-26 12:50:47 GMT 40.630001 0.472475 35,950 16 366 128
2020-02-26 12:50:40 GMT 40.611473 0.465358 35,950 16 367 0
2020-02-26 12:50:36 GMT 40.611473 0.465358 35,950 16 367 0
2020-02-26 12:50:32 GMT 40.605331 0.463013 35,950 16 368 0
2020-02-26 12:50:29 GMT 40.600533 0.461176 35,950 16 368 0
2020-02-26 12:50:25 GMT 40.587021 0.455933 35,950 16 374 0
2020-02-26 12:50:21 GMT 40.587021 0.455933 35,950 16 370 -64
2020-02-26 12:50:17 GMT 40.580006 0.453248 35,950 16 373 -64
2020-02-26 12:50:10 GMT 40.566238 0.447876 35,975 16 374 -64
2020-02-26 12:50:06 GMT 40.561066 0.445923 35,975 16 374 -64
2020-02-26 12:49:59 GMT 40.550537 0.441825 35,975 16 375 -64
2020-02-26 12:49:54 GMT 40.542854 0.438891 36,000 16 377 -64
2020-02-26 12:49:48 GMT 40.532684 0.434998 36,000 16 378 0
2020-02-26 12:49:44 GMT 40.525909 0.432399 36,000 16 379 -64
2020-02-26 12:49:38 GMT 40.516068 0.428650 36,000 16 379 0
2020-02-26 12:49:29 GMT 40.492485 0.419728 36,000 16 380 0
2020-02-26 12:49:24 GMT 40.492485 0.419728 36,000 16 380 0
2020-02-26 12:49:18 GMT 40.481174 0.415421 36,000 16 380 0
2020-02-26 12:49:14 GMT 40.474239 0.412799 36,000 16 380 0
2020-02-26 12:49:08 GMT 40.464462 0.409116 36,000 16 381 -64
2020-02-26 12:49:04 GMT 40.446442 0.402222 36,000 16 381 -64
2020-02-26 12:48:57 GMT 40.446442 0.402222 36,000 16 380 0
2020-02-26 12:48:54 GMT 40.440170 0.399841 36,000 16 380 0
2020-02-26 12:48:49 GMT 40.432014 0.396756 36,000 16 380 0
2020-02-26 12:48:46 GMT 40.427032 0.394836 36,000 16 380 0
2020-02-26 12:48:37 GMT 40.412521 0.389343 36,000 16 378 0
2020-02-26 12:48:31 GMT 40.399799 0.384584 36,000 16 378 0
2020-02-26 12:48:26 GMT 40.393421 0.382149 36,000 16 377 0
2020-02-26 12:48:23 GMT 40.388626 0.380371 36,000 16 376 0
2020-02-26 12:48:16 GMT 40.369820 0.373223 36,000 16 375 0
2020-02-26 12:48:12 GMT 40.369820 0.373223 36,000 16 375 0
2020-02-26 12:48:09 GMT 40.364410 0.371216 36,000 16 374 0
2020-02-26 12:48:04 GMT 40.357533 0.368604 36,000 16 373 64
2020-02-26 12:47:59 GMT 40.347710 0.364858 36,000 16 373 0
2020-02-26 12:47:55 GMT 40.342075 0.362736 36,000 16 373 0
2020-02-26 12:47:51 GMT 40.333977 0.359615 36,000 16 373 0
2020-02-26 12:47:47 GMT 40.329693 0.357992 36,000 16 373 0
2020-02-26 12:47:44 GMT 40.324059 0.355807 36,000 16 373 0
2020-02-26 12:47:40 GMT 40.317265 0.353248 36,000 16 373 64
2020-02-26 12:47:36 GMT 40.309891 0.350403 36,000 16 375 64
2020-02-26 12:47:32 GMT 40.304077 0.348145 36,000 16 375 64
2020-02-26 12:47:28 GMT 40.297577 0.345703 36,000 16 376 0
2020-02-26 12:47:25 GMT 40.292637 0.343760 36,000 16 377 0
2020-02-26 12:47:21 GMT 40.285606 0.341076 36,000 16 379 -64
2020-02-26 12:47:16 GMT 40.275970 0.337393 36,025 16 381 -192
2020-02-26 12:47:08 GMT 40.263264 0.332524 36,050 16 385 0
2020-02-26 12:47:05 GMT 40.258144 0.330589 36,050 16 384 -64
2020-02-26 12:47:02 GMT 40.254047 0.329028 36,050 16 384 0
2020-02-26 12:46:58 GMT 40.245758 0.325928 36,050 16 385 -64
2020-02-26 12:46:55 GMT 40.241245 0.324159 36,050 16 378 0
2020-02-26 12:46:50 GMT 40.233444 0.321228 36,050 16 385 -64
2020-02-26 12:46:45 GMT 40.223785 0.317542 36,000 16 385 0
2020-02-26 12:46:40 GMT 40.216324 0.314758 36,050 16 385 0
2020-02-26 12:46:37 GMT 40.205750 0.310730 36,050 16 384 0
2020-02-26 12:46:34 GMT 40.199066 0.308228 36,050 16 384 0
2020-02-26 12:46:30 GMT 40.199066 0.308228 36,050 16 384 0
2020-02-26 12:46:25 GMT 40.182961 0.302124 36,050 16 383 0
2020-02-26 12:46:21 GMT 40.182961 0.302124 36,050 16 383 64
2020-02-26 12:46:18 GMT 40.176441 0.299690 36,050 16 383 0
2020-02-26 12:46:14 GMT 40.170731 0.297546 36,050 16 383 64
2020-02-26 12:46:07 GMT 40.160244 0.293572 36,050 16 383 64
2020-02-26 12:46:04 GMT 40.154022 0.291260 36,050 16 384 64
2020-02-26 12:45:57 GMT 40.142258 0.286804 35,975 16 377 0
2020-02-26 12:45:53 GMT 40.124680 0.280212 36,025 16 383 0
2020-02-26 12:45:47 GMT 40.124680 0.280212 36,025 16 383 0
2020-02-26 12:45:43 GMT 40.118950 0.278091 36,000 16 382 64
2020-02-26 12:45:37 GMT 40.107685 0.273847 36,025 16 382 64
2020-02-26 12:45:33 GMT 40.100887 0.271287 36,025 16 382 64
2020-02-26 12:45:27 GMT 40.084038 0.264920 36,000 16 377 0
2020-02-26 12:45:23 GMT 40.084038 0.264920 36,025 16 382 64
2020-02-26 12:45:17 GMT 40.073914 0.261169 36,000 16 382 64
2020-02-26 12:45:13 GMT 40.066772 0.258484 36,000 16 382 64
2020-02-26 12:45:07 GMT 40.048889 0.251749 36,000 16 382 0
2020-02-26 12:45:02 GMT 40.048889 0.251749 36,000 16 382 64
2020-02-26 12:44:56 GMT 40.039307 0.248169 35,975 16 381 0
2020-02-26 12:44:53 GMT 40.031944 0.245382 35,975 16 381 64
2020-02-26 12:44:46 GMT 40.021729 0.241516 35,975 16 379 0
2020-02-26 12:44:42 GMT 40.014862 0.238953 35,975 16 379 0
2020-02-26 12:44:36 GMT 40.004517 0.235107 35,975 15 378 0
2020-02-26 12:44:32 GMT 39.998009 0.232648 35,975 15 378 0
2020-02-26 12:44:26 GMT 39.987579 0.228778 35,975 15 378 0
2020-02-26 12:44:22 GMT 39.980255 0.226074 35,975 16 377 0
2020-02-26 12:44:16 GMT 39.971191 0.222656 35,975 16 377 0
2020-02-26 12:44:11 GMT 39.962631 0.219482 35,975 16 377 0
2020-02-26 12:44:05 GMT 39.953133 0.215919 35,975 16 377 0
2020-02-26 12:44:02 GMT 39.946335 0.213379 35,975 16 377 0
2020-02-26 12:43:56 GMT 39.937538 0.210051 35,975 16 377 0
2020-02-26 12:43:51 GMT 39.928528 0.206665 35,975 16 377 0
2020-02-26 12:43:46 GMT 39.919968 0.203486 35,975 16 377 0
2020-02-26 12:43:41 GMT 39.912094 0.200500 36,000 16 378 -64
2020-02-26 12:43:35 GMT 39.902847 0.197037 35,975 16 377 0
2020-02-26 12:43:30 GMT 39.894382 0.193848 36,000 16 378 -64
2020-02-26 12:43:25 GMT 39.886143 0.190796 35,975 16 377 0
2020-02-26 12:43:20 GMT 39.869247 0.184439 35,975 16 378 0
2020-02-26 12:43:15 GMT 39.869247 0.184439 35,975 16 377 0
2020-02-26 12:43:10 GMT 39.860260 0.181091 36,000 16 378 -64
2020-02-26 12:43:06 GMT 39.852448 0.178170 35,975 16 378 -64
2020-02-26 12:43:00 GMT 39.843269 0.174683 36,000 16 379 0
2020-02-26 12:42:55 GMT 39.835354 0.171753 35,975 16 378 -64
2020-02-26 12:42:50 GMT 39.826035 0.168258 36,000 16 378 -64
2020-02-26 12:42:45 GMT 39.818619 0.165511 36,000 16 378 -64
2020-02-26 12:42:39 GMT 39.808636 0.161743 36,000 15 378 -64
2020-02-26 12:42:33 GMT 39.797607 0.157690 36,000 16 378 0
2020-02-26 12:42:30 GMT 39.791245 0.155301 36,000 16 382 0
2020-02-26 12:42:25 GMT 39.777237 0.150047 36,000 16 378 0
2020-02-26 12:42:18 GMT 39.772789 0.148376 36,000 16 382 0
2020-02-26 12:42:13 GMT 39.765289 0.145569 36,000 16 379 0
2020-02-26 12:42:09 GMT 39.751701 0.140503 36,000 16 383 0
2020-02-26 12:42:05 GMT 39.751701 0.140503 36,000 16 380 0
2020-02-26 12:41:58 GMT 39.739746 0.136075 36,000 16 383 0
2020-02-26 12:41:55 GMT 39.733658 0.133806 36,000 16 383 0
2020-02-26 12:41:52 GMT 39.728577 0.131896 36,000 16 382 0
2020-02-26 12:41:48 GMT 39.722305 0.129567 36,000 16 382 0
2020-02-26 12:41:45 GMT 39.715950 0.127197 36,000 16 382 0
2020-02-26 12:41:39 GMT 39.704681 0.122986 36,000 16 382 0
2020-02-26 12:41:34 GMT 39.698135 0.120551 36,000 16 383 0
2020-02-26 12:41:31 GMT 39.692951 0.118591 36,000 16 383 0
2020-02-26 12:41:28 GMT 39.687134 0.116455 36,000 16 383 0
2020-02-26 12:41:25 GMT 39.681931 0.114521 36,000 16 383 0
2020-02-26 12:41:21 GMT 39.674240 0.111655 36,000 15 382 0
2020-02-26 12:41:16 GMT 39.665726 0.108490 36,000 16 384 0
2020-02-26 12:41:12 GMT 39.660599 0.106579 36,000 16 384 0
2020-02-26 12:41:07 GMT 39.652824 0.103638 36,000 16 384 0
2020-02-26 12:41:04 GMT 39.647003 0.101501 36,000 16 384 0
2020-02-26 12:41:01 GMT 39.642151 0.099653 36,000 16 385 -64
2020-02-26 12:40:58 GMT 39.627960 0.094339 36,000 15 384 0
2020-02-26 12:40:53 GMT 39.627960 0.094339 36,000 15 384 0
2020-02-26 12:40:47 GMT 39.617584 0.090515 36,000 15 384 0
2020-02-26 12:40:42 GMT 39.600685 0.084229 36,000 15 380 64
2020-02-26 12:40:37 GMT 39.600685 0.084229 36,000 15 383 0
2020-02-26 12:40:32 GMT 39.593079 0.081442 36,000 15 383 0
2020-02-26 12:40:28 GMT 39.585251 0.078576 36,000 15 382 0
2020-02-26 12:40:24 GMT 39.578430 0.076068 36,000 15 381 0
2020-02-26 12:40:21 GMT 39.572159 0.073740 36,000 15 380 64
2020-02-26 12:40:16 GMT 39.565632 0.071350 36,000 15 379 0
2020-02-26 12:40:12 GMT 39.558880 0.068909 36,000 15 379 0
2020-02-26 12:40:06 GMT 39.547668 0.064784 36,000 15 378 64
2020-02-26 12:40:03 GMT 39.543777 0.063351 36,000 15 378 64
2020-02-26 12:40:00 GMT 39.536957 0.060852 36,000 15 377 64
2020-02-26 12:39:55 GMT 39.528389 0.057739 35,975 15 378 256
2020-02-26 12:39:52 GMT 39.525284 0.056544 36,000 15 377 64
2020-02-26 12:39:43 GMT 39.510422 0.051086 35,900 15 379 832
2020-02-26 12:39:39 GMT 39.499805 0.047180 35,975 15 379 576
2020-02-26 12:39:34 GMT 39.494267 0.045105 35,975 15 378 256
2020-02-26 12:39:31 GMT 39.489120 0.043229 35,950 15 379 320
2020-02-26 12:39:27 GMT 39.483032 0.041020 35,925 15 379 576
2020-02-26 12:39:23 GMT 39.475880 0.038391 35,875 15 379 960
2020-02-26 12:39:19 GMT 39.467731 0.035400 35,775 15 380 1216
2020-02-26 12:39:14 GMT 39.459957 0.032532 35,675 15 381 1152
2020-02-26 12:39:11 GMT 39.456558 0.031311 35,650 15 381 1024
2020-02-26 12:39:02 GMT 39.439568 0.025208 35,500 15 381 832
2020-02-26 12:38:54 GMT 39.420994 0.018616 35,400 15 381 704
2020-02-26 12:38:41 GMT 39.404514 0.012695 35,275 15 381 704
2020-02-26 12:38:34 GMT 39.390736 0.007690 33,550 17 372 1088
2020-02-26 12:38:31 GMT 39.387150 0.006348 35,075 16 382 576
2020-02-26 12:38:24 GMT 39.374767 0.001648 35,050 16 382 192
2020-02-26 12:38:21 GMT 39.370422 0.000000 35,025 17 375 384
2020-02-26 12:38:17 GMT 39.362106 -0.003296 35,000 17 373 768
2020-02-26 12:38:11 GMT 39.353256 -0.006807 34,500 17 373 576
2020-02-26 12:38:01 GMT 39.336361 -0.013550 34,350 17 373 896
2020-02-26 12:37:57 GMT 39.329845 -0.016174 34,800 17 379 832
2020-02-26 12:37:53 GMT 39.323410 -0.018748 34,750 17 379 896
2020-02-26 12:37:50 GMT 39.318237 -0.020838 34,700 17 379 832
2020-02-26 12:37:46 GMT 39.311508 -0.023525 34,650 17 378 768
2020-02-26 12:37:42 GMT 39.305264 -0.026062 34,600 17 377 448
2020-02-26 12:37:38 GMT 39.296932 -0.029358 34,575 17 376 320
2020-02-26 12:37:33 GMT 39.289249 -0.032410 34,550 17 375 448
2020-02-26 12:37:30 GMT 39.284920 -0.034119 34,500 17 374 576
2020-02-26 12:37:22 GMT 39.271133 -0.039587 34,475 17 373 640
2020-02-26 12:37:19 GMT 39.267555 -0.041016 33,400 17 374 1280
2020-02-26 12:37:12 GMT 39.254791 -0.046095 34,325 17 373 960
2020-02-26 12:37:09 GMT 39.250992 -0.047647 34,300 17 373 960
2020-02-26 12:37:05 GMT 39.244141 -0.050354 34,225 17 373 960
2020-02-26 12:37:02 GMT 39.238693 -0.052490 34,175 17 373 768
2020-02-26 12:36:59 GMT 39.234329 -0.054275 34,100 17 373 832
2020-02-26 12:36:55 GMT 39.226826 -0.057251 34,100 17 373 832
2020-02-26 12:36:52 GMT 39.221786 -0.059231 34,025 17 373 832
2020-02-26 12:36:49 GMT 39.217987 -0.060783 34,000 17 373 896
2020-02-26 12:36:41 GMT 39.204712 -0.066040 33,875 17 373 960
2020-02-26 12:36:37 GMT 39.195374 -0.069799 33,800 17 372 832
2020-02-26 12:36:32 GMT 39.188965 -0.072366 33,750 17 372 768
2020-02-26 12:36:29 GMT 39.183838 -0.074397 33,700 17 372 768
2020-02-26 12:36:26 GMT 39.179482 -0.076111 33,100 17 374 1280
2020-02-26 12:36:22 GMT 39.171341 -0.079352 33,600 17 372 960
2020-02-26 12:36:19 GMT 39.162643 -0.082875 33,525 17 372 1216
2020-02-26 12:36:11 GMT 39.155045 -0.085920 33,425 17 372 1216
2020-02-26 12:36:06 GMT 39.145660 -0.089622 33,300 17 373 1280
2020-02-26 12:35:59 GMT 39.128551 -0.096436 33,100 17 374 1280
2020-02-26 12:35:56 GMT 39.128551 -0.096436 33,100 17 374 1280
2020-02-26 12:35:52 GMT 39.121429 -0.099304 32,700 17 376 1280
2020-02-26 12:35:49 GMT 39.111187 -0.103394 32,800 17 376 1280
2020-02-26 12:35:45 GMT 39.111187 -0.103394 32,725 17 376 1280
2020-02-26 12:35:41 GMT 39.105045 -0.105896 32,725 17 376 1280
2020-02-26 12:35:38 GMT 39.101040 -0.107483 32,725 17 376 1280
2020-02-26 12:35:35 GMT 39.094620 -0.110042 32,650 17 376 1280
2020-02-26 12:35:31 GMT 39.086472 -0.113267 32,425 17 377 1280
2020-02-26 12:35:28 GMT 39.083256 -0.114563 32,500 17 377 1280
2020-02-26 12:35:24 GMT 39.077179 -0.117028 31,200 17 377 1216
2020-02-26 12:35:21 GMT 39.071045 -0.119476 32,300 17 376 1088
2020-02-26 12:35:18 GMT 39.067429 -0.120911 32,300 17 376 1088
2020-02-26 12:35:15 GMT 39.060562 -0.123656 32,150 17 374 1088
2020-02-26 12:35:11 GMT 39.054565 -0.126044 32,150 17 374 1088
2020-02-26 12:35:08 GMT 39.050125 -0.127835 32,150 17 374 1088
2020-02-26 12:35:04 GMT 39.043549 -0.130432 32,050 17 374 1088
2020-02-26 12:35:01 GMT 39.037964 -0.132629 31,975 17 373 1024
2020-02-26 12:34:58 GMT 39.033493 -0.134399 31,950 17 373 1024
2020-02-26 12:34:54 GMT 39.026459 -0.137210 31,475 17 371 1152
2020-02-26 12:34:48 GMT 39.017014 -0.140991 31,750 17 371 1280
2020-02-26 12:34:43 GMT 39.009609 -0.143921 31,675 17 371 1344
2020-02-26 12:34:40 GMT 39.004864 -0.145813 31,600 17 370 1408
2020-02-26 12:34:37 GMT 38.992630 -0.150644 31,425 17 370 1280
2020-02-26 12:34:33 GMT 38.992630 -0.150644 31,425 17 370 1472
2020-02-26 12:34:30 GMT 38.987640 -0.152649 31,350 17 370 1408
2020-02-26 12:34:27 GMT 38.982750 -0.154541 31,250 17 366 960
2020-02-26 12:34:20 GMT 38.971069 -0.159182 31,150 17 368 960
2020-02-26 12:34:17 GMT 38.966995 -0.160794 31,100 17 368 960
2020-02-26 12:34:13 GMT 38.954956 -0.165571 30,975 17 365 1024
2020-02-26 12:34:10 GMT 38.950024 -0.167542 30,975 17 365 1024
2020-02-26 12:34:07 GMT 38.942760 -0.170410 30,325 17 364 1216
2020-02-26 12:34:02 GMT 38.942760 -0.170410 30,825 17 363 1472
2020-02-26 12:33:59 GMT 38.935318 -0.173393 30,725 17 363 1536
2020-02-26 12:33:56 GMT 38.933594 -0.174072 30,650 17 363 1536
2020-02-26 12:33:51 GMT 38.920929 -0.179138 30,575 17 362 1472
2020-02-26 12:33:47 GMT 38.910233 -0.183364 30,350 17 362 1472
2020-02-26 12:33:40 GMT 38.906387 -0.184917 30,275 17 362 1472
2020-02-26 12:33:36 GMT 38.897781 -0.188320 30,150 17 362 1600
2020-02-26 12:33:31 GMT 38.892719 -0.190308 30,050 17 362 1664
2020-02-26 12:33:28 GMT 38.886620 -0.192749 29,950 17 362 1856
2020-02-26 12:33:25 GMT 38.883595 -0.193970 29,225 17 358 960
2020-02-26 12:33:22 GMT 38.876312 -0.196858 29,725 17 363 1984
2020-02-26 12:33:16 GMT 38.868896 -0.199784 29,600 17 363 1856
2020-02-26 12:33:09 GMT 38.856995 -0.204441 29,375 17 363 1408
2020-02-26 12:33:06 GMT 38.852917 -0.206055 29,325 16 362 1152
2020-02-26 12:32:59 GMT 38.841293 -0.210591 29,225 16 360 960
2020-02-26 12:32:55 GMT 38.835709 -0.212800 29,150 17 358 960
2020-02-26 12:32:49 GMT 38.823914 -0.217407 29,050 17 357 1088
2020-02-26 12:32:45 GMT 38.808784 -0.223328 28,650 17 349 1984
2020-02-26 12:32:39 GMT 38.808784 -0.223328 28,875 17 354 1152
2020-02-26 12:32:35 GMT 38.804169 -0.225160 28,775 17 353 1280
2020-02-26 12:32:29 GMT 38.793331 -0.229431 28,650 17 351 1408
2020-02-26 12:32:26 GMT 38.788742 -0.231250 28,550 17 351 1536
2020-02-26 12:32:18 GMT 38.777710 -0.235669 28,375 17 350 1664
2020-02-26 12:32:15 GMT 38.772263 -0.237818 28,275 17 350 1792
2020-02-26 12:32:08 GMT 38.762054 -0.241878 28,075 17 350 2048
2020-02-26 12:32:05 GMT 38.757111 -0.243849 27,975 17 350 1984
2020-02-26 12:31:59 GMT 38.745708 -0.248352 27,750 17 350 1600
2020-02-26 12:31:55 GMT 38.740952 -0.250238 27,675 17 350 1600
2020-02-26 12:31:48 GMT 38.730743 -0.254357 27,475 17 349 1856
2020-02-26 12:31:45 GMT 38.725937 -0.256268 27,375 17 349 1984
2020-02-26 12:31:38 GMT 38.709770 -0.262695 27,025 17 350 1984
2020-02-26 12:31:35 GMT 38.699249 -0.266846 26,250 17 346 1344
2020-02-26 12:31:28 GMT 38.699249 -0.266846 26,800 17 350 1920
2020-02-26 12:31:25 GMT 38.692730 -0.269409 26,550 17 349 1856
2020-02-26 12:31:18 GMT 38.683823 -0.272927 26,475 17 348 1600
2020-02-26 12:31:14 GMT 38.668385 -0.278992 26,175 17 344 1344
2020-02-26 12:31:08 GMT 38.662949 -0.281107 26,225 17 344 1344
2020-02-26 12:31:05 GMT 38.662949 -0.281107 26,150 17 343 1408
2020-02-26 12:30:57 GMT 38.652512 -0.285227 25,950 17 340 1728
2020-02-26 12:30:53 GMT 38.643631 -0.288690 25,775 16 338 1920
2020-02-26 12:30:47 GMT 38.637100 -0.291199 25,525 17 337 1856
2020-02-26 12:30:44 GMT 38.631981 -0.293213 25,525 16 336 1856
2020-02-26 12:30:41 GMT 38.627289 -0.295019 25,250 16 335 1856
2020-02-26 12:30:38 GMT 38.622208 -0.296989 25,325 16 335 1856
2020-02-26 12:30:31 GMT 38.613079 -0.300537 24,475 16 333 1856
2020-02-26 12:30:27 GMT 38.606422 -0.303162 25,025 16 333 1792
2020-02-26 12:30:24 GMT 38.601517 -0.305050 24,875 17 331 1728
2020-02-26 12:30:20 GMT 38.595795 -0.307259 24,775 16 329 1728
2020-02-26 12:30:17 GMT 38.591263 -0.309050 24,675 16 329 1728
2020-02-26 12:30:12 GMT 38.584259 -0.311737 24,550 17 328 1664
2020-02-26 12:30:08 GMT 38.578678 -0.313904 24,450 17 326 1728
2020-02-26 12:30:05 GMT 38.574280 -0.315618 24,350 17 325 1792
2020-02-26 12:30:01 GMT 38.567039 -0.318481 24,200 17 323 2176
2020-02-26 12:29:56 GMT 38.562012 -0.320435 24,125 17 323 2176
2020-02-26 12:29:53 GMT 38.557308 -0.322327 23,175 17 324 3136
2020-02-26 12:29:46 GMT 38.547161 -0.326355 23,650 17 324 3008
2020-02-26 12:29:40 GMT 38.537388 -0.330261 23,050 17 327 3136
2020-02-26 12:29:35 GMT 38.532452 -0.332214 23,150 17 327 3008
2020-02-26 12:29:32 GMT 38.527515 -0.334167 22,825 17 331 2688
2020-02-26 12:29:29 GMT 38.522369 -0.336217 22,800 17 331 2368
2020-02-26 12:29:26 GMT 38.519302 -0.337471 22,575 17 331 2368
2020-02-26 12:29:22 GMT 38.512848 -0.340039 22,525 17 332 2304
2020-02-26 12:29:17 GMT 38.504791 -0.343203 22,325 17 331 2240
2020-02-26 12:29:12 GMT 38.497536 -0.346069 22,125 17 331 2368
2020-02-26 12:29:06 GMT 38.489868 -0.349174 21,925 17 331 2496
2020-02-26 12:29:01 GMT 38.482452 -0.352112 21,700 17 331 2496
2020-02-26 12:28:56 GMT 38.474865 -0.355225 21,500 17 332 2560
2020-02-26 12:28:52 GMT 38.467712 -0.358071 21,275 17 333 2688
2020-02-26 12:28:46 GMT 38.460068 -0.361116 21,050 17 333 2624
2020-02-26 12:28:42 GMT 38.454803 -0.363265 20,800 17 334 2496
2020-02-26 12:28:39 GMT 38.448120 -0.365892 20,700 17 334 2176
2020-02-26 12:28:36 GMT 38.445259 -0.367065 20,625 17 334 2240
2020-02-26 12:28:31 GMT 38.437717 -0.369995 20,450 17 332 1856
2020-02-26 12:28:26 GMT 38.430450 -0.372878 20,300 16 330 1536
2020-02-26 12:28:20 GMT 38.421707 -0.376222 20,150 16 326 1408
2020-02-26 12:28:16 GMT 38.414581 -0.378967 20,025 16 321 1536
2020-02-26 12:28:11 GMT 38.406898 -0.381894 19,875 16 319 2048
2020-02-26 12:28:07 GMT 38.402435 -0.383586 19,750 16 318 2688
2020-02-26 12:28:03 GMT 38.396622 -0.385807 19,650 16 317 2944
2020-02-26 12:27:59 GMT 38.391769 -0.387567 19,400 16 317 2880
2020-02-26 12:27:56 GMT 38.383804 -0.390482 18,850 16 317 3200
2020-02-26 12:27:49 GMT 38.377991 -0.392586 18,950 16 316 3136
2020-02-26 12:27:44 GMT 38.369377 -0.395926 18,625 20 320 2880
2020-02-26 12:27:41 GMT 38.366398 -0.397299 18,475 29 327 2176
2020-02-26 12:27:38 GMT 38.360092 -0.401118 18,350 29 327 2112
2020-02-26 12:27:35 GMT 38.358765 -0.402053 18,325 33 330 1920
2020-02-26 12:27:29 GMT 38.350945 -0.408763 17,875 43 336 1792
2020-02-26 12:27:26 GMT 38.346893 -0.413122 18,025 47 339 1856
2020-02-26 12:27:23 GMT 38.342560 -0.418766 17,875 50 340 1856
2020-02-26 12:27:19 GMT 38.339443 -0.423690 17,875 53 342 1856
2020-02-26 12:27:15 GMT 38.335953 -0.430198 17,700 61 348 1856
2020-02-26 12:27:10 GMT 38.332626 -0.438051 17,025 70 348 2816
2020-02-26 12:27:07 GMT 38.329971 -0.445998 17,400 70 350 2304
2020-02-26 12:27:04 GMT 38.329147 -0.448920 17,350 70 350 2368
2020-02-26 12:27:01 GMT 38.327042 -0.456283 17,175 70 348 2624
2020-02-26 12:26:54 GMT 38.321430 -0.476651 16,575 70 347 2880
2020-02-26 12:26:50 GMT 38.321430 -0.476651 16,575 70 347 2816
2020-02-26 12:26:47 GMT 38.318893 -0.485853 16,450 70 347 3008
2020-02-26 12:26:39 GMT 38.313263 -0.506248 15,875 70 347 3264
2020-02-26 12:26:36 GMT 38.311749 -0.511760 15,750 70 347 3264
2020-02-26 12:26:30 GMT 38.308868 -0.522260 15,000 70 348 3392
2020-02-26 12:26:24 GMT 38.307495 -0.527344 14,700 70 350 2880
2020-02-26 12:26:18 GMT 38.304066 -0.539882 14,225 70 346 2752
2020-02-26 12:26:14 GMT 38.302139 -0.546745 14,825 70 350 2752
2020-02-26 12:26:08 GMT 38.296898 -0.565856 14,300 70 344 2944
2020-02-26 12:26:04 GMT 38.296898 -0.565856 14,350 70 346 2688
2020-02-26 12:25:58 GMT 38.293076 -0.579529 13,725 70 343 2944
2020-02-26 12:25:54 GMT 38.287632 -0.598635 13,475 69 341 3072
2020-02-26 12:25:47 GMT 38.287632 -0.598635 13,425 69 342 3136
2020-02-26 12:25:44 GMT 38.285957 -0.604487 13,325 69 342 3136
2020-02-26 12:25:37 GMT 38.280090 -0.624011 12,825 68 341 2368
2020-02-26 12:25:33 GMT 38.280090 -0.624011 12,825 68 341 2368
2020-02-26 12:25:29 GMT 38.277786 -0.631597 12,700 68 338 1984
2020-02-26 12:25:26 GMT 38.275993 -0.637267 12,600 67 336 1856
2020-02-26 12:25:23 GMT 38.274178 -0.642939 12,525 67 335 1664
2020-02-26 12:25:17 GMT 38.270096 -0.655440 12,375 67 324 1152
2020-02-26 12:25:13 GMT 38.268406 -0.660613 12,325 67 321 1216
2020-02-26 12:25:08 GMT 38.265427 -0.669629 12,200 67 313 1408
2020-02-26 12:25:05 GMT 38.262177 -0.679282 12,050 67 306 1536
2020-02-26 12:24:59 GMT 38.260208 -0.685418 11,950 68 299 1472
2020-02-26 12:24:56 GMT 38.258698 -0.690152 11,900 68 296 1344
2020-02-26 12:24:53 GMT 38.257282 -0.694766 10,775 101 264 1152
2020-02-26 12:24:46 GMT 38.252625 -0.711484 11,675 136 240 1536
2020-02-26 12:24:43 GMT 38.252625 -0.711484 11,650 73 279 1216
2020-02-26 12:24:36 GMT 38.250000 -0.723929 11,475 79 272 1280
2020-02-26 12:24:32 GMT 38.249554 -0.727187 11,425 84 271 1152
2020-02-26 12:24:28 GMT 38.249134 -0.733815 11,350 92 268 1088
2020-02-26 12:24:23 GMT 38.249786 -0.742532 11,250 106 262 1024
2020-02-26 12:24:18 GMT 38.251415 -0.748981 11,175 115 257 1024
2020-02-26 12:24:15 GMT 38.253231 -0.753758 11,075 126 248 1216
2020-02-26 12:24:12 GMT 38.254852 -0.756946 11,075 126 248 1216
2020-02-26 12:24:06 GMT 38.262589 -0.767491 10,875 139 238 1792
2020-02-26 12:24:03 GMT 38.262589 -0.767491 10,800 144 235 2368
2020-02-26 12:23:55 GMT 38.268871 -0.772685 10,500 156 231 2688
2020-02-26 12:23:50 GMT 38.278702 -0.776523 10,075 179 226 2496
2020-02-26 12:23:45 GMT 38.280624 -0.776757 10,000 183 225 2432
2020-02-26 12:23:42 GMT 38.287674 -0.775939 9,725 187 223 2176
2020-02-26 12:23:37 GMT 38.287674 -0.775939 9,750 196 219 1856
2020-02-26 12:23:33 GMT 38.291122 -0.774715 9,650 204 215 1984
2020-02-26 12:23:30 GMT 38.294220 -0.773017 9,525 219 212 2688
2020-02-26 12:23:27 GMT 38.296711 -0.771252 9,400 217 212 2688
2020-02-26 12:23:24 GMT 38.299576 -0.768517 8,800 260 205 2560
2020-02-26 12:23:17 GMT 38.303787 -0.762415 8,925 240 209 2752
2020-02-26 12:23:13 GMT 38.305847 -0.757881 8,825 244 208 2752
2020-02-26 12:23:10 GMT 38.306946 -0.754141 8,675 253 207 2624
2020-02-26 12:23:07 GMT 38.307789 -0.748145 8,375 267 203 2560
2020-02-26 12:23:01 GMT 38.307697 -0.740920 8,025 281 193 2624
2020-02-26 12:22:55 GMT 38.307129 -0.736493 7,875 280 199 3456
2020-02-26 12:22:52 GMT 38.306671 -0.732870 7,700 280 199 3456
2020-02-26 12:22:46 GMT 38.305893 -0.727201 7,300 280 198 2752
2020-02-26 12:22:43 GMT 38.304520 -0.717092 7,175 280 197 2624
2020-02-26 12:22:39 GMT 38.304520 -0.717092 7,025 281 194 2560
2020-02-26 12:22:34 GMT 38.303974 -0.712917 6,850 281 193 2560
2020-02-26 12:22:31 GMT 38.303459 -0.709454 6,750 281 193 2624
2020-02-26 12:22:24 GMT 38.302391 -0.701752 6,350 280 190 3264
2020-02-26 12:22:21 GMT 38.301926 -0.698348 6,250 280 190 3456
2020-02-26 12:22:18 GMT 38.301132 -0.692616 5,925 280 193 4032
2020-02-26 12:22:14 GMT 38.300812 -0.690444 5,725 280 195 4160
2020-02-26 12:22:11 GMT 38.300400 -0.687171 5,600 281 198 4160
2020-02-26 12:22:06 GMT 38.299530 -0.681328 5,250 281 201 3840
2020-02-26 12:22:01 GMT 38.298706 -0.675484 5,050 281 202 3328
2020-02-26 12:21:56 GMT 38.297829 -0.669569 4,700 281 201 3136
2020-02-26 12:21:53 GMT 38.297318 -0.666106 4,525 281 201 3072
2020-02-26 12:21:50 GMT 38.296875 -0.663270 4,425 281 200 2880
2020-02-26 12:21:43 GMT 38.295456 -0.653453 4,075 281 195 2560
2020-02-26 12:21:36 GMT 38.294312 -0.645447 3,700 279 190 2944
2020-02-26 12:21:33 GMT 38.293964 -0.642820 3,575 279 190 3072
2020-02-26 12:21:30 GMT 38.293625 -0.640012 3,575 279 190 3072
2020-02-26 12:21:22 GMT 38.292290 -0.628728 3,025 279 183 2368
2020-02-26 12:21:15 GMT 38.291519 -0.622072 2,775 280 180 2560
2020-02-26 12:21:09 GMT 38.290878 -0.617455 2,575 280 178 2624
2020-02-26 12:21:03 GMT 38.289776 -0.609741 2,250 281 175 2624
2020-02-26 12:21:00 GMT 38.289539 -0.608129 2,175 281 173 2688
2020-02-26 12:20:52 GMT 38.288086 -0.597761 1,800 281 164 1920
2020-02-26 12:20:43 GMT 38.287029 -0.591053 1,550 281 158 2048
2020-02-26 12:20:40 GMT 38.286655 -0.588366 1,475 282 154 1856
2020-02-26 12:20:32 GMT 38.285725 -0.582455 1,200 282 145 2048
2020-02-26 12:20:29 GMT 38.285156 -0.579061 1,100 281 142 2368

Making use of Plane Finder data

You are free to use the raw flight data, aircraft information and images provided in this report for your own purposes provided the data is correctly attributed to Plane Finder. We ask that you please credit Plane Finder and link to planefinder.net in close proximity to the content.

Optionally one of the following logos (no smaller then 150x24px) can be used and must link to planefinder.net

Embedding the Plane Finder map

You are welcome to embed the Plane Finder playback map on your website to offer visitors a more interactive experience. We suggest using the following HTML code:

<iframe src="//planefinder.net/data/report/U27416-G-UZHI-7700-squawk-2020-02-26/map" width="800" height="600" seamless="seamless"></iframe>

Where our data comes from

Plane Finder has a global network of data feeds and antenna radars that receive data broadcast directly from aircraft. The primary technologies used are ADS-B and MLAT. We also show feeds from the FAA and a FLARM glider feed.

Click here to find out more about the Plane Finder network.

How we collect our data